<?xml version='1.0' encoding='UTF-8'?><gpx version="1.1" creator="JPX - https://github.com/jenetics/jpx" xmlns="http://www.topografix.com/GPX/1/1"><trk><trkseg><trkpt lat="45.57232" lon="8.63949"><ele>195.0</ele><time>2026-05-02T07:24:12.758Z</time></trkpt><trkpt lat="45.5724618" lon="8.6394281"><ele>195.0</ele><time>2026-05-02T07:24:13.702Z</time></trkpt><trkpt lat="45.5725351" lon="8.6393955"><ele>195.0</ele><time>2026-05-02T07:24:14.685Z</time></trkpt><trkpt lat="45.5726009" lon="8.6393652"><ele>195.0</ele><time>2026-05-02T07:24:16.709Z</time></trkpt><trkpt lat="45.5719112" lon="8.639585"><ele>195.0</ele><time>2026-05-02T07:24:20.698Z</time></trkpt><trkpt lat="45.5723637" lon="8.6393912"><ele>195.0</ele><time>2026-05-02T07:24:42.741Z</time></trkpt><trkpt lat="45.5725109" lon="8.6393438"><ele>195.0</ele><time>2026-05-02T07:24:43.751Z</time></trkpt><trkpt lat="45.5725755" lon="8.6393846"><ele>195.0</ele><time>2026-05-02T07:25:04.747Z</time></trkpt><trkpt lat="45.572534" lon="8.6394722"><ele>195.0</ele><time>2026-05-02T07:25:09.706Z</time></trkpt><trkpt lat="45.5724617" lon="8.639508"><ele>195.0</ele><time>2026-05-02T07:25:12.682Z</time></trkpt><trkpt lat="45.5724004" lon="8.6395398"><ele>195.0</ele><time>2026-05-02T07:25:14.74Z</time></trkpt><trkpt lat="45.572333" lon="8.6396105"><ele>195.0</ele><time>2026-05-02T07:25:17.658Z</time></trkpt><trkpt lat="45.5723452" lon="8.6397226"><ele>195.0</ele><time>2026-05-02T07:25:20.714Z</time></trkpt><trkpt lat="45.5723723" lon="8.6398342"><ele>195.0</ele><time>2026-05-02T07:25:23.722Z</time></trkpt><trkpt lat="45.5723958" lon="8.6399235"><ele>195.0</ele><time>2026-05-02T07:25:25.652Z</time></trkpt><trkpt lat="45.57243" lon="8.6400383"><ele>195.0</ele><time>2026-05-02T07:25:27.7Z</time></trkpt><trkpt lat="45.5724604" lon="8.6401548"><ele>195.0</ele><time>2026-05-02T07:25:29.779Z</time></trkpt><trkpt lat="45.572501" lon="8.6402895"><ele>195.33333333333334</ele><time>2026-05-02T07:25:31.708Z</time></trkpt><trkpt lat="45.5725308" lon="8.6404135"><ele>195.66666666666669</ele><time>2026-05-02T07:25:33.715Z</time></trkpt><trkpt lat="45.572525" lon="8.6405083"><ele>196.0</ele><time>2026-05-02T07:25:35.709Z</time></trkpt><trkpt lat="45.5725767" lon="8.6405933"><ele>196.33333333333334</ele><time>2026-05-02T07:25:50.703Z</time></trkpt><trkpt lat="45.57266" lon="8.6405733"><ele>196.66666666666669</ele><time>2026-05-02T07:25:52.699Z</time></trkpt><trkpt lat="45.572735" lon="8.6405333"><ele>197.0</ele><time>2026-05-02T07:25:54.705Z</time></trkpt><trkpt lat="45.5727967" lon="8.6405517"><ele>197.0</ele><time>2026-05-02T07:25:56.707Z</time></trkpt><trkpt lat="45.57285" lon="8.6406833"><ele>197.0</ele><time>2026-05-02T07:25:59.708Z</time></trkpt><trkpt lat="45.5728917" lon="8.6408033"><ele>197.0</ele><time>2026-05-02T07:26:01.708Z</time></trkpt><trkpt lat="45.572935" lon="8.6409383"><ele>197.0</ele><time>2026-05-02T07:26:03.708Z</time></trkpt><trkpt lat="45.5729733" lon="8.6410783"><ele>197.0</ele><time>2026-05-02T07:26:05.706Z</time></trkpt><trkpt lat="45.5730033" lon="8.6412133"><ele>196.8</ele><time>2026-05-02T07:26:07.706Z</time></trkpt><trkpt lat="45.573035" lon="8.6413517"><ele>196.6</ele><time>2026-05-02T07:26:09.706Z</time></trkpt><trkpt lat="45.5730667" lon="8.6414883"><ele>196.4</ele><time>2026-05-02T07:26:11.706Z</time></trkpt><trkpt lat="45.5731017" lon="8.64162"><ele>196.20000000000002</ele><time>2026-05-02T07:26:13.698Z</time></trkpt><trkpt lat="45.573135" lon="8.6417467"><ele>196.0</ele><time>2026-05-02T07:26:15.705Z</time></trkpt><trkpt lat="45.57316" lon="8.6418767"><ele>195.83333333333331</ele><time>2026-05-02T07:26:17.704Z</time></trkpt><trkpt lat="45.57319" lon="8.642"><ele>195.66666666666666</ele><time>2026-05-02T07:26:19.704Z</time></trkpt><trkpt lat="45.573215" lon="8.6421217"><ele>195.5</ele><time>2026-05-02T07:26:21.706Z</time></trkpt><trkpt lat="45.5732433" lon="8.6422417"><ele>195.33333333333331</ele><time>2026-05-02T07:26:23.705Z</time></trkpt><trkpt lat="45.5732683" lon="8.642355"><ele>195.16666666666666</ele><time>2026-05-02T07:26:25.705Z</time></trkpt><trkpt lat="45.5732983" lon="8.6424533"><ele>195.0</ele><time>2026-05-02T07:26:27.706Z</time></trkpt><trkpt lat="45.5733133" lon="8.64257"><ele>195.0</ele><time>2026-05-02T07:26:29.706Z</time></trkpt><trkpt lat="45.57334" lon="8.6426833"><ele>195.0</ele><time>2026-05-02T07:26:31.706Z</time></trkpt><trkpt lat="45.5733617" lon="8.642805"><ele>195.0</ele><time>2026-05-02T07:26:33.703Z</time></trkpt><trkpt lat="45.5733783" lon="8.6429283"><ele>195.0</ele><time>2026-05-02T07:26:35.704Z</time></trkpt><trkpt lat="45.5733967" lon="8.64305"><ele>195.0</ele><time>2026-05-02T07:26:37.706Z</time></trkpt><trkpt lat="45.5734117" lon="8.6431733"><ele>195.0</ele><time>2026-05-02T07:26:39.71Z</time></trkpt><trkpt lat="45.573435" lon="8.6433"><ele>195.16666666666666</ele><time>2026-05-02T07:26:41.709Z</time></trkpt><trkpt lat="45.5734517" lon="8.643425"><ele>195.33333333333331</ele><time>2026-05-02T07:26:43.706Z</time></trkpt><trkpt lat="45.5734767" lon="8.64355"><ele>195.5</ele><time>2026-05-02T07:26:45.707Z</time></trkpt><trkpt lat="45.5734917" lon="8.6436717"><ele>195.66666666666666</ele><time>2026-05-02T07:26:47.707Z</time></trkpt><trkpt lat="45.57351" lon="8.643795"><ele>195.83333333333331</ele><time>2026-05-02T07:26:49.706Z</time></trkpt><trkpt lat="45.57353" lon="8.64392"><ele>196.0</ele><time>2026-05-02T07:26:51.707Z</time></trkpt><trkpt lat="45.5735483" lon="8.644045"><ele>195.99999999999997</ele><time>2026-05-02T07:26:53.704Z</time></trkpt><trkpt lat="45.5735683" lon="8.64417"><ele>196.0</ele><time>2026-05-02T07:26:55.7Z</time></trkpt><trkpt lat="45.57359" lon="8.6442917"><ele>196.0</ele><time>2026-05-02T07:26:57.697Z</time></trkpt><trkpt lat="45.573605" lon="8.644405"><ele>196.0</ele><time>2026-05-02T07:26:59.7Z</time></trkpt><trkpt lat="45.57362" lon="8.64452"><ele>195.99999999999997</ele><time>2026-05-02T07:27:01.707Z</time></trkpt><trkpt lat="45.573635" lon="8.6446333"><ele>196.0</ele><time>2026-05-02T07:27:03.708Z</time></trkpt><trkpt lat="45.573645" lon="8.6447483"><ele>196.16666666666666</ele><time>2026-05-02T07:27:05.706Z</time></trkpt><trkpt lat="45.57365" lon="8.6448683"><ele>196.33333333333331</ele><time>2026-05-02T07:27:07.7Z</time></trkpt><trkpt lat="45.573655" lon="8.6449933"><ele>196.5</ele><time>2026-05-02T07:27:09.706Z</time></trkpt><trkpt lat="45.57367" lon="8.6451117"><ele>196.66666666666669</ele><time>2026-05-02T07:27:11.705Z</time></trkpt><trkpt lat="45.5736817" lon="8.6452317"><ele>196.83333333333334</ele><time>2026-05-02T07:27:13.704Z</time></trkpt><trkpt lat="45.5736917" lon="8.6453467"><ele>197.0</ele><time>2026-05-02T07:27:15.709Z</time></trkpt><trkpt lat="45.573705" lon="8.6454667"><ele>196.50000000000003</ele><time>2026-05-02T07:27:17.708Z</time></trkpt><trkpt lat="45.57372" lon="8.6455817"><ele>196.0</ele><time>2026-05-02T07:27:19.709Z</time></trkpt><trkpt lat="45.5737333" lon="8.6456967"><ele>195.5</ele><time>2026-05-02T07:27:21.709Z</time></trkpt><trkpt lat="45.573745" lon="8.6458117"><ele>195.0</ele><time>2026-05-02T07:27:23.707Z</time></trkpt><trkpt lat="45.5737583" lon="8.64593"><ele>194.50000000000003</ele><time>2026-05-02T07:27:25.712Z</time></trkpt><trkpt lat="45.5737633" lon="8.6460533"><ele>194.0</ele><time>2026-05-02T07:27:27.706Z</time></trkpt><trkpt lat="45.57377" lon="8.6461717"><ele>194.00000000000003</ele><time>2026-05-02T07:27:29.702Z</time></trkpt><trkpt lat="45.5737867" lon="8.646285"><ele>194.0</ele><time>2026-05-02T07:27:31.704Z</time></trkpt><trkpt lat="45.5738017" lon="8.646405"><ele>194.0</ele><time>2026-05-02T07:27:33.706Z</time></trkpt><trkpt lat="45.57382" lon="8.6465283"><ele>194.0</ele><time>2026-05-02T07:27:35.704Z</time></trkpt><trkpt lat="45.573835" lon="8.6466533"><ele>194.00000000000003</ele><time>2026-05-02T07:27:37.705Z</time></trkpt><trkpt lat="45.5738433" lon="8.6467817"><ele>194.0</ele><time>2026-05-02T07:27:39.705Z</time></trkpt><trkpt lat="45.5738517" lon="8.6469067"><ele>194.00000000000003</ele><time>2026-05-02T07:27:41.706Z</time></trkpt><trkpt lat="45.5738633" lon="8.6470283"><ele>194.0</ele><time>2026-05-02T07:27:43.706Z</time></trkpt><trkpt lat="45.573875" lon="8.6471533"><ele>194.0</ele><time>2026-05-02T07:27:45.707Z</time></trkpt><trkpt lat="45.573885" lon="8.6472867"><ele>194.0</ele><time>2026-05-02T07:27:47.706Z</time></trkpt><trkpt lat="45.5738983" lon="8.6474133"><ele>194.00000000000003</ele><time>2026-05-02T07:27:49.704Z</time></trkpt><trkpt lat="45.5739117" lon="8.64754"><ele>194.0</ele><time>2026-05-02T07:27:51.706Z</time></trkpt><trkpt lat="45.57393" lon="8.64767"><ele>194.00000000000003</ele><time>2026-05-02T07:27:53.704Z</time></trkpt><trkpt lat="45.5739433" lon="8.64779"><ele>194.0</ele><time>2026-05-02T07:27:55.705Z</time></trkpt><trkpt lat="45.5739533" lon="8.6479117"><ele>194.0</ele><time>2026-05-02T07:27:57.706Z</time></trkpt><trkpt lat="45.5739617" lon="8.6480317"><ele>194.0</ele><time>2026-05-02T07:27:59.708Z</time></trkpt><trkpt lat="45.5739767" lon="8.6481533"><ele>194.00000000000003</ele><time>2026-05-02T07:28:01.708Z</time></trkpt><trkpt lat="45.5739933" lon="8.648275"><ele>194.0</ele><time>2026-05-02T07:28:03.708Z</time></trkpt><trkpt lat="45.5740017" lon="8.6484017"><ele>194.00000000000003</ele><time>2026-05-02T07:28:05.709Z</time></trkpt><trkpt lat="45.5740133" lon="8.648525"><ele>194.0</ele><time>2026-05-02T07:28:07.704Z</time></trkpt><trkpt lat="45.574025" lon="8.6486483"><ele>194.0</ele><time>2026-05-02T07:28:09.705Z</time></trkpt><trkpt lat="45.574035" lon="8.6487667"><ele>194.0</ele><time>2026-05-02T07:28:11.71Z</time></trkpt><trkpt lat="45.5740417" lon="8.6488933"><ele>194.00000000000003</ele><time>2026-05-02T07:28:13.705Z</time></trkpt><trkpt lat="45.5740517" lon="8.6490183"><ele>194.0</ele><time>2026-05-02T07:28:15.704Z</time></trkpt><trkpt lat="45.5740617" lon="8.6491417"><ele>194.00000000000003</ele><time>2026-05-02T07:28:17.702Z</time></trkpt><trkpt lat="45.5740717" lon="8.649265"><ele>194.0</ele><time>2026-05-02T07:28:19.707Z</time></trkpt><trkpt lat="45.57408" lon="8.6493883"><ele>194.0</ele><time>2026-05-02T07:28:21.707Z</time></trkpt><trkpt lat="45.5740917" lon="8.64951"><ele>194.0</ele><time>2026-05-02T07:28:23.706Z</time></trkpt><trkpt lat="45.5741017" lon="8.6496383"><ele>194.00000000000003</ele><time>2026-05-02T07:28:25.708Z</time></trkpt><trkpt lat="45.5741117" lon="8.649765"><ele>194.0</ele><time>2026-05-02T07:28:27.707Z</time></trkpt><trkpt lat="45.5741283" lon="8.6498883"><ele>194.00000000000003</ele><time>2026-05-02T07:28:29.705Z</time></trkpt><trkpt lat="45.5741467" lon="8.650005"><ele>194.0</ele><time>2026-05-02T07:28:31.707Z</time></trkpt><trkpt lat="45.5741633" lon="8.6501233"><ele>194.0</ele><time>2026-05-02T07:28:33.706Z</time></trkpt><trkpt lat="45.5742033" lon="8.650225"><ele>194.0</ele><time>2026-05-02T07:28:35.707Z</time></trkpt><trkpt lat="45.5742717" lon="8.6502817"><ele>194.00000000000003</ele><time>2026-05-02T07:28:37.709Z</time></trkpt><trkpt lat="45.5743433" lon="8.6503233"><ele>194.0</ele><time>2026-05-02T07:28:39.709Z</time></trkpt><trkpt lat="45.574415" lon="8.65036"><ele>194.0</ele><time>2026-05-02T07:28:41.707Z</time></trkpt><trkpt lat="45.574485" lon="8.6503933"><ele>194.0</ele><time>2026-05-02T07:28:43.707Z</time></trkpt><trkpt lat="45.5745483" lon="8.6504267"><ele>194.0</ele><time>2026-05-02T07:28:45.703Z</time></trkpt><trkpt lat="45.5746217" lon="8.6504783"><ele>194.0</ele><time>2026-05-02T07:28:48.708Z</time></trkpt><trkpt lat="45.5746867" lon="8.6505483"><ele>194.0</ele><time>2026-05-02T07:28:51.71Z</time></trkpt><trkpt lat="45.574755" lon="8.6505917"><ele>194.0</ele><time>2026-05-02T07:28:53.706Z</time></trkpt><trkpt lat="45.5748217" lon="8.6506167"><ele>194.0</ele><time>2026-05-02T07:28:55.706Z</time></trkpt><trkpt lat="45.5749033" lon="8.6506133"><ele>194.00000000000003</ele><time>2026-05-02T07:28:58.704Z</time></trkpt><trkpt lat="45.5749983" lon="8.6506133"><ele>194.0</ele><time>2026-05-02T07:29:01.707Z</time></trkpt><trkpt lat="45.5750767" lon="8.6505983"><ele>194.0</ele><time>2026-05-02T07:29:03.705Z</time></trkpt><trkpt lat="45.5751667" lon="8.6506083"><ele>194.0</ele><time>2026-05-02T07:29:05.706Z</time></trkpt><trkpt lat="45.575255" lon="8.6506067"><ele>194.00000000000003</ele><time>2026-05-02T07:29:07.707Z</time></trkpt><trkpt lat="45.5753383" lon="8.6505833"><ele>194.0</ele><time>2026-05-02T07:29:09.71Z</time></trkpt><trkpt lat="45.57542" lon="8.6505583"><ele>194.00000000000003</ele><time>2026-05-02T07:29:11.707Z</time></trkpt><trkpt lat="45.5754967" lon="8.6505317"><ele>194.0</ele><time>2026-05-02T07:29:13.707Z</time></trkpt><trkpt lat="45.575575" lon="8.65051"><ele>194.0</ele><time>2026-05-02T07:29:15.704Z</time></trkpt><trkpt lat="45.5756517" lon="8.6504883"><ele>194.0</ele><time>2026-05-02T07:29:17.708Z</time></trkpt><trkpt lat="45.5757283" lon="8.650465"><ele>194.00000000000003</ele><time>2026-05-02T07:29:19.71Z</time></trkpt><trkpt lat="45.5758033" lon="8.650445"><ele>194.0</ele><time>2026-05-02T07:29:21.707Z</time></trkpt><trkpt lat="45.57588" lon="8.6504217"><ele>194.00000000000003</ele><time>2026-05-02T07:29:23.705Z</time></trkpt><trkpt lat="45.5759567" lon="8.650395"><ele>194.0</ele><time>2026-05-02T07:29:25.707Z</time></trkpt><trkpt lat="45.5760367" lon="8.6503633"><ele>194.0</ele><time>2026-05-02T07:29:27.705Z</time></trkpt><trkpt lat="45.5761167" lon="8.6503367"><ele>194.0</ele><time>2026-05-02T07:29:29.707Z</time></trkpt><trkpt lat="45.5761983" lon="8.65031"><ele>194.00000000000003</ele><time>2026-05-02T07:29:31.706Z</time></trkpt><trkpt lat="45.5762817" lon="8.6502883"><ele>194.0</ele><time>2026-05-02T07:29:33.706Z</time></trkpt><trkpt lat="45.5763617" lon="8.65027"><ele>194.16666666666669</ele><time>2026-05-02T07:29:35.706Z</time></trkpt><trkpt lat="45.57644" lon="8.6502433"><ele>194.33333333333334</ele><time>2026-05-02T07:29:37.709Z</time></trkpt><trkpt lat="45.5765117" lon="8.6502533"><ele>194.5</ele><time>2026-05-02T07:29:39.705Z</time></trkpt><trkpt lat="45.576555" lon="8.6503367"><ele>194.66666666666669</ele><time>2026-05-02T07:29:41.705Z</time></trkpt><trkpt lat="45.5765683" lon="8.650445"><ele>194.83333333333334</ele><time>2026-05-02T07:29:43.703Z</time></trkpt><trkpt lat="45.576575" lon="8.6505583"><ele>195.0</ele><time>2026-05-02T07:29:45.703Z</time></trkpt><trkpt lat="45.5765817" lon="8.6506783"><ele>195.0</ele><time>2026-05-02T07:29:47.708Z</time></trkpt><trkpt lat="45.57659" lon="8.650805"><ele>195.0</ele><time>2026-05-02T07:29:49.709Z</time></trkpt><trkpt lat="45.5765967" lon="8.6509283"><ele>195.0</ele><time>2026-05-02T07:29:51.711Z</time></trkpt><trkpt lat="45.5766" lon="8.65105"><ele>195.0</ele><time>2026-05-02T07:29:53.705Z</time></trkpt><trkpt lat="45.5766067" lon="8.65117"><ele>195.0</ele><time>2026-05-02T07:29:55.704Z</time></trkpt><trkpt lat="45.5766117" lon="8.6512833"><ele>195.0</ele><time>2026-05-02T07:29:57.709Z</time></trkpt><trkpt lat="45.5766183" lon="8.6513967"><ele>195.0</ele><time>2026-05-02T07:29:59.706Z</time></trkpt><trkpt lat="45.57663" lon="8.6515083"><ele>195.0</ele><time>2026-05-02T07:30:01.709Z</time></trkpt><trkpt lat="45.5766483" lon="8.6516183"><ele>195.0</ele><time>2026-05-02T07:30:03.704Z</time></trkpt><trkpt lat="45.57667" lon="8.651725"><ele>195.0</ele><time>2026-05-02T07:30:05.705Z</time></trkpt><trkpt lat="45.57669" lon="8.6518283"><ele>195.0</ele><time>2026-05-02T07:30:07.706Z</time></trkpt><trkpt lat="45.57671" lon="8.6519333"><ele>195.0</ele><time>2026-05-02T07:30:09.707Z</time></trkpt><trkpt lat="45.5767283" lon="8.6520383"><ele>195.0</ele><time>2026-05-02T07:30:11.702Z</time></trkpt><trkpt lat="45.5767467" lon="8.65214"><ele>195.0</ele><time>2026-05-02T07:30:13.708Z</time></trkpt><trkpt lat="45.5767583" lon="8.652245"><ele>195.0</ele><time>2026-05-02T07:30:15.704Z</time></trkpt><trkpt lat="45.5767633" lon="8.65235"><ele>195.0</ele><time>2026-05-02T07:30:17.705Z</time></trkpt><trkpt lat="45.5767683" lon="8.652455"><ele>195.0</ele><time>2026-05-02T07:30:19.705Z</time></trkpt><trkpt lat="45.576775" lon="8.6525583"><ele>195.0</ele><time>2026-05-02T07:30:21.7Z</time></trkpt><trkpt lat="45.576775" lon="8.6526667"><ele>195.0</ele><time>2026-05-02T07:30:23.704Z</time></trkpt><trkpt lat="45.5767733" lon="8.6527733"><ele>194.83333333333334</ele><time>2026-05-02T07:30:25.7Z</time></trkpt><trkpt lat="45.5767717" lon="8.6528783"><ele>194.66666666666669</ele><time>2026-05-02T07:30:27.706Z</time></trkpt><trkpt lat="45.5767683" lon="8.652985"><ele>194.5</ele><time>2026-05-02T07:30:29.705Z</time></trkpt><trkpt lat="45.5767683" lon="8.6530967"><ele>194.33333333333334</ele><time>2026-05-02T07:30:31.707Z</time></trkpt><trkpt lat="45.57677" lon="8.6532067"><ele>194.16666666666669</ele><time>2026-05-02T07:30:33.707Z</time></trkpt><trkpt lat="45.5767733" lon="8.65332"><ele>194.0</ele><time>2026-05-02T07:30:35.706Z</time></trkpt><trkpt lat="45.5767717" lon="8.653435"><ele>194.00000000000003</ele><time>2026-05-02T07:30:37.709Z</time></trkpt><trkpt lat="45.5767683" lon="8.6535517"><ele>194.0</ele><time>2026-05-02T07:30:39.706Z</time></trkpt><trkpt lat="45.5767667" lon="8.6536667"><ele>194.0</ele><time>2026-05-02T07:30:41.705Z</time></trkpt><trkpt lat="45.5767617" lon="8.65378"><ele>194.0</ele><time>2026-05-02T07:30:43.705Z</time></trkpt><trkpt lat="45.5767583" lon="8.653895"><ele>194.00000000000003</ele><time>2026-05-02T07:30:45.705Z</time></trkpt><trkpt lat="45.5767567" lon="8.6540083"><ele>194.0</ele><time>2026-05-02T07:30:47.704Z</time></trkpt><trkpt lat="45.5767583" lon="8.6541217"><ele>193.85714285714286</ele><time>2026-05-02T07:30:49.704Z</time></trkpt><trkpt lat="45.576765" lon="8.6542317"><ele>193.71428571428572</ele><time>2026-05-02T07:30:51.704Z</time></trkpt><trkpt lat="45.5767717" lon="8.6543367"><ele>193.57142857142858</ele><time>2026-05-02T07:30:53.705Z</time></trkpt><trkpt lat="45.5767767" lon="8.65444"><ele>193.42857142857144</ele><time>2026-05-02T07:30:55.704Z</time></trkpt><trkpt lat="45.57678" lon="8.65454"><ele>193.28571428571428</ele><time>2026-05-02T07:30:57.704Z</time></trkpt><trkpt lat="45.5767817" lon="8.6546483"><ele>193.14285714285717</ele><time>2026-05-02T07:30:59.707Z</time></trkpt><trkpt lat="45.5767783" lon="8.6547617"><ele>193.0</ele><time>2026-05-02T07:31:01.7Z</time></trkpt><trkpt lat="45.5767733" lon="8.654875"><ele>192.99999999999997</ele><time>2026-05-02T07:31:03.707Z</time></trkpt><trkpt lat="45.5767633" lon="8.6549933"><ele>193.0</ele><time>2026-05-02T07:31:05.704Z</time></trkpt><trkpt lat="45.5767533" lon="8.65512"><ele>193.0</ele><time>2026-05-02T07:31:07.704Z</time></trkpt><trkpt lat="45.576745" lon="8.655245"><ele>193.0</ele><time>2026-05-02T07:31:09.703Z</time></trkpt><trkpt lat="45.576735" lon="8.6553717"><ele>192.99999999999997</ele><time>2026-05-02T07:31:11.707Z</time></trkpt><trkpt lat="45.57673" lon="8.6554917"><ele>193.0</ele><time>2026-05-02T07:31:13.71Z</time></trkpt><trkpt lat="45.5767533" lon="8.655595"><ele>193.16666666666666</ele><time>2026-05-02T07:31:15.705Z</time></trkpt><trkpt lat="45.576815" lon="8.6556217"><ele>193.33333333333331</ele><time>2026-05-02T07:31:17.705Z</time></trkpt><trkpt lat="45.5768867" lon="8.6556067"><ele>193.5</ele><time>2026-05-02T07:31:19.705Z</time></trkpt><trkpt lat="45.5769633" lon="8.655605"><ele>193.66666666666669</ele><time>2026-05-02T07:31:21.705Z</time></trkpt><trkpt lat="45.5770433" lon="8.6556033"><ele>193.83333333333334</ele><time>2026-05-02T07:31:23.704Z</time></trkpt><trkpt lat="45.5771217" lon="8.6556"><ele>194.0</ele><time>2026-05-02T07:31:25.705Z</time></trkpt><trkpt lat="45.5772" lon="8.655595"><ele>194.00000000000003</ele><time>2026-05-02T07:31:27.709Z</time></trkpt><trkpt lat="45.5772783" lon="8.655585"><ele>194.0</ele><time>2026-05-02T07:31:29.706Z</time></trkpt><trkpt lat="45.5773533" lon="8.6555733"><ele>194.0</ele><time>2026-05-02T07:31:31.705Z</time></trkpt><trkpt lat="45.5774283" lon="8.6555517"><ele>194.0</ele><time>2026-05-02T07:31:33.705Z</time></trkpt><trkpt lat="45.5775033" lon="8.6555333"><ele>194.00000000000003</ele><time>2026-05-02T07:31:35.709Z</time></trkpt><trkpt lat="45.57758" lon="8.655505"><ele>194.0</ele><time>2026-05-02T07:31:37.708Z</time></trkpt><trkpt lat="45.5776567" lon="8.6554783"><ele>194.0</ele><time>2026-05-02T07:31:39.707Z</time></trkpt><trkpt lat="45.5777283" lon="8.6554483"><ele>194.0</ele><time>2026-05-02T07:31:41.706Z</time></trkpt><trkpt lat="45.5778033" lon="8.6554117"><ele>194.0</ele><time>2026-05-02T07:31:43.708Z</time></trkpt><trkpt lat="45.5778767" lon="8.65538"><ele>194.0</ele><time>2026-05-02T07:31:45.707Z</time></trkpt><trkpt lat="45.5779483" lon="8.6553583"><ele>194.0</ele><time>2026-05-02T07:31:47.706Z</time></trkpt><trkpt lat="45.5780167" lon="8.6553517"><ele>194.0</ele><time>2026-05-02T07:31:49.706Z</time></trkpt><trkpt lat="45.57809" lon="8.655345"><ele>194.0</ele><time>2026-05-02T07:31:51.702Z</time></trkpt><trkpt lat="45.5781633" lon="8.6553317"><ele>194.0</ele><time>2026-05-02T07:31:53.704Z</time></trkpt><trkpt lat="45.5782333" lon="8.6553133"><ele>194.0</ele><time>2026-05-02T07:31:55.703Z</time></trkpt><trkpt lat="45.5783033" lon="8.6552967"><ele>194.0</ele><time>2026-05-02T07:31:57.704Z</time></trkpt><trkpt lat="45.5783767" lon="8.655275"><ele>194.0</ele><time>2026-05-02T07:31:59.708Z</time></trkpt><trkpt lat="45.57845" lon="8.6552533"><ele>194.0</ele><time>2026-05-02T07:32:01.705Z</time></trkpt><trkpt lat="45.57852" lon="8.6552317"><ele>194.0</ele><time>2026-05-02T07:32:03.705Z</time></trkpt><trkpt lat="45.5785883" lon="8.655225"><ele>194.0</ele><time>2026-05-02T07:32:05.707Z</time></trkpt><trkpt lat="45.57866" lon="8.6552167"><ele>194.28571428571428</ele><time>2026-05-02T07:32:07.705Z</time></trkpt><trkpt lat="45.5787317" lon="8.6552067"><ele>194.57142857142858</ele><time>2026-05-02T07:32:09.708Z</time></trkpt><trkpt lat="45.5788017" lon="8.6552117"><ele>194.85714285714286</ele><time>2026-05-02T07:32:11.706Z</time></trkpt><trkpt lat="45.57887" lon="8.6552133"><ele>195.14285714285714</ele><time>2026-05-02T07:32:13.707Z</time></trkpt><trkpt lat="45.5789383" lon="8.6552117"><ele>195.42857142857144</ele><time>2026-05-02T07:32:15.704Z</time></trkpt><trkpt lat="45.5790083" lon="8.6552183"><ele>195.71428571428572</ele><time>2026-05-02T07:32:17.704Z</time></trkpt><trkpt lat="45.5790783" lon="8.6552283"><ele>196.0</ele><time>2026-05-02T07:32:19.704Z</time></trkpt><trkpt lat="45.57915" lon="8.6552283"><ele>195.99999999999997</ele><time>2026-05-02T07:32:21.706Z</time></trkpt><trkpt lat="45.579225" lon="8.6552183"><ele>196.0</ele><time>2026-05-02T07:32:23.703Z</time></trkpt><trkpt lat="45.5793" lon="8.6552167"><ele>196.0</ele><time>2026-05-02T07:32:25.704Z</time></trkpt><trkpt lat="45.5793767" lon="8.6552133"><ele>196.0</ele><time>2026-05-02T07:32:27.703Z</time></trkpt><trkpt lat="45.57946" lon="8.65521"><ele>195.99999999999997</ele><time>2026-05-02T07:32:29.709Z</time></trkpt><trkpt lat="45.5795467" lon="8.6551983"><ele>196.0</ele><time>2026-05-02T07:32:31.708Z</time></trkpt><trkpt lat="45.5796283" lon="8.655185"><ele>196.16666666666666</ele><time>2026-05-02T07:32:33.71Z</time></trkpt><trkpt lat="45.5797" lon="8.6551717"><ele>196.33333333333331</ele><time>2026-05-02T07:32:35.705Z</time></trkpt><trkpt lat="45.5797483" lon="8.6552417"><ele>196.5</ele><time>2026-05-02T07:32:39.704Z</time></trkpt><trkpt lat="45.5797383" lon="8.6553483"><ele>196.66666666666669</ele><time>2026-05-02T07:32:41.703Z</time></trkpt><trkpt lat="45.57974" lon="8.6554633"><ele>196.83333333333334</ele><time>2026-05-02T07:32:43.707Z</time></trkpt><trkpt lat="45.5797583" lon="8.6555767"><ele>197.0</ele><time>2026-05-02T07:32:45.702Z</time></trkpt><trkpt lat="45.5797683" lon="8.6556917"><ele>197.00000000000003</ele><time>2026-05-02T07:32:47.703Z</time></trkpt><trkpt lat="45.579775" lon="8.655815"><ele>197.0</ele><time>2026-05-02T07:32:49.702Z</time></trkpt><trkpt lat="45.5797917" lon="8.6559283"><ele>197.0</ele><time>2026-05-02T07:32:51.703Z</time></trkpt><trkpt lat="45.5798067" lon="8.656035"><ele>197.0</ele><time>2026-05-02T07:32:53.705Z</time></trkpt><trkpt lat="45.5798267" lon="8.656145"><ele>197.00000000000003</ele><time>2026-05-02T07:32:55.698Z</time></trkpt><trkpt lat="45.5798333" lon="8.656255"><ele>197.0</ele><time>2026-05-02T07:32:57.705Z</time></trkpt><trkpt lat="45.579845" lon="8.65636"><ele>196.83333333333334</ele><time>2026-05-02T07:32:59.702Z</time></trkpt><trkpt lat="45.5798517" lon="8.65647"><ele>196.66666666666669</ele><time>2026-05-02T07:33:01.704Z</time></trkpt><trkpt lat="45.5798583" lon="8.6565817"><ele>196.5</ele><time>2026-05-02T07:33:03.705Z</time></trkpt><trkpt lat="45.579865" lon="8.6567017"><ele>196.33333333333331</ele><time>2026-05-02T07:33:05.705Z</time></trkpt><trkpt lat="45.579865" lon="8.65682"><ele>196.16666666666666</ele><time>2026-05-02T07:33:07.704Z</time></trkpt><trkpt lat="45.579855" lon="8.656935"><ele>196.0</ele><time>2026-05-02T07:33:09.702Z</time></trkpt><trkpt lat="45.5798233" lon="8.6570483"><ele>195.83333333333331</ele><time>2026-05-02T07:33:11.703Z</time></trkpt><trkpt lat="45.5797667" lon="8.6571317"><ele>195.66666666666666</ele><time>2026-05-02T07:33:13.704Z</time></trkpt><trkpt lat="45.5796933" lon="8.6571767"><ele>195.5</ele><time>2026-05-02T07:33:15.702Z</time></trkpt><trkpt lat="45.5796117" lon="8.6571983"><ele>195.33333333333331</ele><time>2026-05-02T07:33:17.703Z</time></trkpt><trkpt lat="45.57953" lon="8.65721"><ele>195.16666666666666</ele><time>2026-05-02T07:33:19.704Z</time></trkpt><trkpt lat="45.5794467" lon="8.6572167"><ele>195.0</ele><time>2026-05-02T07:33:21.703Z</time></trkpt><trkpt lat="45.5793633" lon="8.657225"><ele>195.0</ele><time>2026-05-02T07:33:23.697Z</time></trkpt><trkpt lat="45.5792833" lon="8.65725"><ele>195.0</ele><time>2026-05-02T07:33:25.703Z</time></trkpt><trkpt lat="45.5792117" lon="8.6572983"><ele>195.0</ele><time>2026-05-02T07:33:27.704Z</time></trkpt><trkpt lat="45.579165" lon="8.6573817"><ele>195.0</ele><time>2026-05-02T07:33:29.703Z</time></trkpt><trkpt lat="45.579145" lon="8.65749"><ele>195.0</ele><time>2026-05-02T07:33:31.709Z</time></trkpt><trkpt lat="45.5791383" lon="8.6576033"><ele>195.0</ele><time>2026-05-02T07:33:33.707Z</time></trkpt><trkpt lat="45.5791333" lon="8.657715"><ele>194.83333333333334</ele><time>2026-05-02T07:33:35.707Z</time></trkpt><trkpt lat="45.57913" lon="8.65783"><ele>194.66666666666669</ele><time>2026-05-02T07:33:37.705Z</time></trkpt><trkpt lat="45.5791283" lon="8.6579433"><ele>194.5</ele><time>2026-05-02T07:33:39.706Z</time></trkpt><trkpt lat="45.57912" lon="8.6580567"><ele>194.33333333333334</ele><time>2026-05-02T07:33:41.704Z</time></trkpt><trkpt lat="45.5791133" lon="8.65817"><ele>194.16666666666669</ele><time>2026-05-02T07:33:43.704Z</time></trkpt><trkpt lat="45.5791067" lon="8.6582867"><ele>194.0</ele><time>2026-05-02T07:33:45.704Z</time></trkpt><trkpt lat="45.5791" lon="8.6584"><ele>194.00000000000003</ele><time>2026-05-02T07:33:47.706Z</time></trkpt><trkpt lat="45.5790967" lon="8.6585117"><ele>194.0</ele><time>2026-05-02T07:33:49.704Z</time></trkpt><trkpt lat="45.5790933" lon="8.6586233"><ele>194.0</ele><time>2026-05-02T07:33:51.704Z</time></trkpt><trkpt lat="45.5790883" lon="8.6587333"><ele>194.0</ele><time>2026-05-02T07:33:53.706Z</time></trkpt><trkpt lat="45.5790867" lon="8.6588433"><ele>194.00000000000003</ele><time>2026-05-02T07:33:55.7Z</time></trkpt><trkpt lat="45.5790917" lon="8.6589567"><ele>194.0</ele><time>2026-05-02T07:33:57.707Z</time></trkpt><trkpt lat="45.5791017" lon="8.6590733"><ele>194.33333333333334</ele><time>2026-05-02T07:33:59.706Z</time></trkpt><trkpt lat="45.5791167" lon="8.65919"><ele>194.66666666666669</ele><time>2026-05-02T07:34:01.706Z</time></trkpt><trkpt lat="45.5791333" lon="8.6593"><ele>195.0</ele><time>2026-05-02T07:34:03.709Z</time></trkpt><trkpt lat="45.5791517" lon="8.6594067"><ele>195.33333333333331</ele><time>2026-05-02T07:34:05.71Z</time></trkpt><trkpt lat="45.5791717" lon="8.659515"><ele>195.66666666666666</ele><time>2026-05-02T07:34:07.707Z</time></trkpt><trkpt lat="45.579195" lon="8.6596217"><ele>196.0</ele><time>2026-05-02T07:34:09.704Z</time></trkpt><trkpt lat="45.5792183" lon="8.659725"><ele>195.99999999999997</ele><time>2026-05-02T07:34:11.705Z</time></trkpt><trkpt lat="45.5792467" lon="8.65983"><ele>196.0</ele><time>2026-05-02T07:34:13.709Z</time></trkpt><trkpt lat="45.579275" lon="8.659935"><ele>196.0</ele><time>2026-05-02T07:34:15.707Z</time></trkpt><trkpt lat="45.5793083" lon="8.6600433"><ele>196.0</ele><time>2026-05-02T07:34:17.698Z</time></trkpt><trkpt lat="45.5793433" lon="8.6601467"><ele>195.99999999999997</ele><time>2026-05-02T07:34:19.705Z</time></trkpt><trkpt lat="45.5793767" lon="8.6602483"><ele>196.0</ele><time>2026-05-02T07:34:21.705Z</time></trkpt><trkpt lat="45.57941" lon="8.6603517"><ele>195.99999999999997</ele><time>2026-05-02T07:34:23.705Z</time></trkpt><trkpt lat="45.5794467" lon="8.66045"><ele>196.0</ele><time>2026-05-02T07:34:25.702Z</time></trkpt><trkpt lat="45.5794833" lon="8.66055"><ele>196.0</ele><time>2026-05-02T07:34:27.707Z</time></trkpt><trkpt lat="45.57952" lon="8.6606517"><ele>196.0</ele><time>2026-05-02T07:34:29.706Z</time></trkpt><trkpt lat="45.5795583" lon="8.660755"><ele>195.99999999999997</ele><time>2026-05-02T07:34:31.706Z</time></trkpt><trkpt lat="45.5795933" lon="8.660855"><ele>196.0</ele><time>2026-05-02T07:34:33.706Z</time></trkpt><trkpt lat="45.5796283" lon="8.6609567"><ele>195.99999999999997</ele><time>2026-05-02T07:34:35.707Z</time></trkpt><trkpt lat="45.5796567" lon="8.6610633"><ele>196.0</ele><time>2026-05-02T07:34:37.707Z</time></trkpt><trkpt lat="45.5796783" lon="8.6611733"><ele>196.0</ele><time>2026-05-02T07:34:39.709Z</time></trkpt><trkpt lat="45.57969" lon="8.6612883"><ele>196.0</ele><time>2026-05-02T07:34:41.704Z</time></trkpt><trkpt lat="45.5796867" lon="8.6614017"><ele>195.99999999999997</ele><time>2026-05-02T07:34:43.705Z</time></trkpt><trkpt lat="45.57967" lon="8.6615117"><ele>196.0</ele><time>2026-05-02T07:34:45.704Z</time></trkpt><trkpt lat="45.5796433" lon="8.6616183"><ele>195.99999999999997</ele><time>2026-05-02T07:34:47.71Z</time></trkpt><trkpt lat="45.5796067" lon="8.6617217"><ele>196.0</ele><time>2026-05-02T07:34:49.708Z</time></trkpt><trkpt lat="45.5795717" lon="8.6618267"><ele>196.0</ele><time>2026-05-02T07:34:51.706Z</time></trkpt><trkpt lat="45.5795367" lon="8.6619333"><ele>196.0</ele><time>2026-05-02T07:34:53.706Z</time></trkpt><trkpt lat="45.5795" lon="8.6620383"><ele>195.99999999999997</ele><time>2026-05-02T07:34:55.707Z</time></trkpt><trkpt lat="45.5794667" lon="8.662145"><ele>196.0</ele><time>2026-05-02T07:34:57.707Z</time></trkpt><trkpt lat="45.5794333" lon="8.66225"><ele>195.99999999999997</ele><time>2026-05-02T07:34:59.71Z</time></trkpt><trkpt lat="45.5794017" lon="8.662355"><ele>196.0</ele><time>2026-05-02T07:35:01.703Z</time></trkpt><trkpt lat="45.5793733" lon="8.6624617"><ele>196.0</ele><time>2026-05-02T07:35:03.703Z</time></trkpt><trkpt lat="45.5793483" lon="8.66257"><ele>196.0</ele><time>2026-05-02T07:35:05.705Z</time></trkpt><trkpt lat="45.5793333" lon="8.6626783"><ele>195.99999999999997</ele><time>2026-05-02T07:35:07.704Z</time></trkpt><trkpt lat="45.5793317" lon="8.66279"><ele>196.0</ele><time>2026-05-02T07:35:09.704Z</time></trkpt><trkpt lat="45.5793383" lon="8.6629017"><ele>196.16666666666666</ele><time>2026-05-02T07:35:11.704Z</time></trkpt><trkpt lat="45.5793567" lon="8.6630083"><ele>196.33333333333331</ele><time>2026-05-02T07:35:13.704Z</time></trkpt><trkpt lat="45.5793717" lon="8.66312"><ele>196.5</ele><time>2026-05-02T07:35:15.704Z</time></trkpt><trkpt lat="45.5793867" lon="8.6632317"><ele>196.66666666666669</ele><time>2026-05-02T07:35:17.698Z</time></trkpt><trkpt lat="45.5794033" lon="8.6633417"><ele>196.83333333333334</ele><time>2026-05-02T07:35:19.706Z</time></trkpt><trkpt lat="45.5794167" lon="8.6634517"><ele>197.0</ele><time>2026-05-02T07:35:21.705Z</time></trkpt><trkpt lat="45.579435" lon="8.6635583"><ele>196.83333333333334</ele><time>2026-05-02T07:35:23.702Z</time></trkpt><trkpt lat="45.579455" lon="8.6636567"><ele>196.66666666666669</ele><time>2026-05-02T07:35:25.707Z</time></trkpt><trkpt lat="45.579475" lon="8.6637617"><ele>196.5</ele><time>2026-05-02T07:35:27.704Z</time></trkpt><trkpt lat="45.5794967" lon="8.6638783"><ele>196.33333333333331</ele><time>2026-05-02T07:35:29.705Z</time></trkpt><trkpt lat="45.5795233" lon="8.6640083"><ele>196.16666666666666</ele><time>2026-05-02T07:35:31.706Z</time></trkpt><trkpt lat="45.5795433" lon="8.6641517"><ele>196.0</ele><time>2026-05-02T07:35:33.707Z</time></trkpt><trkpt lat="45.579555" lon="8.6642983"><ele>195.83333333333331</ele><time>2026-05-02T07:35:35.705Z</time></trkpt><trkpt lat="45.5795317" lon="8.6644383"><ele>195.66666666666666</ele><time>2026-05-02T07:35:37.703Z</time></trkpt><trkpt lat="45.5794733" lon="8.664545"><ele>195.5</ele><time>2026-05-02T07:35:39.703Z</time></trkpt><trkpt lat="45.579415" lon="8.6646383"><ele>195.33333333333331</ele><time>2026-05-02T07:35:41.702Z</time></trkpt><trkpt lat="45.57936" lon="8.66472"><ele>195.16666666666666</ele><time>2026-05-02T07:35:43.703Z</time></trkpt><trkpt lat="45.5792983" lon="8.664805"><ele>195.0</ele><time>2026-05-02T07:35:45.705Z</time></trkpt><trkpt lat="45.5792367" lon="8.6648933"><ele>195.0</ele><time>2026-05-02T07:35:47.703Z</time></trkpt><trkpt lat="45.5791767" lon="8.6649833"><ele>195.0</ele><time>2026-05-02T07:35:49.705Z</time></trkpt><trkpt lat="45.57912" lon="8.6650817"><ele>195.0</ele><time>2026-05-02T07:35:51.704Z</time></trkpt><trkpt lat="45.57906" lon="8.6651883"><ele>195.0</ele><time>2026-05-02T07:35:53.703Z</time></trkpt><trkpt lat="45.5789983" lon="8.6653017"><ele>195.0</ele><time>2026-05-02T07:35:55.704Z</time></trkpt><trkpt lat="45.57893" lon="8.665415"><ele>194.83333333333334</ele><time>2026-05-02T07:35:57.704Z</time></trkpt><trkpt lat="45.5788617" lon="8.6655183"><ele>194.66666666666669</ele><time>2026-05-02T07:35:59.704Z</time></trkpt><trkpt lat="45.578805" lon="8.6656167"><ele>194.5</ele><time>2026-05-02T07:36:01.703Z</time></trkpt><trkpt lat="45.5787567" lon="8.6657167"><ele>194.33333333333334</ele><time>2026-05-02T07:36:03.709Z</time></trkpt><trkpt lat="45.57871" lon="8.6658183"><ele>194.16666666666669</ele><time>2026-05-02T07:36:05.703Z</time></trkpt><trkpt lat="45.5786633" lon="8.6659117"><ele>194.0</ele><time>2026-05-02T07:36:07.703Z</time></trkpt><trkpt lat="45.5786233" lon="8.66601"><ele>194.50000000000003</ele><time>2026-05-02T07:36:09.705Z</time></trkpt><trkpt lat="45.578585" lon="8.666125"><ele>195.0</ele><time>2026-05-02T07:36:11.697Z</time></trkpt><trkpt lat="45.57855" lon="8.6662433"><ele>195.5</ele><time>2026-05-02T07:36:13.704Z</time></trkpt><trkpt lat="45.578525" lon="8.666335"><ele>196.0</ele><time>2026-05-02T07:36:15.704Z</time></trkpt><trkpt lat="45.5784983" lon="8.6664167"><ele>196.50000000000003</ele><time>2026-05-02T07:36:19.704Z</time></trkpt><trkpt lat="45.5785667" lon="8.6664767"><ele>197.0</ele><time>2026-05-02T07:36:24.702Z</time></trkpt><trkpt lat="45.5786317" lon="8.6665383"><ele>197.0</ele><time>2026-05-02T07:36:28.703Z</time></trkpt><trkpt lat="45.578675" lon="8.6666583"><ele>197.0</ele><time>2026-05-02T07:36:31.704Z</time></trkpt><trkpt lat="45.5787283" lon="8.6667483"><ele>197.0</ele><time>2026-05-02T07:36:34.703Z</time></trkpt><trkpt lat="45.578785" lon="8.666865"><ele>197.0</ele><time>2026-05-02T07:36:37.707Z</time></trkpt><trkpt lat="45.5788283" lon="8.66697"><ele>197.0</ele><time>2026-05-02T07:36:39.705Z</time></trkpt><trkpt lat="45.5788667" lon="8.66709"><ele>194.39999999999998</ele><time>2026-05-02T07:36:41.704Z</time></trkpt><trkpt lat="45.5789067" lon="8.6672217"><ele>191.79999999999998</ele><time>2026-05-02T07:36:43.7Z</time></trkpt><trkpt lat="45.578955" lon="8.6673533"><ele>189.2</ele><time>2026-05-02T07:36:45.705Z</time></trkpt><trkpt lat="45.579005" lon="8.6674883"><ele>186.6</ele><time>2026-05-02T07:36:47.701Z</time></trkpt><trkpt lat="45.57906" lon="8.6676083"><ele>184.0</ele><time>2026-05-02T07:36:49.703Z</time></trkpt><trkpt lat="45.579125" lon="8.6677183"><ele>183.79999999999998</ele><time>2026-05-02T07:36:51.703Z</time></trkpt><trkpt lat="45.5791883" lon="8.6678233"><ele>183.6</ele><time>2026-05-02T07:36:53.703Z</time></trkpt><trkpt lat="45.579255" lon="8.66793"><ele>183.4</ele><time>2026-05-02T07:36:55.703Z</time></trkpt><trkpt lat="45.579315" lon="8.6680367"><ele>183.2</ele><time>2026-05-02T07:36:57.704Z</time></trkpt><trkpt lat="45.5793733" lon="8.6681417"><ele>183.0</ele><time>2026-05-02T07:36:59.702Z</time></trkpt><trkpt lat="45.5794367" lon="8.6682417"><ele>183.0</ele><time>2026-05-02T07:37:01.704Z</time></trkpt><trkpt lat="45.579495" lon="8.668335"><ele>183.0</ele><time>2026-05-02T07:37:03.701Z</time></trkpt><trkpt lat="45.5795483" lon="8.6684233"><ele>183.0</ele><time>2026-05-02T07:37:05.706Z</time></trkpt><trkpt lat="45.5795983" lon="8.6685033"><ele>183.0</ele><time>2026-05-02T07:37:07.699Z</time></trkpt><trkpt lat="45.5796467" lon="8.668585"><ele>183.0</ele><time>2026-05-02T07:37:09.705Z</time></trkpt><trkpt lat="45.579695" lon="8.6686633"><ele>183.0</ele><time>2026-05-02T07:37:11.706Z</time></trkpt><trkpt lat="45.57974" lon="8.6687433"><ele>183.66666666666666</ele><time>2026-05-02T07:37:13.702Z</time></trkpt><trkpt lat="45.579785" lon="8.6688233"><ele>184.33333333333334</ele><time>2026-05-02T07:37:15.706Z</time></trkpt><trkpt lat="45.5798367" lon="8.6689083"><ele>185.0</ele><time>2026-05-02T07:37:17.707Z</time></trkpt><trkpt lat="45.579895" lon="8.6689933"><ele>185.66666666666669</ele><time>2026-05-02T07:37:19.706Z</time></trkpt><trkpt lat="45.579945" lon="8.6690733"><ele>186.33333333333334</ele><time>2026-05-02T07:37:21.706Z</time></trkpt><trkpt lat="45.5799983" lon="8.66916"><ele>187.0</ele><time>2026-05-02T07:37:23.706Z</time></trkpt><trkpt lat="45.5800517" lon="8.6692467"><ele>187.0</ele><time>2026-05-02T07:37:25.705Z</time></trkpt><trkpt lat="45.5801067" lon="8.6693333"><ele>187.0</ele><time>2026-05-02T07:37:27.704Z</time></trkpt><trkpt lat="45.5801617" lon="8.6694217"><ele>187.0</ele><time>2026-05-02T07:37:29.701Z</time></trkpt><trkpt lat="45.5802183" lon="8.66951"><ele>187.0</ele><time>2026-05-02T07:37:31.704Z</time></trkpt><trkpt lat="45.5802733" lon="8.6695967"><ele>187.0</ele><time>2026-05-02T07:37:33.705Z</time></trkpt><trkpt lat="45.5803267" lon="8.6696833"><ele>187.0</ele><time>2026-05-02T07:37:35.705Z</time></trkpt><trkpt lat="45.5803817" lon="8.6697633"><ele>186.5</ele><time>2026-05-02T07:37:37.703Z</time></trkpt><trkpt lat="45.5804383" lon="8.669835"><ele>186.0</ele><time>2026-05-02T07:37:39.707Z</time></trkpt><trkpt lat="45.5805017" lon="8.66991"><ele>185.5</ele><time>2026-05-02T07:37:41.704Z</time></trkpt><trkpt lat="45.580565" lon="8.66998"><ele>185.0</ele><time>2026-05-02T07:37:43.698Z</time></trkpt><trkpt lat="45.580625" lon="8.670055"><ele>184.5</ele><time>2026-05-02T07:37:45.703Z</time></trkpt><trkpt lat="45.580685" lon="8.670135"><ele>184.0</ele><time>2026-05-02T07:37:47.704Z</time></trkpt><trkpt lat="45.580745" lon="8.6702167"><ele>184.5</ele><time>2026-05-02T07:37:49.703Z</time></trkpt><trkpt lat="45.5808033" lon="8.6702933"><ele>185.0</ele><time>2026-05-02T07:37:51.704Z</time></trkpt><trkpt lat="45.5808583" lon="8.6703633"><ele>185.5</ele><time>2026-05-02T07:37:53.704Z</time></trkpt><trkpt lat="45.5809117" lon="8.6704283"><ele>186.0</ele><time>2026-05-02T07:37:55.705Z</time></trkpt><trkpt lat="45.5809667" lon="8.6705017"><ele>186.5</ele><time>2026-05-02T07:37:57.704Z</time></trkpt><trkpt lat="45.58102" lon="8.67058"><ele>187.0</ele><time>2026-05-02T07:37:59.704Z</time></trkpt><trkpt lat="45.581075" lon="8.67066"><ele>187.0</ele><time>2026-05-02T07:38:01.704Z</time></trkpt><trkpt lat="45.581135" lon="8.670745"><ele>187.0</ele><time>2026-05-02T07:38:03.706Z</time></trkpt><trkpt lat="45.581195" lon="8.67083"><ele>187.0</ele><time>2026-05-02T07:38:05.703Z</time></trkpt><trkpt lat="45.581255" lon="8.6709183"><ele>187.0</ele><time>2026-05-02T07:38:07.704Z</time></trkpt><trkpt lat="45.5813167" lon="8.6710117"><ele>187.0</ele><time>2026-05-02T07:38:09.704Z</time></trkpt><trkpt lat="45.58137" lon="8.6710983"><ele>187.0</ele><time>2026-05-02T07:38:11.702Z</time></trkpt><trkpt lat="45.5814283" lon="8.671195"><ele>187.0</ele><time>2026-05-02T07:38:13.705Z</time></trkpt><trkpt lat="45.5814917" lon="8.671305"><ele>187.0</ele><time>2026-05-02T07:38:15.71Z</time></trkpt><trkpt lat="45.5815483" lon="8.6713983"><ele>187.0</ele><time>2026-05-02T07:38:17.706Z</time></trkpt><trkpt lat="45.58161" lon="8.6714967"><ele>187.0</ele><time>2026-05-02T07:38:19.709Z</time></trkpt><trkpt lat="45.58168" lon="8.67159"><ele>187.0</ele><time>2026-05-02T07:38:21.703Z</time></trkpt><trkpt lat="45.5817467" lon="8.671675"><ele>187.0</ele><time>2026-05-02T07:38:23.704Z</time></trkpt><trkpt lat="45.5818083" lon="8.6717717"><ele>187.0</ele><time>2026-05-02T07:38:25.703Z</time></trkpt><trkpt lat="45.58187" lon="8.67186"><ele>187.0</ele><time>2026-05-02T07:38:27.705Z</time></trkpt><trkpt lat="45.581925" lon="8.671935"><ele>187.0</ele><time>2026-05-02T07:38:29.704Z</time></trkpt><trkpt lat="45.5819633" lon="8.6720117"><ele>187.0</ele><time>2026-05-02T07:38:31.704Z</time></trkpt><trkpt lat="45.5819567" lon="8.67213"><ele>187.0</ele><time>2026-05-02T07:38:34.704Z</time></trkpt><trkpt lat="45.5818967" lon="8.6721767"><ele>187.33333333333334</ele><time>2026-05-02T07:38:37.706Z</time></trkpt><trkpt lat="45.5818083" lon="8.672215"><ele>187.66666666666669</ele><time>2026-05-02T07:38:40.703Z</time></trkpt><trkpt lat="45.5817283" lon="8.6722467"><ele>188.0</ele><time>2026-05-02T07:38:43.698Z</time></trkpt><trkpt lat="45.5816417" lon="8.6722767"><ele>188.33333333333334</ele><time>2026-05-02T07:38:46.704Z</time></trkpt><trkpt lat="45.58158" lon="8.6723"><ele>188.66666666666666</ele><time>2026-05-02T07:38:48.704Z</time></trkpt><trkpt lat="45.5814933" lon="8.6723333"><ele>189.0</ele><time>2026-05-02T07:38:51.706Z</time></trkpt><trkpt lat="45.5814067" lon="8.672365"><ele>189.0</ele><time>2026-05-02T07:38:54.703Z</time></trkpt><trkpt lat="45.5813467" lon="8.6723933"><ele>189.0</ele><time>2026-05-02T07:38:56.706Z</time></trkpt><trkpt lat="45.5812583" lon="8.6724267"><ele>189.0</ele><time>2026-05-02T07:38:59.707Z</time></trkpt><trkpt lat="45.5811733" lon="8.67245"><ele>189.0</ele><time>2026-05-02T07:39:02.699Z</time></trkpt><trkpt lat="45.581085" lon="8.6724767"><ele>189.0</ele><time>2026-05-02T07:39:05.703Z</time></trkpt><trkpt lat="45.581015" lon="8.6724983"><ele>189.0</ele><time>2026-05-02T07:39:07.706Z</time></trkpt><trkpt lat="45.5809433" lon="8.6725267"><ele>188.83333333333334</ele><time>2026-05-02T07:39:09.705Z</time></trkpt><trkpt lat="45.5808783" lon="8.67256"><ele>188.66666666666666</ele><time>2026-05-02T07:39:11.706Z</time></trkpt><trkpt lat="45.5808067" lon="8.6725917"><ele>188.5</ele><time>2026-05-02T07:39:13.703Z</time></trkpt><trkpt lat="45.58072" lon="8.672615"><ele>188.33333333333331</ele><time>2026-05-02T07:39:15.703Z</time></trkpt><trkpt lat="45.580645" lon="8.6726433"><ele>188.16666666666666</ele><time>2026-05-02T07:39:17.705Z</time></trkpt><trkpt lat="45.5805767" lon="8.672665"><ele>188.0</ele><time>2026-05-02T07:39:19.703Z</time></trkpt><trkpt lat="45.5805017" lon="8.672695"><ele>188.0</ele><time>2026-05-02T07:39:21.707Z</time></trkpt><trkpt lat="45.5804267" lon="8.6727267"><ele>188.0</ele><time>2026-05-02T07:39:23.707Z</time></trkpt><trkpt lat="45.5803617" lon="8.6727617"><ele>188.0</ele><time>2026-05-02T07:39:25.708Z</time></trkpt><trkpt lat="45.5802867" lon="8.672805"><ele>188.0</ele><time>2026-05-02T07:39:27.711Z</time></trkpt><trkpt lat="45.5802083" lon="8.6728467"><ele>188.0</ele><time>2026-05-02T07:39:29.707Z</time></trkpt><trkpt lat="45.5801267" lon="8.6729"><ele>188.0</ele><time>2026-05-02T07:39:31.705Z</time></trkpt><trkpt lat="45.5800417" lon="8.67295"><ele>187.5</ele><time>2026-05-02T07:39:33.704Z</time></trkpt><trkpt lat="45.5799617" lon="8.673005"><ele>187.0</ele><time>2026-05-02T07:39:35.704Z</time></trkpt><trkpt lat="45.5798833" lon="8.6730617"><ele>186.5</ele><time>2026-05-02T07:39:37.702Z</time></trkpt><trkpt lat="45.5798067" lon="8.673115"><ele>186.0</ele><time>2026-05-02T07:39:39.708Z</time></trkpt><trkpt lat="45.57973" lon="8.6731633"><ele>185.5</ele><time>2026-05-02T07:39:41.707Z</time></trkpt><trkpt lat="45.579655" lon="8.6732183"><ele>185.0</ele><time>2026-05-02T07:39:43.701Z</time></trkpt><trkpt lat="45.57959" lon="8.6732767"><ele>185.0</ele><time>2026-05-02T07:39:45.705Z</time></trkpt><trkpt lat="45.579525" lon="8.673335"><ele>185.0</ele><time>2026-05-02T07:39:47.706Z</time></trkpt><trkpt lat="45.57946" lon="8.6733833"><ele>185.0</ele><time>2026-05-02T07:39:49.705Z</time></trkpt><trkpt lat="45.5793967" lon="8.6734333"><ele>185.0</ele><time>2026-05-02T07:39:51.707Z</time></trkpt><trkpt lat="45.5793367" lon="8.6734917"><ele>185.0</ele><time>2026-05-02T07:39:53.706Z</time></trkpt><trkpt lat="45.5792733" lon="8.6735533"><ele>185.0</ele><time>2026-05-02T07:39:55.707Z</time></trkpt><trkpt lat="45.579205" lon="8.6736133"><ele>184.42857142857142</ele><time>2026-05-02T07:39:57.706Z</time></trkpt><trkpt lat="45.5791417" lon="8.6736767"><ele>183.85714285714286</ele><time>2026-05-02T07:39:59.704Z</time></trkpt><trkpt lat="45.5790833" lon="8.6737317"><ele>183.28571428571428</ele><time>2026-05-02T07:40:01.704Z</time></trkpt><trkpt lat="45.57902" lon="8.6737833"><ele>182.71428571428572</ele><time>2026-05-02T07:40:03.704Z</time></trkpt><trkpt lat="45.5789583" lon="8.673835"><ele>182.14285714285714</ele><time>2026-05-02T07:40:05.704Z</time></trkpt><trkpt lat="45.5789" lon="8.6738867"><ele>181.57142857142856</ele><time>2026-05-02T07:40:07.704Z</time></trkpt><trkpt lat="45.5788383" lon="8.6739367"><ele>181.0</ele><time>2026-05-02T07:40:09.707Z</time></trkpt><trkpt lat="45.5787717" lon="8.673995"><ele>181.0</ele><time>2026-05-02T07:40:11.705Z</time></trkpt><trkpt lat="45.5787033" lon="8.6740533"><ele>181.0</ele><time>2026-05-02T07:40:13.705Z</time></trkpt><trkpt lat="45.5786417" lon="8.6741117"><ele>181.0</ele><time>2026-05-02T07:40:15.703Z</time></trkpt><trkpt lat="45.5785767" lon="8.674165"><ele>181.0</ele><time>2026-05-02T07:40:17.706Z</time></trkpt><trkpt lat="45.57851" lon="8.67422"><ele>181.0</ele><time>2026-05-02T07:40:19.705Z</time></trkpt><trkpt lat="45.5784417" lon="8.6742667"><ele>181.0</ele><time>2026-05-02T07:40:21.705Z</time></trkpt><trkpt lat="45.5783733" lon="8.67432"><ele>181.16666666666669</ele><time>2026-05-02T07:40:23.709Z</time></trkpt><trkpt lat="45.578305" lon="8.6743683"><ele>181.33333333333334</ele><time>2026-05-02T07:40:25.705Z</time></trkpt><trkpt lat="45.5782317" lon="8.6744167"><ele>181.5</ele><time>2026-05-02T07:40:27.704Z</time></trkpt><trkpt lat="45.578155" lon="8.6744667"><ele>181.66666666666666</ele><time>2026-05-02T07:40:29.708Z</time></trkpt><trkpt lat="45.5780783" lon="8.6745167"><ele>181.83333333333331</ele><time>2026-05-02T07:40:31.704Z</time></trkpt><trkpt lat="45.578005" lon="8.674565"><ele>182.0</ele><time>2026-05-02T07:40:33.705Z</time></trkpt><trkpt lat="45.57793" lon="8.6746117"><ele>182.0</ele><time>2026-05-02T07:40:35.705Z</time></trkpt><trkpt lat="45.577855" lon="8.67466"><ele>182.0</ele><time>2026-05-02T07:40:37.706Z</time></trkpt><trkpt lat="45.57778" lon="8.6747083"><ele>182.0</ele><time>2026-05-02T07:40:39.703Z</time></trkpt><trkpt lat="45.5777033" lon="8.6747567"><ele>182.0</ele><time>2026-05-02T07:40:41.705Z</time></trkpt><trkpt lat="45.5776283" lon="8.6748033"><ele>182.0</ele><time>2026-05-02T07:40:43.702Z</time></trkpt><trkpt lat="45.5775567" lon="8.6748533"><ele>182.0</ele><time>2026-05-02T07:40:45.703Z</time></trkpt><trkpt lat="45.5774867" lon="8.6749017"><ele>181.83333333333331</ele><time>2026-05-02T07:40:47.707Z</time></trkpt><trkpt lat="45.5774133" lon="8.6749467"><ele>181.66666666666666</ele><time>2026-05-02T07:40:49.704Z</time></trkpt><trkpt lat="45.5773417" lon="8.6749917"><ele>181.5</ele><time>2026-05-02T07:40:51.708Z</time></trkpt><trkpt lat="45.5772683" lon="8.6750367"><ele>181.33333333333334</ele><time>2026-05-02T07:40:53.708Z</time></trkpt><trkpt lat="45.577195" lon="8.6750833"><ele>181.16666666666669</ele><time>2026-05-02T07:40:55.707Z</time></trkpt><trkpt lat="45.5771217" lon="8.67513"><ele>181.0</ele><time>2026-05-02T07:40:57.707Z</time></trkpt><trkpt lat="45.5770517" lon="8.6751767"><ele>181.5</ele><time>2026-05-02T07:40:59.705Z</time></trkpt><trkpt lat="45.5769833" lon="8.6752233"><ele>182.0</ele><time>2026-05-02T07:41:01.707Z</time></trkpt><trkpt lat="45.576915" lon="8.6752667"><ele>182.5</ele><time>2026-05-02T07:41:03.705Z</time></trkpt><trkpt lat="45.5768467" lon="8.6753117"><ele>183.0</ele><time>2026-05-02T07:41:05.706Z</time></trkpt><trkpt lat="45.57678" lon="8.6753633"><ele>183.5</ele><time>2026-05-02T07:41:07.705Z</time></trkpt><trkpt lat="45.57671" lon="8.6754133"><ele>184.0</ele><time>2026-05-02T07:41:09.705Z</time></trkpt><trkpt lat="45.57664" lon="8.6754617"><ele>184.0</ele><time>2026-05-02T07:41:11.704Z</time></trkpt><trkpt lat="45.5765717" lon="8.6755117"><ele>184.0</ele><time>2026-05-02T07:41:13.698Z</time></trkpt><trkpt lat="45.5765017" lon="8.67556"><ele>184.0</ele><time>2026-05-02T07:41:15.704Z</time></trkpt><trkpt lat="45.5764317" lon="8.67561"><ele>184.0</ele><time>2026-05-02T07:41:17.707Z</time></trkpt><trkpt lat="45.57636" lon="8.6756567"><ele>184.0</ele><time>2026-05-02T07:41:19.707Z</time></trkpt><trkpt lat="45.5762883" lon="8.6757067"><ele>184.0</ele><time>2026-05-02T07:41:21.705Z</time></trkpt><trkpt lat="45.576215" lon="8.6757533"><ele>184.33333333333334</ele><time>2026-05-02T07:41:23.706Z</time></trkpt><trkpt lat="45.57614" lon="8.6758"><ele>184.66666666666669</ele><time>2026-05-02T07:41:25.707Z</time></trkpt><trkpt lat="45.5760683" lon="8.6758467"><ele>185.0</ele><time>2026-05-02T07:41:27.704Z</time></trkpt><trkpt lat="45.5759983" lon="8.6758917"><ele>185.33333333333334</ele><time>2026-05-02T07:41:29.704Z</time></trkpt><trkpt lat="45.5759283" lon="8.6759367"><ele>185.66666666666666</ele><time>2026-05-02T07:41:31.703Z</time></trkpt><trkpt lat="45.5758583" lon="8.6759833"><ele>186.0</ele><time>2026-05-02T07:41:33.704Z</time></trkpt><trkpt lat="45.575785" lon="8.6760267"><ele>186.0</ele><time>2026-05-02T07:41:35.705Z</time></trkpt><trkpt lat="45.5757133" lon="8.6760717"><ele>186.0</ele><time>2026-05-02T07:41:37.704Z</time></trkpt><trkpt lat="45.5756417" lon="8.67612"><ele>186.0</ele><time>2026-05-02T07:41:39.706Z</time></trkpt><trkpt lat="45.5755683" lon="8.6761633"><ele>186.0</ele><time>2026-05-02T07:41:41.704Z</time></trkpt><trkpt lat="45.5754967" lon="8.6762083"><ele>186.0</ele><time>2026-05-02T07:41:43.702Z</time></trkpt><trkpt lat="45.57543" lon="8.6762567"><ele>186.0</ele><time>2026-05-02T07:41:45.705Z</time></trkpt><trkpt lat="45.5753633" lon="8.6763017"><ele>185.85714285714286</ele><time>2026-05-02T07:41:47.706Z</time></trkpt><trkpt lat="45.5753033" lon="8.67635"><ele>185.71428571428572</ele><time>2026-05-02T07:41:49.708Z</time></trkpt><trkpt lat="45.5752483" lon="8.6764033"><ele>185.57142857142856</ele><time>2026-05-02T07:41:51.708Z</time></trkpt><trkpt lat="45.5751833" lon="8.676455"><ele>185.42857142857144</ele><time>2026-05-02T07:41:53.706Z</time></trkpt><trkpt lat="45.5751133" lon="8.6765"><ele>185.28571428571428</ele><time>2026-05-02T07:41:55.699Z</time></trkpt><trkpt lat="45.5750467" lon="8.67654"><ele>185.14285714285714</ele><time>2026-05-02T07:41:57.704Z</time></trkpt><trkpt lat="45.5749783" lon="8.6765783"><ele>185.0</ele><time>2026-05-02T07:41:59.704Z</time></trkpt><trkpt lat="45.5749167" lon="8.6766217"><ele>185.0</ele><time>2026-05-02T07:42:01.705Z</time></trkpt><trkpt lat="45.5748283" lon="8.6766917"><ele>185.0</ele><time>2026-05-02T07:42:04.707Z</time></trkpt><trkpt lat="45.574755" lon="8.676745"><ele>185.0</ele><time>2026-05-02T07:42:06.703Z</time></trkpt><trkpt lat="45.5746733" lon="8.6768017"><ele>185.0</ele><time>2026-05-02T07:42:08.704Z</time></trkpt><trkpt lat="45.5745833" lon="8.6768633"><ele>185.0</ele><time>2026-05-02T07:42:10.705Z</time></trkpt><trkpt lat="45.574495" lon="8.676915"><ele>184.83333333333331</ele><time>2026-05-02T07:42:12.703Z</time></trkpt><trkpt lat="45.5744083" lon="8.67696"><ele>184.66666666666666</ele><time>2026-05-02T07:42:14.706Z</time></trkpt><trkpt lat="45.574325" lon="8.6770083"><ele>184.5</ele><time>2026-05-02T07:42:16.705Z</time></trkpt><trkpt lat="45.5742467" lon="8.6770567"><ele>184.33333333333334</ele><time>2026-05-02T07:42:18.708Z</time></trkpt><trkpt lat="45.57417" lon="8.6771"><ele>184.16666666666669</ele><time>2026-05-02T07:42:20.709Z</time></trkpt><trkpt lat="45.5741033" lon="8.67714"><ele>184.0</ele><time>2026-05-02T07:42:22.703Z</time></trkpt><trkpt lat="45.5740333" lon="8.6771867"><ele>184.0</ele><time>2026-05-02T07:42:24.705Z</time></trkpt><trkpt lat="45.573965" lon="8.6772383"><ele>184.0</ele><time>2026-05-02T07:42:26.707Z</time></trkpt><trkpt lat="45.5739" lon="8.677285"><ele>184.0</ele><time>2026-05-02T07:42:28.704Z</time></trkpt><trkpt lat="45.57384" lon="8.6773233"><ele>184.0</ele><time>2026-05-02T07:42:30.704Z</time></trkpt><trkpt lat="45.57375" lon="8.6773683"><ele>184.0</ele><time>2026-05-02T07:42:33.704Z</time></trkpt><trkpt lat="45.57368" lon="8.6773817"><ele>184.0</ele><time>2026-05-02T07:42:35.704Z</time></trkpt><trkpt lat="45.5736117" lon="8.6773883"><ele>184.0</ele><time>2026-05-02T07:42:37.706Z</time></trkpt><trkpt lat="45.5735467" lon="8.677385"><ele>184.0</ele><time>2026-05-02T07:42:39.703Z</time></trkpt><trkpt lat="45.5734633" lon="8.6774"><ele>184.0</ele><time>2026-05-02T07:42:42.703Z</time></trkpt><trkpt lat="45.5733917" lon="8.677425"><ele>184.0</ele><time>2026-05-02T07:42:45.706Z</time></trkpt><trkpt lat="45.5733" lon="8.67745"><ele>184.0</ele><time>2026-05-02T07:42:48.705Z</time></trkpt><trkpt lat="45.573235" lon="8.6774667"><ele>184.0</ele><time>2026-05-02T07:42:50.706Z</time></trkpt><trkpt lat="45.5731667" lon="8.677475"><ele>184.0</ele><time>2026-05-02T07:42:52.704Z</time></trkpt><trkpt lat="45.573095" lon="8.6774733"><ele>184.0</ele><time>2026-05-02T07:42:54.705Z</time></trkpt><trkpt lat="45.573025" lon="8.6774717"><ele>184.0</ele><time>2026-05-02T07:42:56.704Z</time></trkpt><trkpt lat="45.5729533" lon="8.6774683"><ele>184.0</ele><time>2026-05-02T07:42:58.705Z</time></trkpt><trkpt lat="45.5728817" lon="8.677465"><ele>184.0</ele><time>2026-05-02T07:43:00.705Z</time></trkpt><trkpt lat="45.5728167" lon="8.67746"><ele>184.0</ele><time>2026-05-02T07:43:02.708Z</time></trkpt><trkpt lat="45.572745" lon="8.6774583"><ele>184.0</ele><time>2026-05-02T07:43:04.702Z</time></trkpt><trkpt lat="45.5726767" lon="8.6774567"><ele>183.71428571428572</ele><time>2026-05-02T07:43:06.705Z</time></trkpt><trkpt lat="45.572605" lon="8.67746"><ele>183.42857142857142</ele><time>2026-05-02T07:43:08.706Z</time></trkpt><trkpt lat="45.572535" lon="8.67746"><ele>183.14285714285714</ele><time>2026-05-02T07:43:10.704Z</time></trkpt><trkpt lat="45.572465" lon="8.6774583"><ele>182.85714285714286</ele><time>2026-05-02T07:43:12.704Z</time></trkpt><trkpt lat="45.5723917" lon="8.6774583"><ele>182.57142857142856</ele><time>2026-05-02T07:43:14.71Z</time></trkpt><trkpt lat="45.5723183" lon="8.6774583"><ele>182.28571428571428</ele><time>2026-05-02T07:43:16.705Z</time></trkpt><trkpt lat="45.5722483" lon="8.677455"><ele>182.0</ele><time>2026-05-02T07:43:18.706Z</time></trkpt><trkpt lat="45.5721783" lon="8.6774567"><ele>182.0</ele><time>2026-05-02T07:43:20.706Z</time></trkpt><trkpt lat="45.5721133" lon="8.6774583"><ele>182.0</ele><time>2026-05-02T07:43:22.704Z</time></trkpt><trkpt lat="45.5720467" lon="8.6774617"><ele>182.0</ele><time>2026-05-02T07:43:24.704Z</time></trkpt><trkpt lat="45.57198" lon="8.6774683"><ele>182.0</ele><time>2026-05-02T07:43:26.7Z</time></trkpt><trkpt lat="45.571915" lon="8.6774683"><ele>182.0</ele><time>2026-05-02T07:43:28.705Z</time></trkpt><trkpt lat="45.5718417" lon="8.6774733"><ele>182.0</ele><time>2026-05-02T07:43:30.704Z</time></trkpt><trkpt lat="45.57176" lon="8.6774717"><ele>182.0</ele><time>2026-05-02T07:43:32.705Z</time></trkpt><trkpt lat="45.571685" lon="8.67747"><ele>182.14285714285714</ele><time>2026-05-02T07:43:34.704Z</time></trkpt><trkpt lat="45.5716133" lon="8.67747"><ele>182.28571428571428</ele><time>2026-05-02T07:43:36.705Z</time></trkpt><trkpt lat="45.5715467" lon="8.6774717"><ele>182.42857142857144</ele><time>2026-05-02T07:43:38.706Z</time></trkpt><trkpt lat="45.57148" lon="8.67747"><ele>182.57142857142856</ele><time>2026-05-02T07:43:40.704Z</time></trkpt><trkpt lat="45.57141" lon="8.67747"><ele>182.71428571428572</ele><time>2026-05-02T07:43:42.702Z</time></trkpt><trkpt lat="45.5713367" lon="8.6774683"><ele>182.85714285714286</ele><time>2026-05-02T07:43:44.71Z</time></trkpt><trkpt lat="45.5712583" lon="8.67747"><ele>183.0</ele><time>2026-05-02T07:43:46.705Z</time></trkpt><trkpt lat="45.5711783" lon="8.677475"><ele>183.0</ele><time>2026-05-02T07:43:48.703Z</time></trkpt><trkpt lat="45.5711033" lon="8.6774767"><ele>183.0</ele><time>2026-05-02T07:43:50.708Z</time></trkpt><trkpt lat="45.5710283" lon="8.6774767"><ele>183.0</ele><time>2026-05-02T07:43:52.706Z</time></trkpt><trkpt lat="45.5709483" lon="8.6774767"><ele>183.0</ele><time>2026-05-02T07:43:54.703Z</time></trkpt><trkpt lat="45.570875" lon="8.677475"><ele>183.0</ele><time>2026-05-02T07:43:56.707Z</time></trkpt><trkpt lat="45.5708017" lon="8.677475"><ele>183.0</ele><time>2026-05-02T07:43:58.704Z</time></trkpt><trkpt lat="45.5707283" lon="8.677475"><ele>183.0</ele><time>2026-05-02T07:44:00.703Z</time></trkpt><trkpt lat="45.570655" lon="8.6774767"><ele>183.0</ele><time>2026-05-02T07:44:02.706Z</time></trkpt><trkpt lat="45.5705833" lon="8.67748"><ele>183.0</ele><time>2026-05-02T07:44:04.703Z</time></trkpt><trkpt lat="45.570515" lon="8.6774767"><ele>183.0</ele><time>2026-05-02T07:44:06.706Z</time></trkpt><trkpt lat="45.5704433" lon="8.6774717"><ele>183.0</ele><time>2026-05-02T07:44:08.704Z</time></trkpt><trkpt lat="45.57037" lon="8.6774683"><ele>183.0</ele><time>2026-05-02T07:44:10.706Z</time></trkpt><trkpt lat="45.5702983" lon="8.6774617"><ele>183.0</ele><time>2026-05-02T07:44:12.702Z</time></trkpt><trkpt lat="45.5702267" lon="8.6774567"><ele>183.14285714285714</ele><time>2026-05-02T07:44:14.707Z</time></trkpt><trkpt lat="45.570155" lon="8.6774517"><ele>183.28571428571428</ele><time>2026-05-02T07:44:16.707Z</time></trkpt><trkpt lat="45.5700783" lon="8.6774467"><ele>183.42857142857144</ele><time>2026-05-02T07:44:18.704Z</time></trkpt><trkpt lat="45.570005" lon="8.6774367"><ele>183.57142857142856</ele><time>2026-05-02T07:44:20.705Z</time></trkpt><trkpt lat="45.5699333" lon="8.677425"><ele>183.7142857142857</ele><time>2026-05-02T07:44:22.704Z</time></trkpt><trkpt lat="45.56986" lon="8.67741"><ele>183.85714285714286</ele><time>2026-05-02T07:44:24.704Z</time></trkpt><trkpt lat="45.56979" lon="8.67739"><ele>184.0</ele><time>2026-05-02T07:44:26.707Z</time></trkpt><trkpt lat="45.5697133" lon="8.6774233"><ele>184.0</ele><time>2026-05-02T07:44:29.706Z</time></trkpt><trkpt lat="45.5696883" lon="8.6775383"><ele>184.0</ele><time>2026-05-02T07:44:32.707Z</time></trkpt><trkpt lat="45.5696833" lon="8.6776367"><ele>184.0</ele><time>2026-05-02T07:44:34.705Z</time></trkpt><trkpt lat="45.56969" lon="8.6777533"><ele>184.0</ele><time>2026-05-02T07:44:36.708Z</time></trkpt><trkpt lat="45.5697083" lon="8.67788"><ele>184.0</ele><time>2026-05-02T07:44:38.706Z</time></trkpt><trkpt lat="45.5697317" lon="8.678015"><ele>184.0</ele><time>2026-05-02T07:44:40.704Z</time></trkpt><trkpt lat="45.56976" lon="8.678165"><ele>183.75</ele><time>2026-05-02T07:44:42.705Z</time></trkpt><trkpt lat="45.5697933" lon="8.6783233"><ele>183.5</ele><time>2026-05-02T07:44:44.701Z</time></trkpt><trkpt lat="45.5698267" lon="8.67849"><ele>183.25</ele><time>2026-05-02T07:44:46.704Z</time></trkpt><trkpt lat="45.5698483" lon="8.67865"><ele>183.0</ele><time>2026-05-02T07:44:48.705Z</time></trkpt><trkpt lat="45.56983" lon="8.67879"><ele>183.0</ele><time>2026-05-02T07:44:50.707Z</time></trkpt><trkpt lat="45.56976" lon="8.6788767"><ele>183.0</ele><time>2026-05-02T07:44:52.702Z</time></trkpt><trkpt lat="45.5696717" lon="8.6789233"><ele>183.0</ele><time>2026-05-02T07:44:54.706Z</time></trkpt><trkpt lat="45.5695767" lon="8.6789483"><ele>183.0</ele><time>2026-05-02T07:44:56.699Z</time></trkpt><trkpt lat="45.5694883" lon="8.6789617"><ele>183.0</ele><time>2026-05-02T07:44:58.703Z</time></trkpt><trkpt lat="45.5694117" lon="8.67898"><ele>183.0</ele><time>2026-05-02T07:45:00.706Z</time></trkpt><trkpt lat="45.569335" lon="8.679"><ele>183.0</ele><time>2026-05-02T07:45:02.704Z</time></trkpt><trkpt lat="45.569255" lon="8.6790117"><ele>183.0</ele><time>2026-05-02T07:45:04.704Z</time></trkpt><trkpt lat="45.5691583" lon="8.6790283"><ele>183.0</ele><time>2026-05-02T07:45:06.707Z</time></trkpt><trkpt lat="45.56908" lon="8.6790383"><ele>183.0</ele><time>2026-05-02T07:45:08.705Z</time></trkpt><trkpt lat="45.5689933" lon="8.679055"><ele>183.0</ele><time>2026-05-02T07:45:10.705Z</time></trkpt><trkpt lat="45.5689067" lon="8.679065"><ele>183.0</ele><time>2026-05-02T07:45:12.705Z</time></trkpt><trkpt lat="45.568835" lon="8.6790767"><ele>183.0</ele><time>2026-05-02T07:45:14.707Z</time></trkpt><trkpt lat="45.5687583" lon="8.67909"><ele>183.0</ele><time>2026-05-02T07:45:16.706Z</time></trkpt><trkpt lat="45.5686867" lon="8.6790967"><ele>183.0</ele><time>2026-05-02T07:45:18.706Z</time></trkpt><trkpt lat="45.568605" lon="8.6791017"><ele>183.0</ele><time>2026-05-02T07:45:20.706Z</time></trkpt><trkpt lat="45.56854" lon="8.6791"><ele>183.0</ele><time>2026-05-02T07:45:22.704Z</time></trkpt><trkpt lat="45.5684633" lon="8.6791083"><ele>183.0</ele><time>2026-05-02T07:45:24.707Z</time></trkpt><trkpt lat="45.5683867" lon="8.6791283"><ele>183.0</ele><time>2026-05-02T07:45:26.708Z</time></trkpt><trkpt lat="45.56831" lon="8.67916"><ele>183.0</ele><time>2026-05-02T07:45:28.704Z</time></trkpt><trkpt lat="45.568235" lon="8.6791983"><ele>183.0</ele><time>2026-05-02T07:45:30.702Z</time></trkpt><trkpt lat="45.568155" lon="8.679245"><ele>183.0</ele><time>2026-05-02T07:45:32.699Z</time></trkpt><trkpt lat="45.5680817" lon="8.6792883"><ele>183.0</ele><time>2026-05-02T07:45:34.699Z</time></trkpt><trkpt lat="45.5679983" lon="8.6793367"><ele>183.0</ele><time>2026-05-02T07:45:36.711Z</time></trkpt><trkpt lat="45.56792" lon="8.6793783"><ele>183.0</ele><time>2026-05-02T07:45:38.705Z</time></trkpt><trkpt lat="45.5678367" lon="8.6794267"><ele>183.0</ele><time>2026-05-02T07:45:40.706Z</time></trkpt><trkpt lat="45.5677517" lon="8.6794533"><ele>183.0</ele><time>2026-05-02T07:45:42.708Z</time></trkpt><trkpt lat="45.5676683" lon="8.6794583"><ele>183.0</ele><time>2026-05-02T07:45:44.711Z</time></trkpt><trkpt lat="45.5675817" lon="8.6794667"><ele>183.0</ele><time>2026-05-02T07:45:46.707Z</time></trkpt><trkpt lat="45.5675033" lon="8.679455"><ele>183.0</ele><time>2026-05-02T07:45:49.705Z</time></trkpt><trkpt lat="45.5674067" lon="8.6794333"><ele>183.0</ele><time>2026-05-02T07:45:52.705Z</time></trkpt><trkpt lat="45.5673333" lon="8.679425"><ele>183.0</ele><time>2026-05-02T07:45:54.706Z</time></trkpt><trkpt lat="45.5672517" lon="8.67943"><ele>183.0</ele><time>2026-05-02T07:45:56.707Z</time></trkpt><trkpt lat="45.5671833" lon="8.6794417"><ele>183.0</ele><time>2026-05-02T07:45:58.704Z</time></trkpt><trkpt lat="45.5671117" lon="8.6794633"><ele>183.0</ele><time>2026-05-02T07:46:00.705Z</time></trkpt><trkpt lat="45.5670233" lon="8.679485"><ele>183.0</ele><time>2026-05-02T07:46:02.705Z</time></trkpt><trkpt lat="45.5669417" lon="8.679485"><ele>183.0</ele><time>2026-05-02T07:46:04.704Z</time></trkpt><trkpt lat="45.5668617" lon="8.679485"><ele>183.0</ele><time>2026-05-02T07:46:06.706Z</time></trkpt><trkpt lat="45.5667917" lon="8.6794983"><ele>183.0</ele><time>2026-05-02T07:46:08.7Z</time></trkpt><trkpt lat="45.5667083" lon="8.6795117"><ele>183.0</ele><time>2026-05-02T07:46:10.706Z</time></trkpt><trkpt lat="45.5666367" lon="8.679515"><ele>183.0</ele><time>2026-05-02T07:46:12.704Z</time></trkpt><trkpt lat="45.56656" lon="8.6795083"><ele>183.0</ele><time>2026-05-02T07:46:14.707Z</time></trkpt><trkpt lat="45.5664883" lon="8.679495"><ele>183.0</ele><time>2026-05-02T07:46:16.704Z</time></trkpt><trkpt lat="45.566395" lon="8.6794733"><ele>183.0</ele><time>2026-05-02T07:46:18.704Z</time></trkpt><trkpt lat="45.5663117" lon="8.6794533"><ele>183.0</ele><time>2026-05-02T07:46:20.706Z</time></trkpt><trkpt lat="45.5662483" lon="8.679435"><ele>183.0</ele><time>2026-05-02T07:46:22.705Z</time></trkpt><trkpt lat="45.566175" lon="8.6794133"><ele>183.0</ele><time>2026-05-02T07:46:24.704Z</time></trkpt><trkpt lat="45.5660983" lon="8.6793933"><ele>183.0</ele><time>2026-05-02T07:46:26.707Z</time></trkpt><trkpt lat="45.5660317" lon="8.6794017"><ele>183.16666666666666</ele><time>2026-05-02T07:46:31.707Z</time></trkpt><trkpt lat="45.5659567" lon="8.6794483"><ele>183.33333333333334</ele><time>2026-05-02T07:46:45.705Z</time></trkpt><trkpt lat="45.5659217" lon="8.6795583"><ele>183.5</ele><time>2026-05-02T07:46:47.705Z</time></trkpt><trkpt lat="45.565855" lon="8.67964"><ele>183.66666666666669</ele><time>2026-05-02T07:46:49.707Z</time></trkpt><trkpt lat="45.5657783" lon="8.6796933"><ele>183.83333333333334</ele><time>2026-05-02T07:46:51.705Z</time></trkpt><trkpt lat="45.56571" lon="8.6797367"><ele>184.0</ele><time>2026-05-02T07:46:53.705Z</time></trkpt><trkpt lat="45.56563" lon="8.6798"><ele>184.0</ele><time>2026-05-02T07:46:56.71Z</time></trkpt><trkpt lat="45.565575" lon="8.679845"><ele>184.0</ele><time>2026-05-02T07:46:58.704Z</time></trkpt><trkpt lat="45.5655033" lon="8.6798983"><ele>184.0</ele><time>2026-05-02T07:47:00.708Z</time></trkpt><trkpt lat="45.565445" lon="8.6799417"><ele>184.0</ele><time>2026-05-02T07:47:02.705Z</time></trkpt><trkpt lat="45.56538" lon="8.679975"><ele>184.0</ele><time>2026-05-02T07:47:04.704Z</time></trkpt><trkpt lat="45.56531" lon="8.6800133"><ele>184.0</ele><time>2026-05-02T07:47:06.704Z</time></trkpt><trkpt lat="45.5652483" lon="8.680055"><ele>184.0</ele><time>2026-05-02T07:47:08.707Z</time></trkpt><trkpt lat="45.56518" lon="8.6801033"><ele>184.66666666666669</ele><time>2026-05-02T07:47:10.706Z</time></trkpt><trkpt lat="45.5651067" lon="8.6801633"><ele>185.33333333333334</ele><time>2026-05-02T07:47:12.705Z</time></trkpt><trkpt lat="45.5650417" lon="8.680215"><ele>186.0</ele><time>2026-05-02T07:47:14.706Z</time></trkpt><trkpt lat="45.564965" lon="8.68027"><ele>186.66666666666666</ele><time>2026-05-02T07:47:16.706Z</time></trkpt><trkpt lat="45.5648767" lon="8.680305"><ele>187.33333333333331</ele><time>2026-05-02T07:47:18.706Z</time></trkpt><trkpt lat="45.56477" lon="8.6803333"><ele>188.0</ele><time>2026-05-02T07:47:20.706Z</time></trkpt><trkpt lat="45.56468" lon="8.6803767"><ele>188.0</ele><time>2026-05-02T07:47:22.706Z</time></trkpt><trkpt lat="45.564585" lon="8.6804217"><ele>188.0</ele><time>2026-05-02T07:47:24.706Z</time></trkpt><trkpt lat="45.564495" lon="8.680475"><ele>188.0</ele><time>2026-05-02T07:47:26.71Z</time></trkpt><trkpt lat="45.5643867" lon="8.6805267"><ele>188.0</ele><time>2026-05-02T07:47:28.706Z</time></trkpt><trkpt lat="45.56429" lon="8.6805867"><ele>188.0</ele><time>2026-05-02T07:47:30.706Z</time></trkpt><trkpt lat="45.5642083" lon="8.6806467"><ele>188.5</ele><time>2026-05-02T07:47:32.703Z</time></trkpt><trkpt lat="45.56414" lon="8.6806883"><ele>189.0</ele><time>2026-05-02T07:47:34.705Z</time></trkpt><trkpt lat="45.56407" lon="8.680725"><ele>189.5</ele><time>2026-05-02T07:47:36.708Z</time></trkpt><trkpt lat="45.5639933" lon="8.6807583"><ele>190.0</ele><time>2026-05-02T07:47:38.706Z</time></trkpt><trkpt lat="45.5639167" lon="8.6807867"><ele>190.5</ele><time>2026-05-02T07:47:40.706Z</time></trkpt><trkpt lat="45.5638433" lon="8.6808067"><ele>191.0</ele><time>2026-05-02T07:47:42.707Z</time></trkpt><trkpt lat="45.5637467" lon="8.6808233"><ele>190.60000000000002</ele><time>2026-05-02T07:47:44.707Z</time></trkpt><trkpt lat="45.563645" lon="8.68083"><ele>190.2</ele><time>2026-05-02T07:47:46.705Z</time></trkpt><trkpt lat="45.56354" lon="8.6808383"><ele>189.8</ele><time>2026-05-02T07:47:48.707Z</time></trkpt><trkpt lat="45.5634317" lon="8.6808683"><ele>189.39999999999998</ele><time>2026-05-02T07:47:50.708Z</time></trkpt><trkpt lat="45.563335" lon="8.6809217"><ele>189.0</ele><time>2026-05-02T07:47:52.704Z</time></trkpt><trkpt lat="45.5632517" lon="8.6809917"><ele>189.0</ele><time>2026-05-02T07:47:54.708Z</time></trkpt><trkpt lat="45.5631817" lon="8.681075"><ele>189.0</ele><time>2026-05-02T07:47:56.706Z</time></trkpt><trkpt lat="45.563125" lon="8.6811517"><ele>189.0</ele><time>2026-05-02T07:47:58.713Z</time></trkpt><trkpt lat="45.5630633" lon="8.6812317"><ele>189.0</ele><time>2026-05-02T07:48:00.711Z</time></trkpt><trkpt lat="45.562995" lon="8.6813033"><ele>189.0</ele><time>2026-05-02T07:48:02.708Z</time></trkpt><trkpt lat="45.562915" lon="8.6813633"><ele>189.0</ele><time>2026-05-02T07:48:04.705Z</time></trkpt><trkpt lat="45.56283" lon="8.6814167"><ele>189.33333333333334</ele><time>2026-05-02T07:48:06.707Z</time></trkpt><trkpt lat="45.5627467" lon="8.6814533"><ele>189.66666666666666</ele><time>2026-05-02T07:48:08.706Z</time></trkpt><trkpt lat="45.5626633" lon="8.6815033"><ele>190.0</ele><time>2026-05-02T07:48:10.704Z</time></trkpt><trkpt lat="45.562585" lon="8.6815667"><ele>190.33333333333331</ele><time>2026-05-02T07:48:12.706Z</time></trkpt><trkpt lat="45.5625067" lon="8.68164"><ele>190.66666666666666</ele><time>2026-05-02T07:48:14.707Z</time></trkpt><trkpt lat="45.562435" lon="8.6817083"><ele>191.0</ele><time>2026-05-02T07:48:16.705Z</time></trkpt><trkpt lat="45.56237" lon="8.6817817"><ele>191.0</ele><time>2026-05-02T07:48:18.705Z</time></trkpt><trkpt lat="45.5622933" lon="8.6818383"><ele>191.0</ele><time>2026-05-02T07:48:20.707Z</time></trkpt><trkpt lat="45.5622033" lon="8.6818717"><ele>191.0</ele><time>2026-05-02T07:48:22.706Z</time></trkpt><trkpt lat="45.5621283" lon="8.681865"><ele>191.0</ele><time>2026-05-02T07:48:24.705Z</time></trkpt><trkpt lat="45.562035" lon="8.6818583"><ele>191.0</ele><time>2026-05-02T07:48:26.705Z</time></trkpt><trkpt lat="45.5619567" lon="8.6818767"><ele>191.0</ele><time>2026-05-02T07:48:28.704Z</time></trkpt><trkpt lat="45.5618717" lon="8.68188"><ele>190.4</ele><time>2026-05-02T07:48:30.706Z</time></trkpt><trkpt lat="45.5617633" lon="8.6818617"><ele>189.8</ele><time>2026-05-02T07:48:32.707Z</time></trkpt><trkpt lat="45.56167" lon="8.6818633"><ele>189.20000000000002</ele><time>2026-05-02T07:48:34.703Z</time></trkpt><trkpt lat="45.5615817" lon="8.6818667"><ele>188.60000000000002</ele><time>2026-05-02T07:48:36.699Z</time></trkpt><trkpt lat="45.561495" lon="8.6818933"><ele>188.0</ele><time>2026-05-02T07:48:39.706Z</time></trkpt><trkpt lat="45.5614183" lon="8.681935"><ele>188.0</ele><time>2026-05-02T07:48:41.705Z</time></trkpt><trkpt lat="45.561335" lon="8.6819817"><ele>188.0</ele><time>2026-05-02T07:48:43.705Z</time></trkpt><trkpt lat="45.5612433" lon="8.682035"><ele>188.0</ele><time>2026-05-02T07:48:45.704Z</time></trkpt><trkpt lat="45.561155" lon="8.6820633"><ele>188.0</ele><time>2026-05-02T07:48:47.704Z</time></trkpt><trkpt lat="45.5610767" lon="8.6820767"><ele>188.0</ele><time>2026-05-02T07:48:49.705Z</time></trkpt><trkpt lat="45.5609917" lon="8.6820967"><ele>188.0</ele><time>2026-05-02T07:48:51.707Z</time></trkpt><trkpt lat="45.5609217" lon="8.6821517"><ele>188.0</ele><time>2026-05-02T07:48:53.703Z</time></trkpt><trkpt lat="45.5608533" lon="8.6821917"><ele>188.0</ele><time>2026-05-02T07:48:55.706Z</time></trkpt><trkpt lat="45.5607733" lon="8.68224"><ele>188.0</ele><time>2026-05-02T07:48:57.705Z</time></trkpt><trkpt lat="45.5607" lon="8.682285"><ele>188.0</ele><time>2026-05-02T07:48:59.706Z</time></trkpt><trkpt lat="45.56063" lon="8.68234"><ele>188.0</ele><time>2026-05-02T07:49:01.706Z</time></trkpt><trkpt lat="45.5605583" lon="8.6824083"><ele>188.0</ele><time>2026-05-02T07:49:03.704Z</time></trkpt><trkpt lat="45.560485" lon="8.68247"><ele>188.0</ele><time>2026-05-02T07:49:05.705Z</time></trkpt><trkpt lat="45.5604183" lon="8.68252"><ele>188.0</ele><time>2026-05-02T07:49:07.698Z</time></trkpt><trkpt lat="45.5603533" lon="8.6825717"><ele>188.0</ele><time>2026-05-02T07:49:09.706Z</time></trkpt><trkpt lat="45.5602867" lon="8.682615"><ele>188.0</ele><time>2026-05-02T07:49:11.705Z</time></trkpt><trkpt lat="45.5602183" lon="8.68265"><ele>188.0</ele><time>2026-05-02T07:49:13.705Z</time></trkpt><trkpt lat="45.5601433" lon="8.6826817"><ele>188.0</ele><time>2026-05-02T07:49:15.704Z</time></trkpt><trkpt lat="45.5600367" lon="8.6827367"><ele>187.2</ele><time>2026-05-02T07:49:17.704Z</time></trkpt><trkpt lat="45.5599483" lon="8.6828033"><ele>186.4</ele><time>2026-05-02T07:49:19.705Z</time></trkpt><trkpt lat="45.5598533" lon="8.6828733"><ele>185.6</ele><time>2026-05-02T07:49:21.708Z</time></trkpt><trkpt lat="45.5597367" lon="8.6829633"><ele>184.79999999999998</ele><time>2026-05-02T07:49:23.702Z</time></trkpt><trkpt lat="45.5596717" lon="8.6830117"><ele>184.0</ele><time>2026-05-02T07:49:24.701Z</time></trkpt><trkpt lat="45.559565" lon="8.6831033"><ele>183.75</ele><time>2026-05-02T07:49:26.702Z</time></trkpt><trkpt lat="45.5594717" lon="8.6831983"><ele>183.5</ele><time>2026-05-02T07:49:28.708Z</time></trkpt><trkpt lat="45.5593883" lon="8.6832933"><ele>183.25</ele><time>2026-05-02T07:49:30.704Z</time></trkpt><trkpt lat="45.5593083" lon="8.683375"><ele>183.0</ele><time>2026-05-02T07:49:32.705Z</time></trkpt><trkpt lat="45.5591967" lon="8.6834717"><ele>183.0</ele><time>2026-05-02T07:49:34.704Z</time></trkpt><trkpt lat="45.5590917" lon="8.68357"><ele>183.0</ele><time>2026-05-02T07:49:36.704Z</time></trkpt><trkpt lat="45.559" lon="8.683645"><ele>183.0</ele><time>2026-05-02T07:49:38.705Z</time></trkpt><trkpt lat="45.5589167" lon="8.683695"><ele>183.0</ele><time>2026-05-02T07:49:40.703Z</time></trkpt><trkpt lat="45.5588383" lon="8.6837133"><ele>183.0</ele><time>2026-05-02T07:49:42.706Z</time></trkpt><trkpt lat="45.55876" lon="8.6837117"><ele>182.8</ele><time>2026-05-02T07:49:44.707Z</time></trkpt><trkpt lat="45.55869" lon="8.6837017"><ele>182.60000000000002</ele><time>2026-05-02T07:49:46.705Z</time></trkpt><trkpt lat="45.5586067" lon="8.6837083"><ele>182.39999999999998</ele><time>2026-05-02T07:49:48.704Z</time></trkpt><trkpt lat="45.558505" lon="8.6837233"><ele>182.2</ele><time>2026-05-02T07:49:50.711Z</time></trkpt><trkpt lat="45.5584083" lon="8.6837367"><ele>182.0</ele><time>2026-05-02T07:49:52.705Z</time></trkpt><trkpt lat="45.5582983" lon="8.6837667"><ele>182.0</ele><time>2026-05-02T07:49:54.705Z</time></trkpt><trkpt lat="45.5581833" lon="8.683795"><ele>182.0</ele><time>2026-05-02T07:49:56.707Z</time></trkpt><trkpt lat="45.5580883" lon="8.6838283"><ele>182.0</ele><time>2026-05-02T07:49:58.706Z</time></trkpt><trkpt lat="45.5579917" lon="8.6838617"><ele>182.0</ele><time>2026-05-02T07:50:00.704Z</time></trkpt><trkpt lat="45.5578867" lon="8.6838867"><ele>182.0</ele><time>2026-05-02T07:50:02.707Z</time></trkpt><trkpt lat="45.5577817" lon="8.6839017"><ele>182.39999999999998</ele><time>2026-05-02T07:50:04.705Z</time></trkpt><trkpt lat="45.55768" lon="8.6839283"><ele>182.79999999999998</ele><time>2026-05-02T07:50:06.708Z</time></trkpt><trkpt lat="45.5575783" lon="8.6839817"><ele>183.2</ele><time>2026-05-02T07:50:08.706Z</time></trkpt><trkpt lat="45.5575033" lon="8.6840183"><ele>183.6</ele><time>2026-05-02T07:50:10.707Z</time></trkpt><trkpt lat="45.5574033" lon="8.6840383"><ele>184.0</ele><time>2026-05-02T07:50:12.705Z</time></trkpt><trkpt lat="45.557315" lon="8.6840467"><ele>184.0</ele><time>2026-05-02T07:50:14.709Z</time></trkpt><trkpt lat="45.5572267" lon="8.6840433"><ele>184.0</ele><time>2026-05-02T07:50:16.705Z</time></trkpt><trkpt lat="45.55716" lon="8.6840267"><ele>184.0</ele><time>2026-05-02T07:50:18.705Z</time></trkpt><trkpt lat="45.5570883" lon="8.6840083"><ele>184.0</ele><time>2026-05-02T07:50:20.706Z</time></trkpt><trkpt lat="45.557005" lon="8.6839867"><ele>184.0</ele><time>2026-05-02T07:50:22.706Z</time></trkpt><trkpt lat="45.5569033" lon="8.6839383"><ele>184.0</ele><time>2026-05-02T07:50:24.702Z</time></trkpt><trkpt lat="45.55681" lon="8.6839083"><ele>184.6</ele><time>2026-05-02T07:50:26.711Z</time></trkpt><trkpt lat="45.556715" lon="8.6838933"><ele>185.2</ele><time>2026-05-02T07:50:28.71Z</time></trkpt><trkpt lat="45.5565983" lon="8.6838817"><ele>185.79999999999998</ele><time>2026-05-02T07:50:30.705Z</time></trkpt><trkpt lat="45.5565283" lon="8.6838783"><ele>186.39999999999998</ele><time>2026-05-02T07:50:31.704Z</time></trkpt><trkpt lat="45.5564167" lon="8.6838783"><ele>187.0</ele><time>2026-05-02T07:50:33.7Z</time></trkpt><trkpt lat="45.5563517" lon="8.68387"><ele>187.0</ele><time>2026-05-02T07:50:34.708Z</time></trkpt><trkpt lat="45.5562883" lon="8.6838717"><ele>187.0</ele><time>2026-05-02T07:50:35.707Z</time></trkpt><trkpt lat="45.55619" lon="8.6838717"><ele>187.0</ele><time>2026-05-02T07:50:37.705Z</time></trkpt><trkpt lat="45.556105" lon="8.6838667"><ele>187.0</ele><time>2026-05-02T07:50:39.698Z</time></trkpt><trkpt lat="45.5560267" lon="8.6838633"><ele>187.0</ele><time>2026-05-02T07:50:41.707Z</time></trkpt><trkpt lat="45.555945" lon="8.6838883"><ele>187.0</ele><time>2026-05-02T07:50:43.705Z</time></trkpt><trkpt lat="45.5558683" lon="8.6839233"><ele>186.6</ele><time>2026-05-02T07:50:45.704Z</time></trkpt><trkpt lat="45.5557633" lon="8.68395"><ele>186.2</ele><time>2026-05-02T07:50:47.707Z</time></trkpt><trkpt lat="45.555675" lon="8.6839733"><ele>185.8</ele><time>2026-05-02T07:50:49.701Z</time></trkpt><trkpt lat="45.5555767" lon="8.684"><ele>185.4</ele><time>2026-05-02T07:50:51.704Z</time></trkpt><trkpt lat="45.5554883" lon="8.6840367"><ele>185.0</ele><time>2026-05-02T07:50:53.706Z</time></trkpt><trkpt lat="45.5554067" lon="8.6840667"><ele>185.0</ele><time>2026-05-02T07:50:55.706Z</time></trkpt><trkpt lat="45.555335" lon="8.6840917"><ele>185.0</ele><time>2026-05-02T07:50:57.703Z</time></trkpt><trkpt lat="45.5552667" lon="8.6841167"><ele>185.0</ele><time>2026-05-02T07:50:59.702Z</time></trkpt><trkpt lat="45.5551867" lon="8.68415"><ele>185.0</ele><time>2026-05-02T07:51:01.706Z</time></trkpt><trkpt lat="45.555105" lon="8.6841733"><ele>185.0</ele><time>2026-05-02T07:51:03.705Z</time></trkpt><trkpt lat="45.5550067" lon="8.6841933"><ele>185.0</ele><time>2026-05-02T07:51:05.704Z</time></trkpt><trkpt lat="45.5549117" lon="8.684215"><ele>185.0</ele><time>2026-05-02T07:51:07.704Z</time></trkpt><trkpt lat="45.5548267" lon="8.6842467"><ele>185.0</ele><time>2026-05-02T07:51:09.703Z</time></trkpt><trkpt lat="45.5547483" lon="8.6842717"><ele>185.0</ele><time>2026-05-02T07:51:11.703Z</time></trkpt><trkpt lat="45.5546533" lon="8.6843267"><ele>185.0</ele><time>2026-05-02T07:51:14.709Z</time></trkpt><trkpt lat="45.5545817" lon="8.684355"><ele>185.0</ele><time>2026-05-02T07:51:16.702Z</time></trkpt><trkpt lat="45.55452" lon="8.6843983"><ele>185.0</ele><time>2026-05-02T07:51:18.707Z</time></trkpt><trkpt lat="45.55448" lon="8.6844717"><ele>185.0</ele><time>2026-05-02T07:51:20.707Z</time></trkpt><trkpt lat="45.5543983" lon="8.68454"><ele>185.0</ele><time>2026-05-02T07:51:23.707Z</time></trkpt><trkpt lat="45.5543167" lon="8.6845633"><ele>185.0</ele><time>2026-05-02T07:51:25.706Z</time></trkpt><trkpt lat="45.5542417" lon="8.684575"><ele>185.0</ele><time>2026-05-02T07:51:27.706Z</time></trkpt><trkpt lat="45.554165" lon="8.6845717"><ele>185.0</ele><time>2026-05-02T07:51:29.708Z</time></trkpt><trkpt lat="45.55408" lon="8.68456"><ele>185.0</ele><time>2026-05-02T07:51:31.705Z</time></trkpt><trkpt lat="45.5540067" lon="8.6845867"><ele>184.99999999999997</ele><time>2026-05-02T07:51:33.704Z</time></trkpt><trkpt lat="45.55395" lon="8.6846317"><ele>185.0</ele><time>2026-05-02T07:51:35.705Z</time></trkpt><trkpt lat="45.553885" lon="8.6846683"><ele>185.0</ele><time>2026-05-02T07:51:37.705Z</time></trkpt><trkpt lat="45.553825" lon="8.6846967"><ele>185.0</ele><time>2026-05-02T07:51:39.706Z</time></trkpt><trkpt lat="45.5537633" lon="8.68465"><ele>185.0</ele><time>2026-05-02T07:51:42.705Z</time></trkpt><trkpt lat="45.5536683" lon="8.6846583"><ele>184.99999999999997</ele><time>2026-05-02T07:51:45.706Z</time></trkpt><trkpt lat="45.553595" lon="8.6846983"><ele>185.0</ele><time>2026-05-02T07:51:47.701Z</time></trkpt><trkpt lat="45.5535267" lon="8.684745"><ele>185.0</ele><time>2026-05-02T07:51:49.706Z</time></trkpt><trkpt lat="45.55347" lon="8.6848183"><ele>185.0</ele><time>2026-05-02T07:51:52.704Z</time></trkpt><trkpt lat="45.5534283" lon="8.6848883"><ele>185.0</ele><time>2026-05-02T07:51:56.747Z</time></trkpt><trkpt lat="45.553415" lon="8.6849967"><ele>185.0</ele><time>2026-05-02T07:51:59.705Z</time></trkpt><trkpt lat="45.553415" lon="8.685115"><ele>185.0</ele><time>2026-05-02T07:52:01.705Z</time></trkpt><trkpt lat="45.5534117" lon="8.68522"><ele>185.0</ele><time>2026-05-02T07:52:03.708Z</time></trkpt><trkpt lat="45.55341" lon="8.68533"><ele>184.6</ele><time>2026-05-02T07:52:05.706Z</time></trkpt><trkpt lat="45.5534217" lon="8.6854817"><ele>184.2</ele><time>2026-05-02T07:52:07.705Z</time></trkpt><trkpt lat="45.553435" lon="8.68564"><ele>183.8</ele><time>2026-05-02T07:52:09.707Z</time></trkpt><trkpt lat="45.5534533" lon="8.6857467"><ele>183.4</ele><time>2026-05-02T07:52:11.705Z</time></trkpt><trkpt lat="45.5534767" lon="8.6858383"><ele>183.0</ele><time>2026-05-02T07:52:13.706Z</time></trkpt><trkpt lat="45.5534667" lon="8.68599"><ele>183.0</ele><time>2026-05-02T07:52:16.706Z</time></trkpt><trkpt lat="45.5534433" lon="8.6861017"><ele>183.0</ele><time>2026-05-02T07:52:19.707Z</time></trkpt><trkpt lat="45.5534467" lon="8.68623"><ele>183.0</ele><time>2026-05-02T07:52:22.708Z</time></trkpt><trkpt lat="45.5534517" lon="8.68633"><ele>183.0</ele><time>2026-05-02T07:52:24.706Z</time></trkpt><trkpt lat="45.55345" lon="8.6864283"><ele>183.0</ele><time>2026-05-02T07:52:26.709Z</time></trkpt><trkpt lat="45.5534517" lon="8.68652"><ele>183.0</ele><time>2026-05-02T07:52:28.702Z</time></trkpt><trkpt lat="45.55345" lon="8.6866483"><ele>183.0</ele><time>2026-05-02T07:52:31.704Z</time></trkpt><trkpt lat="45.5534383" lon="8.6867467"><ele>183.0</ele><time>2026-05-02T07:52:33.705Z</time></trkpt><trkpt lat="45.5534383" lon="8.68686"><ele>183.0</ele><time>2026-05-02T07:52:35.706Z</time></trkpt><trkpt lat="45.55344" lon="8.68697"><ele>183.0</ele><time>2026-05-02T07:52:37.707Z</time></trkpt><trkpt lat="45.5534517" lon="8.6870767"><ele>183.0</ele><time>2026-05-02T07:52:39.704Z</time></trkpt><trkpt lat="45.5534617" lon="8.687195"><ele>183.0</ele><time>2026-05-02T07:52:41.703Z</time></trkpt><trkpt lat="45.5534683" lon="8.6873"><ele>183.0</ele><time>2026-05-02T07:52:43.704Z</time></trkpt><trkpt lat="45.55348" lon="8.6873983"><ele>183.0</ele><time>2026-05-02T07:52:45.704Z</time></trkpt><trkpt lat="45.55349" lon="8.68749"><ele>183.0</ele><time>2026-05-02T07:52:47.706Z</time></trkpt><trkpt lat="45.5535017" lon="8.687585"><ele>183.0</ele><time>2026-05-02T07:52:49.709Z</time></trkpt><trkpt lat="45.5535117" lon="8.68769"><ele>183.0</ele><time>2026-05-02T07:52:51.708Z</time></trkpt><trkpt lat="45.5535233" lon="8.6878283"><ele>183.0</ele><time>2026-05-02T07:52:53.708Z</time></trkpt><trkpt lat="45.5535317" lon="8.6879417"><ele>183.0</ele><time>2026-05-02T07:52:55.706Z</time></trkpt><trkpt lat="45.55354" lon="8.6880567"><ele>183.0</ele><time>2026-05-02T07:52:57.708Z</time></trkpt><trkpt lat="45.553555" lon="8.6881683"><ele>183.0</ele><time>2026-05-02T07:52:59.706Z</time></trkpt><trkpt lat="45.5535567" lon="8.6882867"><ele>183.0</ele><time>2026-05-02T07:53:01.708Z</time></trkpt><trkpt lat="45.553535" lon="8.688405"><ele>183.0</ele><time>2026-05-02T07:53:04.705Z</time></trkpt><trkpt lat="45.55352" lon="8.68851"><ele>183.0</ele><time>2026-05-02T07:53:06.705Z</time></trkpt><trkpt lat="45.5535267" lon="8.6886383"><ele>182.60000000000002</ele><time>2026-05-02T07:53:08.707Z</time></trkpt><trkpt lat="45.55355" lon="8.6887633"><ele>182.20000000000002</ele><time>2026-05-02T07:53:10.703Z</time></trkpt><trkpt lat="45.553575" lon="8.688905"><ele>181.8</ele><time>2026-05-02T07:53:12.706Z</time></trkpt><trkpt lat="45.5536" lon="8.68904"><ele>181.4</ele><time>2026-05-02T07:53:14.708Z</time></trkpt><trkpt lat="45.5536167" lon="8.68917"><ele>181.0</ele><time>2026-05-02T07:53:17.703Z</time></trkpt><trkpt lat="45.5536367" lon="8.68928"><ele>181.0</ele><time>2026-05-02T07:53:18.708Z</time></trkpt><trkpt lat="45.553675" lon="8.6894083"><ele>181.0</ele><time>2026-05-02T07:53:20.711Z</time></trkpt><trkpt lat="45.5536917" lon="8.6895383"><ele>181.0</ele><time>2026-05-02T07:53:22.706Z</time></trkpt><trkpt lat="45.553705" lon="8.6896733"><ele>181.0</ele><time>2026-05-02T07:53:24.705Z</time></trkpt><trkpt lat="45.5537267" lon="8.6897683"><ele>181.0</ele><time>2026-05-02T07:53:26.706Z</time></trkpt><trkpt lat="45.553755" lon="8.68985"><ele>181.0</ele><time>2026-05-02T07:53:28.707Z</time></trkpt><trkpt lat="45.5538167" lon="8.6899383"><ele>180.16666666666669</ele><time>2026-05-02T07:53:31.706Z</time></trkpt><trkpt lat="45.5538583" lon="8.6900217"><ele>179.33333333333334</ele><time>2026-05-02T07:53:33.704Z</time></trkpt><trkpt lat="45.5538817" lon="8.69013"><ele>178.5</ele><time>2026-05-02T07:53:35.707Z</time></trkpt><trkpt lat="45.5538967" lon="8.6902567"><ele>177.66666666666666</ele><time>2026-05-02T07:53:37.707Z</time></trkpt><trkpt lat="45.55391" lon="8.6903983"><ele>176.83333333333331</ele><time>2026-05-02T07:53:39.704Z</time></trkpt><trkpt lat="45.553915" lon="8.6905333"><ele>176.0</ele><time>2026-05-02T07:53:41.706Z</time></trkpt><trkpt lat="45.5539183" lon="8.6906483"><ele>175.60000000000002</ele><time>2026-05-02T07:53:43.705Z</time></trkpt><trkpt lat="45.5539133" lon="8.6907717"><ele>175.2</ele><time>2026-05-02T07:53:45.706Z</time></trkpt><trkpt lat="45.5539083" lon="8.6909217"><ele>174.8</ele><time>2026-05-02T07:53:47.706Z</time></trkpt><trkpt lat="45.553915" lon="8.6910733"><ele>174.39999999999998</ele><time>2026-05-02T07:53:49.707Z</time></trkpt><trkpt lat="45.5539283" lon="8.69122"><ele>174.0</ele><time>2026-05-02T07:53:51.706Z</time></trkpt><trkpt lat="45.5539533" lon="8.6913467"><ele>174.0</ele><time>2026-05-02T07:53:53.702Z</time></trkpt><trkpt lat="45.55402" lon="8.6914417"><ele>174.0</ele><time>2026-05-02T07:53:56.711Z</time></trkpt><trkpt lat="45.55413" lon="8.6914983"><ele>174.0</ele><time>2026-05-02T07:53:58.706Z</time></trkpt><trkpt lat="45.5541967" lon="8.6915133"><ele>174.0</ele><time>2026-05-02T07:54:00.706Z</time></trkpt><trkpt lat="45.5542683" lon="8.6915267"><ele>174.0</ele><time>2026-05-02T07:54:02.707Z</time></trkpt><trkpt lat="45.5543383" lon="8.69157"><ele>174.0</ele><time>2026-05-02T07:54:04.704Z</time></trkpt><trkpt lat="45.5544017" lon="8.6916367"><ele>174.0</ele><time>2026-05-02T07:54:06.705Z</time></trkpt><trkpt lat="45.55448" lon="8.691635"><ele>174.0</ele><time>2026-05-02T07:54:09.704Z</time></trkpt><trkpt lat="45.5545433" lon="8.69163"><ele>174.0</ele><time>2026-05-02T07:54:11.705Z</time></trkpt><trkpt lat="45.55462" lon="8.6916683"><ele>174.0</ele><time>2026-05-02T07:54:13.706Z</time></trkpt><trkpt lat="45.5546917" lon="8.6916983"><ele>174.0</ele><time>2026-05-02T07:54:15.705Z</time></trkpt><trkpt lat="45.554755" lon="8.69174"><ele>174.0</ele><time>2026-05-02T07:54:17.706Z</time></trkpt><trkpt lat="45.55481" lon="8.6918033"><ele>174.0</ele><time>2026-05-02T07:54:19.704Z</time></trkpt><trkpt lat="45.5548917" lon="8.6918783"><ele>172.66666666666666</ele><time>2026-05-02T07:54:22.706Z</time></trkpt><trkpt lat="45.5549517" lon="8.6919083"><ele>171.33333333333334</ele><time>2026-05-02T07:54:24.706Z</time></trkpt><trkpt lat="45.5550217" lon="8.691925"><ele>170.0</ele><time>2026-05-02T07:54:26.709Z</time></trkpt><trkpt lat="45.5550917" lon="8.69194"><ele>168.66666666666669</ele><time>2026-05-02T07:54:28.704Z</time></trkpt><trkpt lat="45.5551667" lon="8.6919733"><ele>167.33333333333334</ele><time>2026-05-02T07:54:30.704Z</time></trkpt><trkpt lat="45.555255" lon="8.69199"><ele>166.0</ele><time>2026-05-02T07:54:32.706Z</time></trkpt><trkpt lat="45.55534" lon="8.6919917"><ele>164.16666666666669</ele><time>2026-05-02T07:54:34.704Z</time></trkpt><trkpt lat="45.555425" lon="8.6919967"><ele>162.33333333333334</ele><time>2026-05-02T07:54:36.706Z</time></trkpt><trkpt lat="45.5555167" lon="8.692"><ele>160.5</ele><time>2026-05-02T07:54:38.705Z</time></trkpt><trkpt lat="45.5555983" lon="8.6920033"><ele>158.66666666666666</ele><time>2026-05-02T07:54:40.704Z</time></trkpt><trkpt lat="45.5556683" lon="8.69201"><ele>156.83333333333331</ele><time>2026-05-02T07:54:42.704Z</time></trkpt><trkpt lat="45.555745" lon="8.6920133"><ele>155.0</ele><time>2026-05-02T07:54:44.707Z</time></trkpt><trkpt lat="45.55583" lon="8.6919967"><ele>155.0</ele><time>2026-05-02T07:54:46.704Z</time></trkpt><trkpt lat="45.555925" lon="8.6919717"><ele>155.0</ele><time>2026-05-02T07:54:48.706Z</time></trkpt><trkpt lat="45.5560283" lon="8.691985"><ele>155.0</ele><time>2026-05-02T07:54:50.706Z</time></trkpt><trkpt lat="45.5561283" lon="8.69201"><ele>155.0</ele><time>2026-05-02T07:54:52.706Z</time></trkpt><trkpt lat="45.5561983" lon="8.6920433"><ele>155.0</ele><time>2026-05-02T07:54:54.704Z</time></trkpt><trkpt lat="45.556275" lon="8.6920867"><ele>155.28571428571428</ele><time>2026-05-02T07:54:57.706Z</time></trkpt><trkpt lat="45.55634" lon="8.6920517"><ele>155.57142857142856</ele><time>2026-05-02T07:55:01.707Z</time></trkpt><trkpt lat="45.5563917" lon="8.69198"><ele>155.85714285714283</ele><time>2026-05-02T07:55:05.705Z</time></trkpt><trkpt lat="45.55643" lon="8.6919017"><ele>156.14285714285714</ele><time>2026-05-02T07:55:10.706Z</time></trkpt><trkpt lat="45.5564633" lon="8.691815"><ele>156.42857142857142</ele><time>2026-05-02T07:55:13.705Z</time></trkpt><trkpt lat="45.5565083" lon="8.6917383"><ele>156.7142857142857</ele><time>2026-05-02T07:55:15.704Z</time></trkpt><trkpt lat="45.5565433" lon="8.6916633"><ele>157.0</ele><time>2026-05-02T07:55:17.704Z</time></trkpt><trkpt lat="45.5565867" lon="8.6915817"><ele>157.0</ele><time>2026-05-02T07:55:19.705Z</time></trkpt><trkpt lat="45.5566467" lon="8.6914933"><ele>157.0</ele><time>2026-05-02T07:55:22.706Z</time></trkpt><trkpt lat="45.556705" lon="8.6913983"><ele>157.0</ele><time>2026-05-02T07:55:25.708Z</time></trkpt><trkpt lat="45.5567517" lon="8.691335"><ele>157.0</ele><time>2026-05-02T07:55:27.705Z</time></trkpt><trkpt lat="45.5568167" lon="8.691245"><ele>157.0</ele><time>2026-05-02T07:55:30.704Z</time></trkpt><trkpt lat="45.5568617" lon="8.6911817"><ele>157.0</ele><time>2026-05-02T07:55:32.704Z</time></trkpt><trkpt lat="45.5569133" lon="8.6910967"><ele>156.83333333333334</ele><time>2026-05-02T07:55:35.706Z</time></trkpt><trkpt lat="45.5569533" lon="8.6910117"><ele>156.66666666666669</ele><time>2026-05-02T07:55:38.706Z</time></trkpt><trkpt lat="45.557" lon="8.6909333"><ele>156.5</ele><time>2026-05-02T07:55:41.704Z</time></trkpt><trkpt lat="45.5570617" lon="8.6908333"><ele>156.33333333333334</ele><time>2026-05-02T07:55:44.707Z</time></trkpt><trkpt lat="45.5571217" lon="8.6907467"><ele>156.16666666666666</ele><time>2026-05-02T07:55:47.703Z</time></trkpt><trkpt lat="45.55717" lon="8.6906717"><ele>156.0</ele><time>2026-05-02T07:55:50.698Z</time></trkpt><trkpt lat="45.5572167" lon="8.6905817"><ele>155.33333333333334</ele><time>2026-05-02T07:55:53.706Z</time></trkpt><trkpt lat="45.55727" lon="8.6904883"><ele>154.66666666666666</ele><time>2026-05-02T07:55:56.708Z</time></trkpt><trkpt lat="45.5573217" lon="8.69038"><ele>154.0</ele><time>2026-05-02T07:55:59.704Z</time></trkpt><trkpt lat="45.5573567" lon="8.6903033"><ele>153.33333333333331</ele><time>2026-05-02T07:56:01.703Z</time></trkpt><trkpt lat="45.5574017" lon="8.6902"><ele>152.66666666666666</ele><time>2026-05-02T07:56:04.706Z</time></trkpt><trkpt lat="45.5574383" lon="8.690125"><ele>152.0</ele><time>2026-05-02T07:56:06.707Z</time></trkpt><trkpt lat="45.55749" lon="8.6900467"><ele>152.0</ele><time>2026-05-02T07:56:08.705Z</time></trkpt><trkpt lat="45.5575383" lon="8.6899767"><ele>152.0</ele><time>2026-05-02T07:56:10.704Z</time></trkpt><trkpt lat="45.557585" lon="8.6898983"><ele>152.0</ele><time>2026-05-02T07:56:12.704Z</time></trkpt><trkpt lat="45.5576333" lon="8.68982"><ele>152.0</ele><time>2026-05-02T07:56:14.707Z</time></trkpt><trkpt lat="45.5576767" lon="8.68975"><ele>152.0</ele><time>2026-05-02T07:56:16.706Z</time></trkpt><trkpt lat="45.5577433" lon="8.68967"><ele>152.0</ele><time>2026-05-02T07:56:19.708Z</time></trkpt><trkpt lat="45.5578233" lon="8.689585"><ele>151.66666666666666</ele><time>2026-05-02T07:56:22.706Z</time></trkpt><trkpt lat="45.5578767" lon="8.68953"><ele>151.33333333333331</ele><time>2026-05-02T07:56:24.705Z</time></trkpt><trkpt lat="45.5579483" lon="8.68946"><ele>151.0</ele><time>2026-05-02T07:56:27.706Z</time></trkpt><trkpt lat="45.5580283" lon="8.6893817"><ele>150.66666666666666</ele><time>2026-05-02T07:56:30.701Z</time></trkpt><trkpt lat="45.5581117" lon="8.6893133"><ele>150.33333333333334</ele><time>2026-05-02T07:56:33.704Z</time></trkpt><trkpt lat="45.5581633" lon="8.6892583"><ele>150.0</ele><time>2026-05-02T07:56:35.705Z</time></trkpt><trkpt lat="45.5582317" lon="8.68919"><ele>150.28571428571428</ele><time>2026-05-02T07:56:38.706Z</time></trkpt><trkpt lat="45.5582867" lon="8.6891367"><ele>150.57142857142856</ele><time>2026-05-02T07:56:41.706Z</time></trkpt><trkpt lat="45.55834" lon="8.6890883"><ele>150.85714285714283</ele><time>2026-05-02T07:56:44.71Z</time></trkpt><trkpt lat="45.558415" lon="8.6890467"><ele>151.14285714285714</ele><time>2026-05-02T07:56:47.7Z</time></trkpt><trkpt lat="45.5584783" lon="8.68902"><ele>151.42857142857144</ele><time>2026-05-02T07:56:49.703Z</time></trkpt><trkpt lat="45.5585483" lon="8.68899"><ele>151.7142857142857</ele><time>2026-05-02T07:56:51.705Z</time></trkpt><trkpt lat="45.5586333" lon="8.6889417"><ele>152.0</ele><time>2026-05-02T07:56:54.706Z</time></trkpt><trkpt lat="45.5587217" lon="8.6889083"><ele>152.0</ele><time>2026-05-02T07:56:57.703Z</time></trkpt><trkpt lat="45.5587933" lon="8.6888817"><ele>152.0</ele><time>2026-05-02T07:56:59.703Z</time></trkpt><trkpt lat="45.55887" lon="8.6888383"><ele>152.0</ele><time>2026-05-02T07:57:02.707Z</time></trkpt><trkpt lat="45.55894" lon="8.6887717"><ele>152.0</ele><time>2026-05-02T07:57:05.704Z</time></trkpt><trkpt lat="45.559025" lon="8.6887067"><ele>152.0</ele><time>2026-05-02T07:57:08.703Z</time></trkpt><trkpt lat="45.559085" lon="8.6886633"><ele>152.0</ele><time>2026-05-02T07:57:10.703Z</time></trkpt><trkpt lat="45.5591433" lon="8.6886167"><ele>152.57142857142856</ele><time>2026-05-02T07:57:12.706Z</time></trkpt><trkpt lat="45.5592017" lon="8.68857"><ele>153.14285714285717</ele><time>2026-05-02T07:57:14.709Z</time></trkpt><trkpt lat="45.5592767" lon="8.6885117"><ele>153.71428571428572</ele><time>2026-05-02T07:57:17.706Z</time></trkpt><trkpt lat="45.55934" lon="8.6884583"><ele>154.28571428571428</ele><time>2026-05-02T07:57:19.704Z</time></trkpt><trkpt lat="45.559395" lon="8.68839"><ele>154.85714285714283</ele><time>2026-05-02T07:57:21.707Z</time></trkpt><trkpt lat="45.55944" lon="8.6883217"><ele>155.42857142857144</ele><time>2026-05-02T07:57:23.705Z</time></trkpt><trkpt lat="45.5594833" lon="8.688245"><ele>156.0</ele><time>2026-05-02T07:57:25.702Z</time></trkpt><trkpt lat="45.559535" lon="8.68814"><ele>156.0</ele><time>2026-05-02T07:57:28.705Z</time></trkpt><trkpt lat="45.559575" lon="8.6880517"><ele>156.0</ele><time>2026-05-02T07:57:31.705Z</time></trkpt><trkpt lat="45.5596183" lon="8.687975"><ele>156.0</ele><time>2026-05-02T07:57:34.704Z</time></trkpt><trkpt lat="45.5596667" lon="8.6878817"><ele>156.0</ele><time>2026-05-02T07:57:37.705Z</time></trkpt><trkpt lat="45.55971" lon="8.6877933"><ele>156.0</ele><time>2026-05-02T07:57:39.705Z</time></trkpt><trkpt lat="45.5597533" lon="8.6877167"><ele>156.0</ele><time>2026-05-02T07:57:41.705Z</time></trkpt><trkpt lat="45.559805" lon="8.6876067"><ele>156.33333333333334</ele><time>2026-05-02T07:57:44.704Z</time></trkpt><trkpt lat="45.5598583" lon="8.68751"><ele>156.66666666666666</ele><time>2026-05-02T07:57:47.704Z</time></trkpt><trkpt lat="45.5599167" lon="8.6874133"><ele>157.0</ele><time>2026-05-02T07:57:50.705Z</time></trkpt><trkpt lat="45.5599783" lon="8.6873133"><ele>157.33333333333331</ele><time>2026-05-02T07:57:53.706Z</time></trkpt><trkpt lat="45.5600267" lon="8.687225"><ele>157.66666666666666</ele><time>2026-05-02T07:57:56.706Z</time></trkpt><trkpt lat="45.5600617" lon="8.6871267"><ele>158.0</ele><time>2026-05-02T07:57:59.705Z</time></trkpt><trkpt lat="45.560095" lon="8.6870367"><ele>158.00000000000003</ele><time>2026-05-02T07:58:02.709Z</time></trkpt><trkpt lat="45.5601133" lon="8.68694"><ele>158.0</ele><time>2026-05-02T07:58:07.704Z</time></trkpt><trkpt lat="45.560105" lon="8.686825"><ele>158.0</ele><time>2026-05-02T07:58:12.705Z</time></trkpt><trkpt lat="45.560105" lon="8.6867117"><ele>158.0</ele><time>2026-05-02T07:58:16.705Z</time></trkpt><trkpt lat="45.5600867" lon="8.6866017"><ele>158.0</ele><time>2026-05-02T07:58:20.707Z</time></trkpt><trkpt lat="45.56007" lon="8.686515"><ele>158.00000000000003</ele><time>2026-05-02T07:58:24.703Z</time></trkpt><trkpt lat="45.56007" lon="8.6864167"><ele>158.0</ele><time>2026-05-02T07:58:28.705Z</time></trkpt><trkpt lat="45.5600717" lon="8.686315"><ele>158.66666666666666</ele><time>2026-05-02T07:58:32.708Z</time></trkpt><trkpt lat="45.5600833" lon="8.686225"><ele>159.33333333333331</ele><time>2026-05-02T07:58:35.7Z</time></trkpt><trkpt lat="45.5601033" lon="8.6861167"><ele>160.0</ele><time>2026-05-02T07:58:39.713Z</time></trkpt><trkpt lat="45.5601317" lon="8.6860083"><ele>160.66666666666666</ele><time>2026-05-02T07:58:43.706Z</time></trkpt><trkpt lat="45.5601567" lon="8.6858933"><ele>161.33333333333334</ele><time>2026-05-02T07:58:47.706Z</time></trkpt><trkpt lat="45.5602033" lon="8.6858167"><ele>162.0</ele><time>2026-05-02T07:58:50.708Z</time></trkpt><trkpt lat="45.5602433" lon="8.68573"><ele>163.0</ele><time>2026-05-02T07:58:53.707Z</time></trkpt><trkpt lat="45.56028" lon="8.6856383"><ele>164.0</ele><time>2026-05-02T07:58:56.711Z</time></trkpt><trkpt lat="45.5603283" lon="8.6855467"><ele>165.0</ele><time>2026-05-02T07:58:59.706Z</time></trkpt><trkpt lat="45.5603867" lon="8.6854733"><ele>166.0</ele><time>2026-05-02T07:59:03.699Z</time></trkpt><trkpt lat="45.5604383" lon="8.6854117"><ele>167.0</ele><time>2026-05-02T07:59:08.707Z</time></trkpt><trkpt lat="45.560505" lon="8.6853483"><ele>168.0</ele><time>2026-05-02T07:59:13.7Z</time></trkpt><trkpt lat="45.5605767" lon="8.685285"><ele>169.14285714285714</ele><time>2026-05-02T07:59:17.701Z</time></trkpt><trkpt lat="45.5606367" lon="8.68523"><ele>170.28571428571428</ele><time>2026-05-02T07:59:20.708Z</time></trkpt><trkpt lat="45.5607" lon="8.68518"><ele>171.42857142857144</ele><time>2026-05-02T07:59:23.705Z</time></trkpt><trkpt lat="45.5607683" lon="8.6851267"><ele>172.57142857142856</ele><time>2026-05-02T07:59:27.705Z</time></trkpt><trkpt lat="45.5608383" lon="8.68508"><ele>173.71428571428572</ele><time>2026-05-02T07:59:31.703Z</time></trkpt><trkpt lat="45.560905" lon="8.6850467"><ele>174.85714285714286</ele><time>2026-05-02T07:59:35.704Z</time></trkpt><trkpt lat="45.5609767" lon="8.68501"><ele>176.0</ele><time>2026-05-02T07:59:39.707Z</time></trkpt><trkpt lat="45.5610433" lon="8.6849717"><ele>176.0</ele><time>2026-05-02T07:59:43.707Z</time></trkpt><trkpt lat="45.5611133" lon="8.684935"><ele>176.0</ele><time>2026-05-02T07:59:47.706Z</time></trkpt><trkpt lat="45.5611767" lon="8.6849033"><ele>176.0</ele><time>2026-05-02T07:59:50.712Z</time></trkpt><trkpt lat="45.5612483" lon="8.6848683"><ele>176.0</ele><time>2026-05-02T07:59:54.706Z</time></trkpt><trkpt lat="45.56131" lon="8.6848267"><ele>176.0</ele><time>2026-05-02T07:59:58.706Z</time></trkpt><trkpt lat="45.5613817" lon="8.68479"><ele>176.0</ele><time>2026-05-02T08:00:02.701Z</time></trkpt><trkpt lat="45.5614433" lon="8.6847617"><ele>176.0</ele><time>2026-05-02T08:00:05.697Z</time></trkpt><trkpt lat="45.5615133" lon="8.6847383"><ele>175.57142857142858</ele><time>2026-05-02T08:00:08.703Z</time></trkpt><trkpt lat="45.5615917" lon="8.684715"><ele>175.14285714285714</ele><time>2026-05-02T08:00:12.698Z</time></trkpt><trkpt lat="45.5616583" lon="8.6847017"><ele>174.71428571428572</ele><time>2026-05-02T08:00:15.698Z</time></trkpt><trkpt lat="45.561725" lon="8.6846717"><ele>174.28571428571428</ele><time>2026-05-02T08:00:19.698Z</time></trkpt><trkpt lat="45.5617867" lon="8.6846433"><ele>173.85714285714286</ele><time>2026-05-02T08:00:22.699Z</time></trkpt><trkpt lat="45.56185" lon="8.68462"><ele>173.42857142857142</ele><time>2026-05-02T08:00:25.7Z</time></trkpt><trkpt lat="45.561935" lon="8.6846117"><ele>173.0</ele><time>2026-05-02T08:00:29.7Z</time></trkpt><trkpt lat="45.5620033" lon="8.68462"><ele>173.14285714285714</ele><time>2026-05-02T08:00:32.707Z</time></trkpt><trkpt lat="45.5620667" lon="8.6846033"><ele>173.2857142857143</ele><time>2026-05-02T08:00:35.708Z</time></trkpt><trkpt lat="45.5621367" lon="8.6845917"><ele>173.42857142857144</ele><time>2026-05-02T08:00:38.705Z</time></trkpt><trkpt lat="45.5622033" lon="8.6845883"><ele>173.57142857142856</ele><time>2026-05-02T08:00:41.705Z</time></trkpt><trkpt lat="45.5622817" lon="8.6845517"><ele>173.71428571428572</ele><time>2026-05-02T08:00:45.698Z</time></trkpt><trkpt lat="45.5623583" lon="8.6845117"><ele>173.85714285714286</ele><time>2026-05-02T08:00:49.706Z</time></trkpt><trkpt lat="45.562425" lon="8.6844717"><ele>174.0</ele><time>2026-05-02T08:00:52.705Z</time></trkpt><trkpt lat="45.562505" lon="8.68442"><ele>174.0</ele><time>2026-05-02T08:00:55.706Z</time></trkpt><trkpt lat="45.5625667" lon="8.6843717"><ele>174.0</ele><time>2026-05-02T08:00:58.711Z</time></trkpt><trkpt lat="45.5626317" lon="8.6843183"><ele>174.0</ele><time>2026-05-02T08:01:01.707Z</time></trkpt><trkpt lat="45.562695" lon="8.6842717"><ele>174.0</ele><time>2026-05-02T08:01:04.707Z</time></trkpt><trkpt lat="45.562755" lon="8.6842267"><ele>174.0</ele><time>2026-05-02T08:01:07.707Z</time></trkpt><trkpt lat="45.5628133" lon="8.68418"><ele>174.0</ele><time>2026-05-02T08:01:10.705Z</time></trkpt><trkpt lat="45.5628717" lon="8.6841283"><ele>174.0</ele><time>2026-05-02T08:01:13.706Z</time></trkpt><trkpt lat="45.56294" lon="8.6840633"><ele>173.16666666666666</ele><time>2026-05-02T08:01:16.706Z</time></trkpt><trkpt lat="45.5630067" lon="8.6840033"><ele>172.33333333333334</ele><time>2026-05-02T08:01:19.706Z</time></trkpt><trkpt lat="45.5630717" lon="8.68395"><ele>171.5</ele><time>2026-05-02T08:01:22.705Z</time></trkpt><trkpt lat="45.5631367" lon="8.683895"><ele>170.66666666666669</ele><time>2026-05-02T08:01:25.706Z</time></trkpt><trkpt lat="45.5632017" lon="8.6838367"><ele>169.83333333333334</ele><time>2026-05-02T08:01:28.703Z</time></trkpt><trkpt lat="45.56327" lon="8.6837767"><ele>169.0</ele><time>2026-05-02T08:01:31.707Z</time></trkpt><trkpt lat="45.56333" lon="8.6837167"><ele>169.0</ele><time>2026-05-02T08:01:34.705Z</time></trkpt><trkpt lat="45.563395" lon="8.6836667"><ele>169.0</ele><time>2026-05-02T08:01:37.707Z</time></trkpt><trkpt lat="45.5634567" lon="8.6836167"><ele>169.0</ele><time>2026-05-02T08:01:40.703Z</time></trkpt><trkpt lat="45.5635183" lon="8.6835683"><ele>169.0</ele><time>2026-05-02T08:01:43.704Z</time></trkpt><trkpt lat="45.5635833" lon="8.68351"><ele>169.0</ele><time>2026-05-02T08:01:46.703Z</time></trkpt><trkpt lat="45.5636467" lon="8.6834483"><ele>169.0</ele><time>2026-05-02T08:01:49.705Z</time></trkpt><trkpt lat="45.5637083" lon="8.683395"><ele>169.0</ele><time>2026-05-02T08:01:52.705Z</time></trkpt><trkpt lat="45.5637683" lon="8.683345"><ele>169.33333333333334</ele><time>2026-05-02T08:01:55.704Z</time></trkpt><trkpt lat="45.5638383" lon="8.6832783"><ele>169.66666666666669</ele><time>2026-05-02T08:01:59.707Z</time></trkpt><trkpt lat="45.5638983" lon="8.6832217"><ele>170.0</ele><time>2026-05-02T08:02:02.708Z</time></trkpt><trkpt lat="45.5639583" lon="8.68316"><ele>170.33333333333334</ele><time>2026-05-02T08:02:05.704Z</time></trkpt><trkpt lat="45.5640217" lon="8.683105"><ele>170.66666666666666</ele><time>2026-05-02T08:02:08.707Z</time></trkpt><trkpt lat="45.564085" lon="8.6830467"><ele>171.0</ele><time>2026-05-02T08:02:11.704Z</time></trkpt><trkpt lat="45.564145" lon="8.6829917"><ele>170.99999999999997</ele><time>2026-05-02T08:02:14.706Z</time></trkpt><trkpt lat="45.56421" lon="8.6829417"><ele>171.0</ele><time>2026-05-02T08:02:17.704Z</time></trkpt><trkpt lat="45.5642733" lon="8.6828933"><ele>171.0</ele><time>2026-05-02T08:02:20.707Z</time></trkpt><trkpt lat="45.564335" lon="8.6828483"><ele>171.0</ele><time>2026-05-02T08:02:23.704Z</time></trkpt><trkpt lat="45.5643983" lon="8.6828067"><ele>171.0</ele><time>2026-05-02T08:02:26.701Z</time></trkpt><trkpt lat="45.5644617" lon="8.682765"><ele>170.99999999999997</ele><time>2026-05-02T08:02:29.706Z</time></trkpt><trkpt lat="45.564525" lon="8.6827317"><ele>171.0</ele><time>2026-05-02T08:02:32.706Z</time></trkpt><trkpt lat="45.5645833" lon="8.6826917"><ele>172.16666666666666</ele><time>2026-05-02T08:02:35.706Z</time></trkpt><trkpt lat="45.5646633" lon="8.6826467"><ele>173.33333333333334</ele><time>2026-05-02T08:02:39.706Z</time></trkpt><trkpt lat="45.5647217" lon="8.682605"><ele>174.5</ele><time>2026-05-02T08:02:42.705Z</time></trkpt><trkpt lat="45.5647883" lon="8.682555"><ele>175.66666666666669</ele><time>2026-05-02T08:02:46.704Z</time></trkpt><trkpt lat="45.5648417" lon="8.682495"><ele>176.83333333333334</ele><time>2026-05-02T08:02:50.708Z</time></trkpt><trkpt lat="45.5649" lon="8.6824283"><ele>178.0</ele><time>2026-05-02T08:02:54.704Z</time></trkpt><trkpt lat="45.5649583" lon="8.6823483"><ele>177.99999999999997</ele><time>2026-05-02T08:02:58.705Z</time></trkpt><trkpt lat="45.56501" lon="8.68228"><ele>178.0</ele><time>2026-05-02T08:03:01.706Z</time></trkpt><trkpt lat="45.5650567" lon="8.68221"><ele>178.0</ele><time>2026-05-02T08:03:04.704Z</time></trkpt><trkpt lat="45.5650917" lon="8.6821317"><ele>178.0</ele><time>2026-05-02T08:03:07.706Z</time></trkpt><trkpt lat="45.56513" lon="8.6820567"><ele>178.0</ele><time>2026-05-02T08:03:10.704Z</time></trkpt><trkpt lat="45.5651633" lon="8.6819783"><ele>177.99999999999997</ele><time>2026-05-02T08:03:13.704Z</time></trkpt><trkpt lat="45.5651983" lon="8.6818783"><ele>178.0</ele><time>2026-05-02T08:03:17.706Z</time></trkpt><trkpt lat="45.5652083" lon="8.6817783"><ele>178.14285714285714</ele><time>2026-05-02T08:03:21.707Z</time></trkpt><trkpt lat="45.5652367" lon="8.6816717"><ele>178.28571428571428</ele><time>2026-05-02T08:03:25.705Z</time></trkpt><trkpt lat="45.5652583" lon="8.68157"><ele>178.42857142857144</ele><time>2026-05-02T08:03:29.707Z</time></trkpt><trkpt lat="45.56528" lon="8.6814683"><ele>178.57142857142856</ele><time>2026-05-02T08:03:33.707Z</time></trkpt><trkpt lat="45.56531" lon="8.6813617"><ele>178.71428571428572</ele><time>2026-05-02T08:03:37.704Z</time></trkpt><trkpt lat="45.5653383" lon="8.6812717"><ele>178.85714285714286</ele><time>2026-05-02T08:03:41.705Z</time></trkpt><trkpt lat="45.5653667" lon="8.681185"><ele>179.0</ele><time>2026-05-02T08:03:45.709Z</time></trkpt><trkpt lat="45.5653867" lon="8.68109"><ele>179.57142857142858</ele><time>2026-05-02T08:03:49.709Z</time></trkpt><trkpt lat="45.5654133" lon="8.6810033"><ele>180.14285714285714</ele><time>2026-05-02T08:03:52.707Z</time></trkpt><trkpt lat="45.5654433" lon="8.6809083"><ele>180.71428571428572</ele><time>2026-05-02T08:03:56.708Z</time></trkpt><trkpt lat="45.5654683" lon="8.68081"><ele>181.28571428571428</ele><time>2026-05-02T08:04:00.708Z</time></trkpt><trkpt lat="45.5654933" lon="8.6807233"><ele>181.85714285714286</ele><time>2026-05-02T08:04:03.707Z</time></trkpt><trkpt lat="45.5655283" lon="8.6806283"><ele>182.42857142857144</ele><time>2026-05-02T08:04:06.707Z</time></trkpt><trkpt lat="45.5655617" lon="8.6805367"><ele>183.0</ele><time>2026-05-02T08:04:09.706Z</time></trkpt><trkpt lat="45.565595" lon="8.6804467"><ele>183.0</ele><time>2026-05-02T08:04:12.706Z</time></trkpt><trkpt lat="45.565625" lon="8.6803617"><ele>183.0</ele><time>2026-05-02T08:04:15.706Z</time></trkpt><trkpt lat="45.5656583" lon="8.6802833"><ele>183.0</ele><time>2026-05-02T08:04:18.709Z</time></trkpt><trkpt lat="45.565695" lon="8.6801883"><ele>183.0</ele><time>2026-05-02T08:04:21.707Z</time></trkpt><trkpt lat="45.5657283" lon="8.6801017"><ele>183.0</ele><time>2026-05-02T08:04:24.709Z</time></trkpt><trkpt lat="45.5657633" lon="8.68"><ele>183.0</ele><time>2026-05-02T08:04:28.705Z</time></trkpt><trkpt lat="45.565795" lon="8.6799117"><ele>183.0</ele><time>2026-05-02T08:04:32.709Z</time></trkpt><trkpt lat="45.565815" lon="8.6798133"><ele>183.14285714285714</ele><time>2026-05-02T08:04:35.707Z</time></trkpt><trkpt lat="45.56584" lon="8.679715"><ele>183.28571428571428</ele><time>2026-05-02T08:04:38.707Z</time></trkpt><trkpt lat="45.5658633" lon="8.6796183"><ele>183.42857142857144</ele><time>2026-05-02T08:04:41.709Z</time></trkpt><trkpt lat="45.5658883" lon="8.6795267"><ele>183.57142857142856</ele><time>2026-05-02T08:04:44.708Z</time></trkpt><trkpt lat="45.56591" lon="8.679415"><ele>183.7142857142857</ele><time>2026-05-02T08:04:48.709Z</time></trkpt><trkpt lat="45.56593" lon="8.6793017"><ele>183.85714285714286</ele><time>2026-05-02T08:04:52.705Z</time></trkpt><trkpt lat="45.5659433" lon="8.6792067"><ele>184.0</ele><time>2026-05-02T08:04:55.707Z</time></trkpt><trkpt lat="45.5659633" lon="8.6790883"><ele>184.0</ele><time>2026-05-02T08:04:58.707Z</time></trkpt><trkpt lat="45.5659817" lon="8.6789867"><ele>184.0</ele><time>2026-05-02T08:05:01.71Z</time></trkpt><trkpt lat="45.5660017" lon="8.6788783"><ele>184.0</ele><time>2026-05-02T08:05:04.707Z</time></trkpt><trkpt lat="45.5660217" lon="8.6787517"><ele>184.0</ele><time>2026-05-02T08:05:07.705Z</time></trkpt><trkpt lat="45.56604" lon="8.6786367"><ele>184.0</ele><time>2026-05-02T08:05:10.706Z</time></trkpt><trkpt lat="45.566055" lon="8.6785283"><ele>184.0</ele><time>2026-05-02T08:05:13.706Z</time></trkpt><trkpt lat="45.566065" lon="8.6784233"><ele>183.83333333333334</ele><time>2026-05-02T08:05:16.704Z</time></trkpt><trkpt lat="45.5660733" lon="8.678315"><ele>183.66666666666669</ele><time>2026-05-02T08:05:19.708Z</time></trkpt><trkpt lat="45.5660883" lon="8.6782"><ele>183.5</ele><time>2026-05-02T08:05:22.707Z</time></trkpt><trkpt lat="45.5661067" lon="8.6780883"><ele>183.33333333333334</ele><time>2026-05-02T08:05:25.707Z</time></trkpt><trkpt lat="45.566125" lon="8.677975"><ele>183.16666666666666</ele><time>2026-05-02T08:05:28.701Z</time></trkpt><trkpt lat="45.5661417" lon="8.6778683"><ele>183.0</ele><time>2026-05-02T08:05:31.707Z</time></trkpt><trkpt lat="45.566155" lon="8.6777633"><ele>183.0</ele><time>2026-05-02T08:05:34.706Z</time></trkpt><trkpt lat="45.56617" lon="8.6776617"><ele>183.0</ele><time>2026-05-02T08:05:37.707Z</time></trkpt><trkpt lat="45.566185" lon="8.6775567"><ele>183.0</ele><time>2026-05-02T08:05:40.706Z</time></trkpt><trkpt lat="45.5662017" lon="8.67746"><ele>183.0</ele><time>2026-05-02T08:05:43.705Z</time></trkpt><trkpt lat="45.566215" lon="8.677355"><ele>183.0</ele><time>2026-05-02T08:05:46.703Z</time></trkpt><trkpt lat="45.5662167" lon="8.6772533"><ele>183.0</ele><time>2026-05-02T08:05:49.708Z</time></trkpt><trkpt lat="45.5662217" lon="8.6771367"><ele>183.0</ele><time>2026-05-02T08:05:52.705Z</time></trkpt><trkpt lat="45.566285" lon="8.6770633"><ele>182.66666666666666</ele><time>2026-05-02T08:05:55.707Z</time></trkpt><trkpt lat="45.566375" lon="8.6770717"><ele>182.33333333333334</ele><time>2026-05-02T08:05:58.706Z</time></trkpt><trkpt lat="45.5664433" lon="8.6770833"><ele>182.0</ele><time>2026-05-02T08:06:00.704Z</time></trkpt><trkpt lat="45.566505" lon="8.67711"><ele>181.66666666666669</ele><time>2026-05-02T08:06:02.706Z</time></trkpt><trkpt lat="45.5665933" lon="8.677125"><ele>181.33333333333334</ele><time>2026-05-02T08:06:05.707Z</time></trkpt><trkpt lat="45.5666767" lon="8.6771433"><ele>181.0</ele><time>2026-05-02T08:06:08.706Z</time></trkpt><trkpt lat="45.5667633" lon="8.67715"><ele>181.0</ele><time>2026-05-02T08:06:11.704Z</time></trkpt><trkpt lat="45.56685" lon="8.6771583"><ele>181.0</ele><time>2026-05-02T08:06:14.705Z</time></trkpt><trkpt lat="45.5669367" lon="8.6771717"><ele>181.0</ele><time>2026-05-02T08:06:17.708Z</time></trkpt><trkpt lat="45.5670267" lon="8.677175"><ele>181.0</ele><time>2026-05-02T08:06:20.709Z</time></trkpt><trkpt lat="45.56712" lon="8.677185"><ele>181.0</ele><time>2026-05-02T08:06:23.7Z</time></trkpt><trkpt lat="45.5672117" lon="8.6772"><ele>180.71428571428572</ele><time>2026-05-02T08:06:26.708Z</time></trkpt><trkpt lat="45.5672783" lon="8.67721"><ele>180.42857142857142</ele><time>2026-05-02T08:06:28.706Z</time></trkpt><trkpt lat="45.567345" lon="8.6772167"><ele>180.14285714285717</ele><time>2026-05-02T08:06:30.708Z</time></trkpt><trkpt lat="45.5674083" lon="8.6772217"><ele>179.85714285714286</ele><time>2026-05-02T08:06:32.707Z</time></trkpt><trkpt lat="45.5674717" lon="8.6772233"><ele>179.57142857142858</ele><time>2026-05-02T08:06:34.705Z</time></trkpt><trkpt lat="45.5675367" lon="8.6772283"><ele>179.2857142857143</ele><time>2026-05-02T08:06:36.704Z</time></trkpt><trkpt lat="45.5676" lon="8.67723"><ele>179.0</ele><time>2026-05-02T08:06:38.709Z</time></trkpt><trkpt lat="45.5676633" lon="8.6772367"><ele>179.00000000000003</ele><time>2026-05-02T08:06:40.706Z</time></trkpt><trkpt lat="45.5677267" lon="8.6772433"><ele>179.0</ele><time>2026-05-02T08:06:42.706Z</time></trkpt><trkpt lat="45.5677917" lon="8.6772467"><ele>179.0</ele><time>2026-05-02T08:06:44.707Z</time></trkpt><trkpt lat="45.5678567" lon="8.677245"><ele>179.0</ele><time>2026-05-02T08:06:46.708Z</time></trkpt><trkpt lat="45.5679217" lon="8.67725"><ele>179.0</ele><time>2026-05-02T08:06:48.701Z</time></trkpt><trkpt lat="45.5679867" lon="8.677255"><ele>179.00000000000003</ele><time>2026-05-02T08:06:50.702Z</time></trkpt><trkpt lat="45.5680583" lon="8.6772633"><ele>179.0</ele><time>2026-05-02T08:06:52.702Z</time></trkpt><trkpt lat="45.56814" lon="8.6772683"><ele>179.14285714285717</ele><time>2026-05-02T08:06:54.707Z</time></trkpt><trkpt lat="45.56822" lon="8.6772767"><ele>179.28571428571428</ele><time>2026-05-02T08:06:56.711Z</time></trkpt><trkpt lat="45.56829" lon="8.677285"><ele>179.42857142857144</ele><time>2026-05-02T08:06:58.706Z</time></trkpt><trkpt lat="45.5683533" lon="8.677285"><ele>179.57142857142858</ele><time>2026-05-02T08:07:00.708Z</time></trkpt><trkpt lat="45.5684267" lon="8.6772933"><ele>179.71428571428572</ele><time>2026-05-02T08:07:02.708Z</time></trkpt><trkpt lat="45.5685033" lon="8.6773033"><ele>179.85714285714286</ele><time>2026-05-02T08:07:04.706Z</time></trkpt><trkpt lat="45.56858" lon="8.6773083"><ele>180.0</ele><time>2026-05-02T08:07:06.707Z</time></trkpt><trkpt lat="45.5686533" lon="8.6773117"><ele>180.14285714285714</ele><time>2026-05-02T08:07:08.707Z</time></trkpt><trkpt lat="45.56873" lon="8.6773183"><ele>180.2857142857143</ele><time>2026-05-02T08:07:10.708Z</time></trkpt><trkpt lat="45.5688083" lon="8.677325"><ele>180.42857142857144</ele><time>2026-05-02T08:07:12.707Z</time></trkpt><trkpt lat="45.5688817" lon="8.67733"><ele>180.57142857142856</ele><time>2026-05-02T08:07:14.709Z</time></trkpt><trkpt lat="45.5689533" lon="8.6773333"><ele>180.71428571428572</ele><time>2026-05-02T08:07:16.706Z</time></trkpt><trkpt lat="45.569025" lon="8.6773383"><ele>180.85714285714286</ele><time>2026-05-02T08:07:18.706Z</time></trkpt><trkpt lat="45.569095" lon="8.6773383"><ele>181.0</ele><time>2026-05-02T08:07:20.707Z</time></trkpt><trkpt lat="45.5691667" lon="8.6773483"><ele>181.0</ele><time>2026-05-02T08:07:22.705Z</time></trkpt><trkpt lat="45.5692367" lon="8.6773633"><ele>181.0</ele><time>2026-05-02T08:07:24.707Z</time></trkpt><trkpt lat="45.56931" lon="8.677375"><ele>181.0</ele><time>2026-05-02T08:07:26.709Z</time></trkpt><trkpt lat="45.569385" lon="8.6773817"><ele>181.0</ele><time>2026-05-02T08:07:28.707Z</time></trkpt><trkpt lat="45.56946" lon="8.6773833"><ele>181.0</ele><time>2026-05-02T08:07:30.707Z</time></trkpt><trkpt lat="45.5695317" lon="8.6773833"><ele>181.0</ele><time>2026-05-02T08:07:32.707Z</time></trkpt><trkpt lat="45.5696" lon="8.6773733"><ele>181.0</ele><time>2026-05-02T08:07:34.705Z</time></trkpt><trkpt lat="45.5696683" lon="8.6773667"><ele>181.42857142857142</ele><time>2026-05-02T08:07:36.704Z</time></trkpt><trkpt lat="45.5697317" lon="8.6773667"><ele>181.85714285714283</ele><time>2026-05-02T08:07:38.71Z</time></trkpt><trkpt lat="45.5697967" lon="8.67738"><ele>182.28571428571428</ele><time>2026-05-02T08:07:40.707Z</time></trkpt><trkpt lat="45.569875" lon="8.6773983"><ele>182.71428571428572</ele><time>2026-05-02T08:07:42.706Z</time></trkpt><trkpt lat="45.56995" lon="8.6774117"><ele>183.14285714285714</ele><time>2026-05-02T08:07:44.708Z</time></trkpt><trkpt lat="45.5700217" lon="8.677425"><ele>183.57142857142858</ele><time>2026-05-02T08:07:46.706Z</time></trkpt><trkpt lat="45.5700933" lon="8.67744"><ele>184.0</ele><time>2026-05-02T08:07:48.704Z</time></trkpt><trkpt lat="45.57017" lon="8.6774483"><ele>184.0</ele><time>2026-05-02T08:07:50.707Z</time></trkpt><trkpt lat="45.570245" lon="8.6774533"><ele>184.0</ele><time>2026-05-02T08:07:52.706Z</time></trkpt><trkpt lat="45.57032" lon="8.6774567"><ele>184.0</ele><time>2026-05-02T08:07:54.707Z</time></trkpt><trkpt lat="45.570395" lon="8.6774633"><ele>184.0</ele><time>2026-05-02T08:07:56.709Z</time></trkpt><trkpt lat="45.5704733" lon="8.6774633"><ele>184.0</ele><time>2026-05-02T08:07:58.707Z</time></trkpt><trkpt lat="45.5705483" lon="8.677465"><ele>184.0</ele><time>2026-05-02T08:08:00.704Z</time></trkpt><trkpt lat="45.5706233" lon="8.677465"><ele>183.85714285714286</ele><time>2026-05-02T08:08:02.708Z</time></trkpt><trkpt lat="45.5706983" lon="8.6774633"><ele>183.7142857142857</ele><time>2026-05-02T08:08:04.707Z</time></trkpt><trkpt lat="45.5707717" lon="8.6774617"><ele>183.57142857142856</ele><time>2026-05-02T08:08:06.707Z</time></trkpt><trkpt lat="45.5708433" lon="8.67746"><ele>183.42857142857144</ele><time>2026-05-02T08:08:08.708Z</time></trkpt><trkpt lat="45.5709183" lon="8.6774583"><ele>183.28571428571428</ele><time>2026-05-02T08:08:10.705Z</time></trkpt><trkpt lat="45.57099" lon="8.67746"><ele>183.14285714285714</ele><time>2026-05-02T08:08:12.706Z</time></trkpt><trkpt lat="45.5710567" lon="8.67746"><ele>183.0</ele><time>2026-05-02T08:08:14.708Z</time></trkpt><trkpt lat="45.5711233" lon="8.67746"><ele>183.0</ele><time>2026-05-02T08:08:16.708Z</time></trkpt><trkpt lat="45.5711917" lon="8.6774583"><ele>183.0</ele><time>2026-05-02T08:08:18.708Z</time></trkpt><trkpt lat="45.5712617" lon="8.67746"><ele>183.0</ele><time>2026-05-02T08:08:20.706Z</time></trkpt><trkpt lat="45.5713283" lon="8.6774617"><ele>183.0</ele><time>2026-05-02T08:08:22.706Z</time></trkpt><trkpt lat="45.571395" lon="8.677465"><ele>183.0</ele><time>2026-05-02T08:08:24.706Z</time></trkpt><trkpt lat="45.57146" lon="8.6774667"><ele>183.0</ele><time>2026-05-02T08:08:26.709Z</time></trkpt><trkpt lat="45.571525" lon="8.6774667"><ele>183.0</ele><time>2026-05-02T08:08:28.706Z</time></trkpt><trkpt lat="45.571595" lon="8.677465"><ele>183.0</ele><time>2026-05-02T08:08:30.703Z</time></trkpt><trkpt lat="45.571665" lon="8.67746"><ele>183.0</ele><time>2026-05-02T08:08:32.706Z</time></trkpt><trkpt lat="45.571735" lon="8.6774567"><ele>183.0</ele><time>2026-05-02T08:08:34.706Z</time></trkpt><trkpt lat="45.5718067" lon="8.677455"><ele>183.0</ele><time>2026-05-02T08:08:36.706Z</time></trkpt><trkpt lat="45.57188" lon="8.677455"><ele>183.0</ele><time>2026-05-02T08:08:38.707Z</time></trkpt><trkpt lat="45.5719533" lon="8.67746"><ele>183.0</ele><time>2026-05-02T08:08:40.706Z</time></trkpt><trkpt lat="45.57202" lon="8.6774633"><ele>183.0</ele><time>2026-05-02T08:08:42.706Z</time></trkpt><trkpt lat="45.5720883" lon="8.677465"><ele>182.83333333333334</ele><time>2026-05-02T08:08:44.709Z</time></trkpt><trkpt lat="45.57218" lon="8.6774717"><ele>182.66666666666666</ele><time>2026-05-02T08:08:47.704Z</time></trkpt><trkpt lat="45.57225" lon="8.6774667"><ele>182.5</ele><time>2026-05-02T08:08:49.706Z</time></trkpt><trkpt lat="45.5723217" lon="8.6774633"><ele>182.33333333333331</ele><time>2026-05-02T08:08:51.706Z</time></trkpt><trkpt lat="45.5723967" lon="8.6774617"><ele>182.16666666666666</ele><time>2026-05-02T08:08:53.705Z</time></trkpt><trkpt lat="45.57247" lon="8.67746"><ele>182.0</ele><time>2026-05-02T08:08:55.708Z</time></trkpt><trkpt lat="45.5725383" lon="8.67746"><ele>182.0</ele><time>2026-05-02T08:08:57.706Z</time></trkpt><trkpt lat="45.57261" lon="8.6774567"><ele>182.0</ele><time>2026-05-02T08:08:59.705Z</time></trkpt><trkpt lat="45.5726767" lon="8.67745"><ele>182.0</ele><time>2026-05-02T08:09:01.705Z</time></trkpt><trkpt lat="45.57277" lon="8.6774467"><ele>182.0</ele><time>2026-05-02T08:09:04.706Z</time></trkpt><trkpt lat="45.5728433" lon="8.6774467"><ele>182.0</ele><time>2026-05-02T08:09:06.706Z</time></trkpt><trkpt lat="45.5729183" lon="8.67745"><ele>182.0</ele><time>2026-05-02T08:09:08.705Z</time></trkpt><trkpt lat="45.572985" lon="8.6774517"><ele>182.0</ele><time>2026-05-02T08:09:10.706Z</time></trkpt><trkpt lat="45.5730517" lon="8.6774533"><ele>182.28571428571428</ele><time>2026-05-02T08:09:12.705Z</time></trkpt><trkpt lat="45.5731217" lon="8.677445"><ele>182.57142857142856</ele><time>2026-05-02T08:09:14.707Z</time></trkpt><trkpt lat="45.5731883" lon="8.6774467"><ele>182.85714285714286</ele><time>2026-05-02T08:09:16.706Z</time></trkpt><trkpt lat="45.573255" lon="8.6774483"><ele>183.14285714285714</ele><time>2026-05-02T08:09:18.704Z</time></trkpt><trkpt lat="45.5733217" lon="8.6774433"><ele>183.42857142857142</ele><time>2026-05-02T08:09:20.709Z</time></trkpt><trkpt lat="45.57339" lon="8.67742"><ele>183.71428571428572</ele><time>2026-05-02T08:09:22.703Z</time></trkpt><trkpt lat="45.5734433" lon="8.6773617"><ele>184.0</ele><time>2026-05-02T08:09:24.705Z</time></trkpt><trkpt lat="45.573485" lon="8.6772583"><ele>184.0</ele><time>2026-05-02T08:09:26.707Z</time></trkpt><trkpt lat="45.5735267" lon="8.67711"><ele>184.0</ele><time>2026-05-02T08:09:28.706Z</time></trkpt><trkpt lat="45.5735533" lon="8.6769367"><ele>184.0</ele><time>2026-05-02T08:09:30.705Z</time></trkpt><trkpt lat="45.5735617" lon="8.6768433"><ele>184.0</ele><time>2026-05-02T08:09:31.705Z</time></trkpt><trkpt lat="45.573565" lon="8.6767517"><ele>184.0</ele><time>2026-05-02T08:09:32.707Z</time></trkpt><trkpt lat="45.57357" lon="8.676655"><ele>184.0</ele><time>2026-05-02T08:09:33.706Z</time></trkpt><trkpt lat="45.5735717" lon="8.67655"><ele>184.0</ele><time>2026-05-02T08:09:34.705Z</time></trkpt><trkpt lat="45.573575" lon="8.6764483"><ele>184.0</ele><time>2026-05-02T08:09:35.705Z</time></trkpt><trkpt lat="45.5735783" lon="8.6763533"><ele>184.0</ele><time>2026-05-02T08:09:36.704Z</time></trkpt><trkpt lat="45.57358" lon="8.6761983"><ele>184.0</ele><time>2026-05-02T08:09:38.706Z</time></trkpt><trkpt lat="45.5735867" lon="8.6760833"><ele>184.0</ele><time>2026-05-02T08:09:40.708Z</time></trkpt><trkpt lat="45.5735917" lon="8.6759783"><ele>184.0</ele><time>2026-05-02T08:09:42.707Z</time></trkpt><trkpt lat="45.5735983" lon="8.6758833"><ele>184.0</ele><time>2026-05-02T08:09:44.707Z</time></trkpt><trkpt lat="45.573605" lon="8.6757883"><ele>184.0</ele><time>2026-05-02T08:09:46.704Z</time></trkpt><trkpt lat="45.57361" lon="8.6756883"><ele>184.0</ele><time>2026-05-02T08:09:48.699Z</time></trkpt><trkpt lat="45.5736033" lon="8.675585"><ele>184.0</ele><time>2026-05-02T08:09:50.708Z</time></trkpt><trkpt lat="45.5736133" lon="8.6754783"><ele>184.0</ele><time>2026-05-02T08:09:52.708Z</time></trkpt><trkpt lat="45.5736467" lon="8.6753767"><ele>184.0</ele><time>2026-05-02T08:09:54.705Z</time></trkpt><trkpt lat="45.573695" lon="8.6752883"><ele>184.0</ele><time>2026-05-02T08:09:56.709Z</time></trkpt><trkpt lat="45.5737467" lon="8.6752067"><ele>184.42857142857144</ele><time>2026-05-02T08:09:58.708Z</time></trkpt><trkpt lat="45.573805" lon="8.675125"><ele>184.85714285714283</ele><time>2026-05-02T08:10:00.708Z</time></trkpt><trkpt lat="45.5738583" lon="8.6750433"><ele>185.28571428571428</ele><time>2026-05-02T08:10:02.708Z</time></trkpt><trkpt lat="45.573905" lon="8.6749667"><ele>185.71428571428572</ele><time>2026-05-02T08:10:04.709Z</time></trkpt><trkpt lat="45.5739517" lon="8.6748933"><ele>186.14285714285717</ele><time>2026-05-02T08:10:06.706Z</time></trkpt><trkpt lat="45.5740017" lon="8.674815"><ele>186.57142857142856</ele><time>2026-05-02T08:10:08.708Z</time></trkpt><trkpt lat="45.57405" lon="8.6747333"><ele>187.0</ele><time>2026-05-02T08:10:10.703Z</time></trkpt><trkpt lat="45.5741067" lon="8.6746267"><ele>187.0</ele><time>2026-05-02T08:10:13.707Z</time></trkpt><trkpt lat="45.5741567" lon="8.674525"><ele>187.0</ele><time>2026-05-02T08:10:16.708Z</time></trkpt><trkpt lat="45.5741967" lon="8.6744367"><ele>187.0</ele><time>2026-05-02T08:10:19.706Z</time></trkpt><trkpt lat="45.5742367" lon="8.6743533"><ele>187.0</ele><time>2026-05-02T08:10:22.702Z</time></trkpt><trkpt lat="45.5742733" lon="8.6742517"><ele>187.0</ele><time>2026-05-02T08:10:26.709Z</time></trkpt><trkpt lat="45.5743017" lon="8.6741417"><ele>187.0</ele><time>2026-05-02T08:10:30.711Z</time></trkpt><trkpt lat="45.574325" lon="8.674045"><ele>187.14285714285714</ele><time>2026-05-02T08:10:34.71Z</time></trkpt><trkpt lat="45.5743467" lon="8.6739533"><ele>187.2857142857143</ele><time>2026-05-02T08:10:37.706Z</time></trkpt><trkpt lat="45.5743833" lon="8.6738667"><ele>187.42857142857144</ele><time>2026-05-02T08:10:39.706Z</time></trkpt><trkpt lat="45.5744233" lon="8.6737883"><ele>187.57142857142856</ele><time>2026-05-02T08:10:42.707Z</time></trkpt><trkpt lat="45.57446" lon="8.6736883"><ele>187.71428571428572</ele><time>2026-05-02T08:10:46.708Z</time></trkpt><trkpt lat="45.5745033" lon="8.6736017"><ele>187.85714285714286</ele><time>2026-05-02T08:10:50.708Z</time></trkpt><trkpt lat="45.57453" lon="8.67351"><ele>188.0</ele><time>2026-05-02T08:10:53.708Z</time></trkpt><trkpt lat="45.5745617" lon="8.673415"><ele>188.0</ele><time>2026-05-02T08:10:56.709Z</time></trkpt><trkpt lat="45.5745933" lon="8.6733267"><ele>188.0</ele><time>2026-05-02T08:10:58.703Z</time></trkpt><trkpt lat="45.5746217" lon="8.67321"><ele>188.0</ele><time>2026-05-02T08:11:01.707Z</time></trkpt><trkpt lat="45.574645" lon="8.6731233"><ele>188.0</ele><time>2026-05-02T08:11:03.704Z</time></trkpt><trkpt lat="45.57466" lon="8.673025"><ele>188.0</ele><time>2026-05-02T08:11:05.706Z</time></trkpt><trkpt lat="45.574675" lon="8.67292"><ele>188.0</ele><time>2026-05-02T08:11:07.701Z</time></trkpt><trkpt lat="45.5746917" lon="8.6728233"><ele>188.0</ele><time>2026-05-02T08:11:09.706Z</time></trkpt><trkpt lat="45.57472" lon="8.6727217"><ele>188.0</ele><time>2026-05-02T08:11:11.709Z</time></trkpt><trkpt lat="45.5747533" lon="8.67263"><ele>188.0</ele><time>2026-05-02T08:11:13.709Z</time></trkpt><trkpt lat="45.5747583" lon="8.672535"><ele>188.0</ele><time>2026-05-02T08:11:15.71Z</time></trkpt><trkpt lat="45.5747683" lon="8.6724317"><ele>188.0</ele><time>2026-05-02T08:11:17.707Z</time></trkpt><trkpt lat="45.5747733" lon="8.6723267"><ele>188.0</ele><time>2026-05-02T08:11:19.708Z</time></trkpt><trkpt lat="45.5747833" lon="8.6722233"><ele>188.0</ele><time>2026-05-02T08:11:21.707Z</time></trkpt><trkpt lat="45.57479" lon="8.6721183"><ele>188.0</ele><time>2026-05-02T08:11:23.71Z</time></trkpt><trkpt lat="45.5747783" lon="8.67201"><ele>188.16666666666666</ele><time>2026-05-02T08:11:26.709Z</time></trkpt><trkpt lat="45.5747683" lon="8.6719083"><ele>188.33333333333331</ele><time>2026-05-02T08:11:28.705Z</time></trkpt><trkpt lat="45.5747717" lon="8.67181"><ele>188.5</ele><time>2026-05-02T08:11:30.708Z</time></trkpt><trkpt lat="45.5747667" lon="8.6716733"><ele>188.66666666666666</ele><time>2026-05-02T08:11:33.707Z</time></trkpt><trkpt lat="45.5747517" lon="8.6715833"><ele>188.83333333333334</ele><time>2026-05-02T08:11:35.706Z</time></trkpt><trkpt lat="45.574745" lon="8.67145"><ele>189.0</ele><time>2026-05-02T08:11:38.706Z</time></trkpt><trkpt lat="45.5747383" lon="8.67136"><ele>189.0</ele><time>2026-05-02T08:11:40.707Z</time></trkpt><trkpt lat="45.5747367" lon="8.67125"><ele>189.0</ele><time>2026-05-02T08:11:42.708Z</time></trkpt><trkpt lat="45.5747717" lon="8.6711367"><ele>189.0</ele><time>2026-05-02T08:11:45.709Z</time></trkpt><trkpt lat="45.5748317" lon="8.67106"><ele>189.0</ele><time>2026-05-02T08:11:47.706Z</time></trkpt><trkpt lat="45.5749033" lon="8.67096"><ele>189.0</ele><time>2026-05-02T08:11:50.707Z</time></trkpt><trkpt lat="45.5749617" lon="8.6709083"><ele>189.0</ele><time>2026-05-02T08:11:52.704Z</time></trkpt><trkpt lat="45.5750183" lon="8.6708683"><ele>189.33333333333334</ele><time>2026-05-02T08:11:54.707Z</time></trkpt><trkpt lat="45.5750967" lon="8.6708067"><ele>189.66666666666666</ele><time>2026-05-02T08:11:58.707Z</time></trkpt><trkpt lat="45.5751633" lon="8.6707717"><ele>190.0</ele><time>2026-05-02T08:12:01.705Z</time></trkpt><trkpt lat="45.57524" lon="8.6707417"><ele>190.33333333333331</ele><time>2026-05-02T08:12:04.706Z</time></trkpt><trkpt lat="45.5753117" lon="8.6707017"><ele>190.66666666666666</ele><time>2026-05-02T08:12:07.709Z</time></trkpt><trkpt lat="45.5753767" lon="8.6706567"><ele>191.0</ele><time>2026-05-02T08:12:10.707Z</time></trkpt><trkpt lat="45.575435" lon="8.6705967"><ele>191.0</ele><time>2026-05-02T08:12:13.707Z</time></trkpt><trkpt lat="45.5755" lon="8.6705183"><ele>191.0</ele><time>2026-05-02T08:12:16.709Z</time></trkpt><trkpt lat="45.5755417" lon="8.6704383"><ele>191.0</ele><time>2026-05-02T08:12:19.705Z</time></trkpt><trkpt lat="45.57559" lon="8.6703667"><ele>191.0</ele><time>2026-05-02T08:12:22.706Z</time></trkpt><trkpt lat="45.5756533" lon="8.6702917"><ele>191.0</ele><time>2026-05-02T08:12:26.707Z</time></trkpt><trkpt lat="45.5757067" lon="8.6702333"><ele>191.0</ele><time>2026-05-02T08:12:29.705Z</time></trkpt><trkpt lat="45.5757617" lon="8.6701767"><ele>191.0</ele><time>2026-05-02T08:12:33.707Z</time></trkpt><trkpt lat="45.575815" lon="8.6701233"><ele>191.66666666666666</ele><time>2026-05-02T08:12:36.707Z</time></trkpt><trkpt lat="45.575885" lon="8.6700633"><ele>192.33333333333331</ele><time>2026-05-02T08:12:39.707Z</time></trkpt><trkpt lat="45.575955" lon="8.6699867"><ele>193.0</ele><time>2026-05-02T08:12:42.705Z</time></trkpt><trkpt lat="45.5760167" lon="8.6699067"><ele>193.66666666666666</ele><time>2026-05-02T08:12:45.706Z</time></trkpt><trkpt lat="45.5760617" lon="8.6698367"><ele>194.33333333333334</ele><time>2026-05-02T08:12:48.706Z</time></trkpt><trkpt lat="45.5761183" lon="8.6697483"><ele>195.0</ele><time>2026-05-02T08:12:53.704Z</time></trkpt><trkpt lat="45.576165" lon="8.6696667"><ele>195.0</ele><time>2026-05-02T08:12:57.707Z</time></trkpt><trkpt lat="45.576275" lon="8.6696"><ele>195.0</ele><time>2026-05-02T08:13:17.706Z</time></trkpt><trkpt lat="45.5762167" lon="8.669635"><ele>195.0</ele><time>2026-05-02T08:13:28.706Z</time></trkpt><trkpt lat="45.5761417" lon="8.66968"><ele>195.0</ele><time>2026-05-02T08:13:31.708Z</time></trkpt><trkpt lat="45.576075" lon="8.66973"><ele>195.0</ele><time>2026-05-02T08:13:35.71Z</time></trkpt><trkpt lat="45.5760133" lon="8.6697667"><ele>195.0</ele><time>2026-05-02T08:13:38.707Z</time></trkpt><trkpt lat="45.5759417" lon="8.6697733"><ele>195.0</ele><time>2026-05-02T08:13:41.708Z</time></trkpt><trkpt lat="45.5758533" lon="8.66976"><ele>195.0</ele><time>2026-05-02T08:13:44.709Z</time></trkpt><trkpt lat="45.5757733" lon="8.66975"><ele>195.0</ele><time>2026-05-02T08:13:47.705Z</time></trkpt><trkpt lat="45.5757033" lon="8.669735"><ele>195.0</ele><time>2026-05-02T08:13:50.707Z</time></trkpt><trkpt lat="45.5756333" lon="8.6697"><ele>195.0</ele><time>2026-05-02T08:13:53.71Z</time></trkpt><trkpt lat="45.575555" lon="8.669655"><ele>195.0</ele><time>2026-05-02T08:13:57.705Z</time></trkpt><trkpt lat="45.5754717" lon="8.6696033"><ele>195.0</ele><time>2026-05-02T08:14:00.705Z</time></trkpt><trkpt lat="45.5754083" lon="8.6695883"><ele>195.0</ele><time>2026-05-02T08:14:01.704Z</time></trkpt><trkpt lat="45.5753567" lon="8.6695067"><ele>195.0</ele><time>2026-05-02T08:14:04.705Z</time></trkpt><trkpt lat="45.5753133" lon="8.6694167"><ele>195.0</ele><time>2026-05-02T08:14:06.706Z</time></trkpt><trkpt lat="45.575255" lon="8.6693283"><ele>195.0</ele><time>2026-05-02T08:14:09.711Z</time></trkpt><trkpt lat="45.57519" lon="8.6692733"><ele>195.0</ele><time>2026-05-02T08:14:12.709Z</time></trkpt><trkpt lat="45.57513" lon="8.669245"><ele>195.0</ele><time>2026-05-02T08:14:14.71Z</time></trkpt><trkpt lat="45.575065" lon="8.6692517"><ele>195.0</ele><time>2026-05-02T08:14:16.704Z</time></trkpt><trkpt lat="45.5750033" lon="8.6692767"><ele>195.0</ele><time>2026-05-02T08:14:18.707Z</time></trkpt><trkpt lat="45.5749367" lon="8.6692967"><ele>195.0</ele><time>2026-05-02T08:14:20.7Z</time></trkpt><trkpt lat="45.5748633" lon="8.6693583"><ele>195.0</ele><time>2026-05-02T08:14:23.708Z</time></trkpt><trkpt lat="45.5748067" lon="8.6694167"><ele>195.0</ele><time>2026-05-02T08:14:25.704Z</time></trkpt><trkpt lat="45.5747467" lon="8.669485"><ele>195.0</ele><time>2026-05-02T08:14:27.706Z</time></trkpt><trkpt lat="45.57466" lon="8.6695783"><ele>195.0</ele><time>2026-05-02T08:14:30.709Z</time></trkpt><trkpt lat="45.5746" lon="8.6696667"><ele>195.0</ele><time>2026-05-02T08:14:32.71Z</time></trkpt><trkpt lat="45.5745567" lon="8.6697483"><ele>195.0</ele><time>2026-05-02T08:14:34.705Z</time></trkpt><trkpt lat="45.5745083" lon="8.6698133"><ele>195.0</ele><time>2026-05-02T08:14:36.707Z</time></trkpt><trkpt lat="45.5744467" lon="8.669845"><ele>195.0</ele><time>2026-05-02T08:14:39.705Z</time></trkpt><trkpt lat="45.5743917" lon="8.6697917"><ele>195.0</ele><time>2026-05-02T08:14:44.71Z</time></trkpt><trkpt lat="45.5743133" lon="8.6697817"><ele>195.0</ele><time>2026-05-02T08:14:49.704Z</time></trkpt><trkpt lat="45.57424" lon="8.6697717"><ele>194.83333333333334</ele><time>2026-05-02T08:14:52.704Z</time></trkpt><trkpt lat="45.5741483" lon="8.6697533"><ele>194.66666666666669</ele><time>2026-05-02T08:14:55.705Z</time></trkpt><trkpt lat="45.5740783" lon="8.6697467"><ele>194.5</ele><time>2026-05-02T08:14:57.706Z</time></trkpt><trkpt lat="45.574015" lon="8.6697417"><ele>194.33333333333334</ele><time>2026-05-02T08:14:59.707Z</time></trkpt><trkpt lat="45.5739383" lon="8.669745"><ele>194.16666666666669</ele><time>2026-05-02T08:15:01.707Z</time></trkpt><trkpt lat="45.57385" lon="8.6697617"><ele>194.0</ele><time>2026-05-02T08:15:03.709Z</time></trkpt><trkpt lat="45.5737783" lon="8.669775"><ele>194.00000000000003</ele><time>2026-05-02T08:15:05.704Z</time></trkpt><trkpt lat="45.5736967" lon="8.6697917"><ele>194.0</ele><time>2026-05-02T08:15:07.7Z</time></trkpt><trkpt lat="45.573615" lon="8.6698133"><ele>194.0</ele><time>2026-05-02T08:15:09.707Z</time></trkpt><trkpt lat="45.5735283" lon="8.66983"><ele>194.0</ele><time>2026-05-02T08:15:12.706Z</time></trkpt><trkpt lat="45.57346" lon="8.6698433"><ele>194.00000000000003</ele><time>2026-05-02T08:15:14.703Z</time></trkpt><trkpt lat="45.5733667" lon="8.669865"><ele>194.0</ele><time>2026-05-02T08:15:16.704Z</time></trkpt><trkpt lat="45.5732717" lon="8.6698917"><ele>193.83333333333334</ele><time>2026-05-02T08:15:18.707Z</time></trkpt><trkpt lat="45.5731933" lon="8.6699267"><ele>193.66666666666669</ele><time>2026-05-02T08:15:20.703Z</time></trkpt><trkpt lat="45.5731067" lon="8.6699633"><ele>193.5</ele><time>2026-05-02T08:15:22.706Z</time></trkpt><trkpt lat="45.573015" lon="8.6699883"><ele>193.33333333333331</ele><time>2026-05-02T08:15:24.708Z</time></trkpt><trkpt lat="45.572925" lon="8.6700083"><ele>193.16666666666666</ele><time>2026-05-02T08:15:26.704Z</time></trkpt><trkpt lat="45.5728367" lon="8.6700083"><ele>193.0</ele><time>2026-05-02T08:15:28.706Z</time></trkpt><trkpt lat="45.5727583" lon="8.6699317"><ele>192.85714285714286</ele><time>2026-05-02T08:15:31.704Z</time></trkpt><trkpt lat="45.57272" lon="8.6698383"><ele>192.71428571428572</ele><time>2026-05-02T08:15:35.705Z</time></trkpt><trkpt lat="45.5726883" lon="8.6697467"><ele>192.57142857142856</ele><time>2026-05-02T08:15:38.707Z</time></trkpt><trkpt lat="45.5726583" lon="8.6696633"><ele>192.42857142857144</ele><time>2026-05-02T08:15:41.704Z</time></trkpt><trkpt lat="45.5726267" lon="8.6695783"><ele>192.28571428571428</ele><time>2026-05-02T08:15:44.702Z</time></trkpt><trkpt lat="45.5725967" lon="8.669485"><ele>192.14285714285714</ele><time>2026-05-02T08:15:47.706Z</time></trkpt><trkpt lat="45.5725617" lon="8.6693917"><ele>192.0</ele><time>2026-05-02T08:15:50.705Z</time></trkpt><trkpt lat="45.572515" lon="8.6693133"><ele>192.5</ele><time>2026-05-02T08:15:53.705Z</time></trkpt><trkpt lat="45.572475" lon="8.6692283"><ele>193.0</ele><time>2026-05-02T08:15:56.703Z</time></trkpt><trkpt lat="45.5724483" lon="8.66913"><ele>193.5</ele><time>2026-05-02T08:15:59.704Z</time></trkpt><trkpt lat="45.5724217" lon="8.66902"><ele>194.0</ele><time>2026-05-02T08:16:02.706Z</time></trkpt><trkpt lat="45.5724033" lon="8.6689133"><ele>194.5</ele><time>2026-05-02T08:16:05.704Z</time></trkpt><trkpt lat="45.5723767" lon="8.6688033"><ele>195.0</ele><time>2026-05-02T08:16:08.706Z</time></trkpt><trkpt lat="45.5723483" lon="8.6687"><ele>195.0</ele><time>2026-05-02T08:16:11.706Z</time></trkpt><trkpt lat="45.572325" lon="8.6686133"><ele>195.0</ele><time>2026-05-02T08:16:14.707Z</time></trkpt><trkpt lat="45.5722983" lon="8.6685217"><ele>195.0</ele><time>2026-05-02T08:16:17.705Z</time></trkpt><trkpt lat="45.5722733" lon="8.6684183"><ele>195.0</ele><time>2026-05-02T08:16:20.707Z</time></trkpt><trkpt lat="45.572245" lon="8.6683183"><ele>195.0</ele><time>2026-05-02T08:16:23.708Z</time></trkpt><trkpt lat="45.5722117" lon="8.6682"><ele>195.0</ele><time>2026-05-02T08:16:26.709Z</time></trkpt><trkpt lat="45.57218" lon="8.6680917"><ele>194.83333333333334</ele><time>2026-05-02T08:16:29.703Z</time></trkpt><trkpt lat="45.5721633" lon="8.6679817"><ele>194.66666666666669</ele><time>2026-05-02T08:16:32.702Z</time></trkpt><trkpt lat="45.57216" lon="8.667875"><ele>194.5</ele><time>2026-05-02T08:16:35.707Z</time></trkpt><trkpt lat="45.5721583" lon="8.667775"><ele>194.33333333333334</ele><time>2026-05-02T08:16:38.707Z</time></trkpt><trkpt lat="45.5721567" lon="8.66767"><ele>194.16666666666669</ele><time>2026-05-02T08:16:41.704Z</time></trkpt><trkpt lat="45.572155" lon="8.6675467"><ele>194.0</ele><time>2026-05-02T08:16:44.706Z</time></trkpt><trkpt lat="45.5721533" lon="8.6674217"><ele>194.00000000000003</ele><time>2026-05-02T08:16:47.703Z</time></trkpt><trkpt lat="45.5721467" lon="8.667305"><ele>194.0</ele><time>2026-05-02T08:16:50.711Z</time></trkpt><trkpt lat="45.5721383" lon="8.6671883"><ele>194.0</ele><time>2026-05-02T08:16:53.708Z</time></trkpt><trkpt lat="45.5721283" lon="8.66707"><ele>194.0</ele><time>2026-05-02T08:16:56.707Z</time></trkpt><trkpt lat="45.5721183" lon="8.6669533"><ele>194.00000000000003</ele><time>2026-05-02T08:16:59.705Z</time></trkpt><trkpt lat="45.57211" lon="8.66684"><ele>194.0</ele><time>2026-05-02T08:17:02.705Z</time></trkpt><trkpt lat="45.5720983" lon="8.666725"><ele>193.50000000000003</ele><time>2026-05-02T08:17:05.707Z</time></trkpt><trkpt lat="45.5720867" lon="8.6666017"><ele>193.0</ele><time>2026-05-02T08:17:08.709Z</time></trkpt><trkpt lat="45.572075" lon="8.6664783"><ele>192.5</ele><time>2026-05-02T08:17:11.705Z</time></trkpt><trkpt lat="45.5720633" lon="8.6663583"><ele>192.0</ele><time>2026-05-02T08:17:14.708Z</time></trkpt><trkpt lat="45.57205" lon="8.6662433"><ele>191.5</ele><time>2026-05-02T08:17:17.707Z</time></trkpt><trkpt lat="45.5720267" lon="8.6661267"><ele>191.0</ele><time>2026-05-02T08:17:20.707Z</time></trkpt><trkpt lat="45.572" lon="8.6660133"><ele>191.0</ele><time>2026-05-02T08:17:23.709Z</time></trkpt><trkpt lat="45.571975" lon="8.6658983"><ele>191.0</ele><time>2026-05-02T08:17:26.707Z</time></trkpt><trkpt lat="45.5719483" lon="8.6657817"><ele>191.0</ele><time>2026-05-02T08:17:29.707Z</time></trkpt><trkpt lat="45.57193" lon="8.6656917"><ele>191.0</ele><time>2026-05-02T08:17:31.705Z</time></trkpt><trkpt lat="45.57191" lon="8.6656033"><ele>191.0</ele><time>2026-05-02T08:17:33.705Z</time></trkpt><trkpt lat="45.5718917" lon="8.6655117"><ele>191.0</ele><time>2026-05-02T08:17:35.705Z</time></trkpt><trkpt lat="45.5718767" lon="8.6654183"><ele>191.0</ele><time>2026-05-02T08:17:37.705Z</time></trkpt><trkpt lat="45.5718617" lon="8.665325"><ele>191.2857142857143</ele><time>2026-05-02T08:17:39.706Z</time></trkpt><trkpt lat="45.5718467" lon="8.665225"><ele>191.57142857142856</ele><time>2026-05-02T08:17:41.703Z</time></trkpt><trkpt lat="45.5718333" lon="8.66512"><ele>191.85714285714286</ele><time>2026-05-02T08:17:43.706Z</time></trkpt><trkpt lat="45.5718183" lon="8.6650183"><ele>192.14285714285717</ele><time>2026-05-02T08:17:45.706Z</time></trkpt><trkpt lat="45.571805" lon="8.6649183"><ele>192.42857142857144</ele><time>2026-05-02T08:17:47.7Z</time></trkpt><trkpt lat="45.571795" lon="8.66482"><ele>192.71428571428572</ele><time>2026-05-02T08:17:49.7Z</time></trkpt><trkpt lat="45.5717783" lon="8.6647133"><ele>193.0</ele><time>2026-05-02T08:17:51.708Z</time></trkpt><trkpt lat="45.5717617" lon="8.6646167"><ele>193.00000000000003</ele><time>2026-05-02T08:17:53.707Z</time></trkpt><trkpt lat="45.5717467" lon="8.66452"><ele>193.0</ele><time>2026-05-02T08:17:55.707Z</time></trkpt><trkpt lat="45.57173" lon="8.6644283"><ele>193.0</ele><time>2026-05-02T08:17:57.706Z</time></trkpt><trkpt lat="45.57172" lon="8.6643317"><ele>193.0</ele><time>2026-05-02T08:17:59.704Z</time></trkpt><trkpt lat="45.5717067" lon="8.66423"><ele>193.0</ele><time>2026-05-02T08:18:01.707Z</time></trkpt><trkpt lat="45.5716967" lon="8.6641267"><ele>193.00000000000003</ele><time>2026-05-02T08:18:03.705Z</time></trkpt><trkpt lat="45.5716867" lon="8.6640217"><ele>193.0</ele><time>2026-05-02T08:18:05.705Z</time></trkpt><trkpt lat="45.5716733" lon="8.6639217"><ele>192.85714285714286</ele><time>2026-05-02T08:18:07.705Z</time></trkpt><trkpt lat="45.5716567" lon="8.6638217"><ele>192.71428571428572</ele><time>2026-05-02T08:18:09.706Z</time></trkpt><trkpt lat="45.571635" lon="8.6637233"><ele>192.57142857142856</ele><time>2026-05-02T08:18:11.706Z</time></trkpt><trkpt lat="45.571615" lon="8.6636267"><ele>192.42857142857144</ele><time>2026-05-02T08:18:13.705Z</time></trkpt><trkpt lat="45.5715933" lon="8.66353"><ele>192.28571428571428</ele><time>2026-05-02T08:18:15.705Z</time></trkpt><trkpt lat="45.5715733" lon="8.6634383"><ele>192.14285714285714</ele><time>2026-05-02T08:18:17.703Z</time></trkpt><trkpt lat="45.5715533" lon="8.6633467"><ele>192.0</ele><time>2026-05-02T08:18:19.705Z</time></trkpt><trkpt lat="45.57154" lon="8.6632433"><ele>191.99999999999997</ele><time>2026-05-02T08:18:21.704Z</time></trkpt><trkpt lat="45.5715217" lon="8.66314"><ele>192.0</ele><time>2026-05-02T08:18:23.703Z</time></trkpt><trkpt lat="45.5715083" lon="8.66304"><ele>192.0</ele><time>2026-05-02T08:18:25.707Z</time></trkpt><trkpt lat="45.5714917" lon="8.6629483"><ele>192.0</ele><time>2026-05-02T08:18:27.705Z</time></trkpt><trkpt lat="45.57148" lon="8.6628567"><ele>192.0</ele><time>2026-05-02T08:18:29.707Z</time></trkpt><trkpt lat="45.5714567" lon="8.662755"><ele>191.99999999999997</ele><time>2026-05-02T08:18:31.705Z</time></trkpt><trkpt lat="45.5714383" lon="8.66266"><ele>192.0</ele><time>2026-05-02T08:18:33.706Z</time></trkpt><trkpt lat="45.571425" lon="8.662565"><ele>191.83333333333334</ele><time>2026-05-02T08:18:35.705Z</time></trkpt><trkpt lat="45.5714033" lon="8.6624733"><ele>191.66666666666666</ele><time>2026-05-02T08:18:37.707Z</time></trkpt><trkpt lat="45.5713867" lon="8.6623717"><ele>191.5</ele><time>2026-05-02T08:18:39.705Z</time></trkpt><trkpt lat="45.5713733" lon="8.6622583"><ele>191.33333333333331</ele><time>2026-05-02T08:18:41.705Z</time></trkpt><trkpt lat="45.57136" lon="8.6621483"><ele>191.16666666666666</ele><time>2026-05-02T08:18:43.705Z</time></trkpt><trkpt lat="45.5713433" lon="8.6620417"><ele>191.0</ele><time>2026-05-02T08:18:45.706Z</time></trkpt><trkpt lat="45.5713233" lon="8.66193"><ele>190.83333333333331</ele><time>2026-05-02T08:18:47.702Z</time></trkpt><trkpt lat="45.5713" lon="8.6618217"><ele>190.66666666666666</ele><time>2026-05-02T08:18:49.706Z</time></trkpt><trkpt lat="45.57128" lon="8.6617117"><ele>190.5</ele><time>2026-05-02T08:18:51.706Z</time></trkpt><trkpt lat="45.57126" lon="8.661605"><ele>190.33333333333334</ele><time>2026-05-02T08:18:53.708Z</time></trkpt><trkpt lat="45.5712417" lon="8.6614867"><ele>190.16666666666669</ele><time>2026-05-02T08:18:55.705Z</time></trkpt><trkpt lat="45.57123" lon="8.6613617"><ele>190.0</ele><time>2026-05-02T08:18:57.703Z</time></trkpt><trkpt lat="45.57121" lon="8.6612433"><ele>190.16666666666669</ele><time>2026-05-02T08:18:59.706Z</time></trkpt><trkpt lat="45.5711883" lon="8.661125"><ele>190.33333333333334</ele><time>2026-05-02T08:19:01.707Z</time></trkpt><trkpt lat="45.5711733" lon="8.661005"><ele>190.5</ele><time>2026-05-02T08:19:03.707Z</time></trkpt><trkpt lat="45.5711683" lon="8.6608833"><ele>190.66666666666666</ele><time>2026-05-02T08:19:05.703Z</time></trkpt><trkpt lat="45.57116" lon="8.6607667"><ele>190.83333333333331</ele><time>2026-05-02T08:19:07.705Z</time></trkpt><trkpt lat="45.5711483" lon="8.660655"><ele>191.0</ele><time>2026-05-02T08:19:09.704Z</time></trkpt><trkpt lat="45.57114" lon="8.6605267"><ele>191.0</ele><time>2026-05-02T08:19:11.71Z</time></trkpt><trkpt lat="45.5711217" lon="8.6604133"><ele>191.0</ele><time>2026-05-02T08:19:13.704Z</time></trkpt><trkpt lat="45.5711117" lon="8.6602983"><ele>191.0</ele><time>2026-05-02T08:19:15.699Z</time></trkpt><trkpt lat="45.5710917" lon="8.6601883"><ele>191.0</ele><time>2026-05-02T08:19:17.704Z</time></trkpt><trkpt lat="45.5710867" lon="8.6600733"><ele>191.0</ele><time>2026-05-02T08:19:19.704Z</time></trkpt><trkpt lat="45.5710883" lon="8.6599633"><ele>191.0</ele><time>2026-05-02T08:19:21.708Z</time></trkpt><trkpt lat="45.5710867" lon="8.6598467"><ele>191.14285714285714</ele><time>2026-05-02T08:19:23.703Z</time></trkpt><trkpt lat="45.57108" lon="8.6597433"><ele>191.28571428571428</ele><time>2026-05-02T08:19:25.704Z</time></trkpt><trkpt lat="45.5710817" lon="8.65964"><ele>191.42857142857142</ele><time>2026-05-02T08:19:27.705Z</time></trkpt><trkpt lat="45.571085" lon="8.6595283"><ele>191.57142857142856</ele><time>2026-05-02T08:19:29.705Z</time></trkpt><trkpt lat="45.5710767" lon="8.6594167"><ele>191.71428571428572</ele><time>2026-05-02T08:19:31.705Z</time></trkpt><trkpt lat="45.571075" lon="8.6593117"><ele>191.85714285714283</ele><time>2026-05-02T08:19:33.703Z</time></trkpt><trkpt lat="45.5710733" lon="8.6592067"><ele>192.0</ele><time>2026-05-02T08:19:35.705Z</time></trkpt><trkpt lat="45.571075" lon="8.6591083"><ele>191.99999999999997</ele><time>2026-05-02T08:19:37.707Z</time></trkpt><trkpt lat="45.571075" lon="8.6590117"><ele>192.0</ele><time>2026-05-02T08:19:39.704Z</time></trkpt><trkpt lat="45.5710783" lon="8.6589117"><ele>192.0</ele><time>2026-05-02T08:19:41.705Z</time></trkpt><trkpt lat="45.57108" lon="8.6588133"><ele>192.0</ele><time>2026-05-02T08:19:43.707Z</time></trkpt><trkpt lat="45.5710833" lon="8.658715"><ele>192.0</ele><time>2026-05-02T08:19:45.706Z</time></trkpt><trkpt lat="45.57109" lon="8.6586183"><ele>191.99999999999997</ele><time>2026-05-02T08:19:47.707Z</time></trkpt><trkpt lat="45.57109" lon="8.6585267"><ele>192.0</ele><time>2026-05-02T08:19:49.703Z</time></trkpt><trkpt lat="45.5710917" lon="8.6584267"><ele>192.14285714285714</ele><time>2026-05-02T08:19:51.705Z</time></trkpt><trkpt lat="45.5710933" lon="8.6583283"><ele>192.28571428571428</ele><time>2026-05-02T08:19:53.705Z</time></trkpt><trkpt lat="45.571095" lon="8.6582283"><ele>192.42857142857144</ele><time>2026-05-02T08:19:55.705Z</time></trkpt><trkpt lat="45.5710967" lon="8.65813"><ele>192.57142857142856</ele><time>2026-05-02T08:19:57.707Z</time></trkpt><trkpt lat="45.5711033" lon="8.658035"><ele>192.71428571428572</ele><time>2026-05-02T08:19:59.711Z</time></trkpt><trkpt lat="45.5711067" lon="8.6579383"><ele>192.85714285714286</ele><time>2026-05-02T08:20:01.706Z</time></trkpt><trkpt lat="45.571105" lon="8.65784"><ele>193.0</ele><time>2026-05-02T08:20:03.707Z</time></trkpt><trkpt lat="45.5711033" lon="8.6577417"><ele>193.00000000000003</ele><time>2026-05-02T08:20:05.707Z</time></trkpt><trkpt lat="45.5710917" lon="8.65761"><ele>193.0</ele><time>2026-05-02T08:20:08.707Z</time></trkpt><trkpt lat="45.5710867" lon="8.6575183"><ele>193.0</ele><time>2026-05-02T08:20:10.707Z</time></trkpt><trkpt lat="45.5710833" lon="8.6574267"><ele>193.0</ele><time>2026-05-02T08:20:12.706Z</time></trkpt><trkpt lat="45.571085" lon="8.6573267"><ele>193.0</ele><time>2026-05-02T08:20:14.702Z</time></trkpt><trkpt lat="45.57108" lon="8.65723"><ele>193.00000000000003</ele><time>2026-05-02T08:20:16.706Z</time></trkpt><trkpt lat="45.57108" lon="8.6571267"><ele>193.0</ele><time>2026-05-02T08:20:18.706Z</time></trkpt><trkpt lat="45.5710817" lon="8.6570283"><ele>192.85714285714286</ele><time>2026-05-02T08:20:20.707Z</time></trkpt><trkpt lat="45.571075" lon="8.6569217"><ele>192.71428571428572</ele><time>2026-05-02T08:20:22.705Z</time></trkpt><trkpt lat="45.571065" lon="8.65682"><ele>192.57142857142856</ele><time>2026-05-02T08:20:24.706Z</time></trkpt><trkpt lat="45.5710667" lon="8.656715"><ele>192.42857142857144</ele><time>2026-05-02T08:20:26.7Z</time></trkpt><trkpt lat="45.5710667" lon="8.656605"><ele>192.28571428571428</ele><time>2026-05-02T08:20:28.704Z</time></trkpt><trkpt lat="45.571065" lon="8.656505"><ele>192.14285714285714</ele><time>2026-05-02T08:20:30.706Z</time></trkpt><trkpt lat="45.571065" lon="8.6564017"><ele>192.0</ele><time>2026-05-02T08:20:32.706Z</time></trkpt><trkpt lat="45.5710633" lon="8.6562983"><ele>191.99999999999997</ele><time>2026-05-02T08:20:34.705Z</time></trkpt><trkpt lat="45.571065" lon="8.656195"><ele>192.0</ele><time>2026-05-02T08:20:36.704Z</time></trkpt><trkpt lat="45.571065" lon="8.6560933"><ele>192.0</ele><time>2026-05-02T08:20:38.706Z</time></trkpt><trkpt lat="45.5710717" lon="8.65599"><ele>192.0</ele><time>2026-05-02T08:20:40.707Z</time></trkpt><trkpt lat="45.5710767" lon="8.65589"><ele>192.0</ele><time>2026-05-02T08:20:42.705Z</time></trkpt><trkpt lat="45.5710867" lon="8.6557867"><ele>191.99999999999997</ele><time>2026-05-02T08:20:44.707Z</time></trkpt><trkpt lat="45.5710983" lon="8.65569"><ele>192.0</ele><time>2026-05-02T08:20:46.698Z</time></trkpt><trkpt lat="45.57111" lon="8.655585"><ele>191.99999999999997</ele><time>2026-05-02T08:20:48.698Z</time></trkpt><trkpt lat="45.571115" lon="8.655485"><ele>192.0</ele><time>2026-05-02T08:20:50.7Z</time></trkpt><trkpt lat="45.5711267" lon="8.655385"><ele>192.0</ele><time>2026-05-02T08:20:52.703Z</time></trkpt><trkpt lat="45.5711333" lon="8.65528"><ele>192.0</ele><time>2026-05-02T08:20:54.707Z</time></trkpt><trkpt lat="45.5711433" lon="8.6551767"><ele>192.0</ele><time>2026-05-02T08:20:56.706Z</time></trkpt><trkpt lat="45.5711567" lon="8.6550667"><ele>191.99999999999997</ele><time>2026-05-02T08:20:58.705Z</time></trkpt><trkpt lat="45.5711767" lon="8.6549583"><ele>192.0</ele><time>2026-05-02T08:21:00.705Z</time></trkpt><trkpt lat="45.5712" lon="8.654855"><ele>191.83333333333334</ele><time>2026-05-02T08:21:02.708Z</time></trkpt><trkpt lat="45.5712317" lon="8.6547533"><ele>191.66666666666666</ele><time>2026-05-02T08:21:04.701Z</time></trkpt><trkpt lat="45.5712667" lon="8.654655"><ele>191.5</ele><time>2026-05-02T08:21:06.707Z</time></trkpt><trkpt lat="45.571305" lon="8.65456"><ele>191.33333333333331</ele><time>2026-05-02T08:21:08.708Z</time></trkpt><trkpt lat="45.5713483" lon="8.65447"><ele>191.16666666666666</ele><time>2026-05-02T08:21:10.709Z</time></trkpt><trkpt lat="45.5713917" lon="8.6543767"><ele>191.0</ele><time>2026-05-02T08:21:12.707Z</time></trkpt><trkpt lat="45.5714383" lon="8.654285"><ele>191.33333333333331</ele><time>2026-05-02T08:21:14.706Z</time></trkpt><trkpt lat="45.5714833" lon="8.6541933"><ele>191.66666666666666</ele><time>2026-05-02T08:21:16.704Z</time></trkpt><trkpt lat="45.5715517" lon="8.6541033"><ele>192.0</ele><time>2026-05-02T08:21:18.698Z</time></trkpt><trkpt lat="45.5716117" lon="8.6540233"><ele>192.33333333333331</ele><time>2026-05-02T08:21:20.701Z</time></trkpt><trkpt lat="45.57165" lon="8.6539317"><ele>192.66666666666666</ele><time>2026-05-02T08:21:22.698Z</time></trkpt><trkpt lat="45.5716767" lon="8.6538317"><ele>193.0</ele><time>2026-05-02T08:21:24.701Z</time></trkpt><trkpt lat="45.5717017" lon="8.6537367"><ele>192.99999999999997</ele><time>2026-05-02T08:21:26.703Z</time></trkpt><trkpt lat="45.5717117" lon="8.653645"><ele>193.0</ele><time>2026-05-02T08:21:28.698Z</time></trkpt><trkpt lat="45.5717317" lon="8.6535417"><ele>193.0</ele><time>2026-05-02T08:21:30.706Z</time></trkpt><trkpt lat="45.5717483" lon="8.653425"><ele>193.0</ele><time>2026-05-02T08:21:32.706Z</time></trkpt><trkpt lat="45.5717717" lon="8.65331"><ele>192.99999999999997</ele><time>2026-05-02T08:21:34.706Z</time></trkpt><trkpt lat="45.5717967" lon="8.6531933"><ele>193.0</ele><time>2026-05-02T08:21:36.705Z</time></trkpt><trkpt lat="45.5718217" lon="8.6530783"><ele>193.16666666666666</ele><time>2026-05-02T08:21:38.706Z</time></trkpt><trkpt lat="45.5718417" lon="8.6529717"><ele>193.33333333333331</ele><time>2026-05-02T08:21:40.704Z</time></trkpt><trkpt lat="45.57186" lon="8.6528667"><ele>193.5</ele><time>2026-05-02T08:21:42.707Z</time></trkpt><trkpt lat="45.571885" lon="8.65276"><ele>193.66666666666669</ele><time>2026-05-02T08:21:44.708Z</time></trkpt><trkpt lat="45.5719083" lon="8.65265"><ele>193.83333333333334</ele><time>2026-05-02T08:21:46.706Z</time></trkpt><trkpt lat="45.57193" lon="8.6525417"><ele>194.0</ele><time>2026-05-02T08:21:48.704Z</time></trkpt><trkpt lat="45.5719517" lon="8.652435"><ele>194.00000000000003</ele><time>2026-05-02T08:21:50.701Z</time></trkpt><trkpt lat="45.571975" lon="8.65233"><ele>194.0</ele><time>2026-05-02T08:21:52.706Z</time></trkpt><trkpt lat="45.5719933" lon="8.65222"><ele>194.0</ele><time>2026-05-02T08:21:54.705Z</time></trkpt><trkpt lat="45.572015" lon="8.6521117"><ele>194.0</ele><time>2026-05-02T08:21:56.707Z</time></trkpt><trkpt lat="45.572035" lon="8.65201"><ele>194.00000000000003</ele><time>2026-05-02T08:21:58.706Z</time></trkpt><trkpt lat="45.5720533" lon="8.6518933"><ele>194.0</ele><time>2026-05-02T08:22:00.705Z</time></trkpt><trkpt lat="45.5720783" lon="8.6517783"><ele>194.00000000000003</ele><time>2026-05-02T08:22:02.707Z</time></trkpt><trkpt lat="45.5721033" lon="8.65167"><ele>194.0</ele><time>2026-05-02T08:22:04.706Z</time></trkpt><trkpt lat="45.5721233" lon="8.6515633"><ele>194.0</ele><time>2026-05-02T08:22:06.703Z</time></trkpt><trkpt lat="45.572145" lon="8.6514533"><ele>194.0</ele><time>2026-05-02T08:22:08.707Z</time></trkpt><trkpt lat="45.5721733" lon="8.6513467"><ele>194.00000000000003</ele><time>2026-05-02T08:22:10.704Z</time></trkpt><trkpt lat="45.5722017" lon="8.6512467"><ele>194.0</ele><time>2026-05-02T08:22:12.707Z</time></trkpt><trkpt lat="45.5722167" lon="8.65114"><ele>193.83333333333334</ele><time>2026-05-02T08:22:14.707Z</time></trkpt><trkpt lat="45.57223" lon="8.6510283"><ele>193.66666666666669</ele><time>2026-05-02T08:22:16.705Z</time></trkpt><trkpt lat="45.572245" lon="8.6509267"><ele>193.5</ele><time>2026-05-02T08:22:18.707Z</time></trkpt><trkpt lat="45.5722617" lon="8.6508233"><ele>193.33333333333331</ele><time>2026-05-02T08:22:20.709Z</time></trkpt><trkpt lat="45.5722817" lon="8.6507183"><ele>193.16666666666666</ele><time>2026-05-02T08:22:22.7Z</time></trkpt><trkpt lat="45.5723" lon="8.6506133"><ele>193.0</ele><time>2026-05-02T08:22:24.708Z</time></trkpt><trkpt lat="45.572315" lon="8.65051"><ele>192.99999999999997</ele><time>2026-05-02T08:22:26.705Z</time></trkpt><trkpt lat="45.5723333" lon="8.65041"><ele>193.0</ele><time>2026-05-02T08:22:28.706Z</time></trkpt><trkpt lat="45.57235" lon="8.6503133"><ele>193.0</ele><time>2026-05-02T08:22:30.707Z</time></trkpt><trkpt lat="45.57238" lon="8.6502017"><ele>193.0</ele><time>2026-05-02T08:22:32.707Z</time></trkpt><trkpt lat="45.5724067" lon="8.6500883"><ele>192.99999999999997</ele><time>2026-05-02T08:22:34.703Z</time></trkpt><trkpt lat="45.5724283" lon="8.649975"><ele>193.0</ele><time>2026-05-02T08:22:36.705Z</time></trkpt><trkpt lat="45.5724467" lon="8.6498667"><ele>193.00000000000003</ele><time>2026-05-02T08:22:38.702Z</time></trkpt><trkpt lat="45.5724567" lon="8.6497617"><ele>193.0</ele><time>2026-05-02T08:22:40.705Z</time></trkpt><trkpt lat="45.5724683" lon="8.6496517"><ele>193.0</ele><time>2026-05-02T08:22:42.7Z</time></trkpt><trkpt lat="45.5724733" lon="8.6495467"><ele>193.0</ele><time>2026-05-02T08:22:44.707Z</time></trkpt><trkpt lat="45.5724767" lon="8.64945"><ele>193.0</ele><time>2026-05-02T08:22:46.705Z</time></trkpt><trkpt lat="45.57248" lon="8.649345"><ele>193.00000000000003</ele><time>2026-05-02T08:22:48.705Z</time></trkpt><trkpt lat="45.5724833" lon="8.649235"><ele>193.0</ele><time>2026-05-02T08:22:50.708Z</time></trkpt><trkpt lat="45.57249" lon="8.6491233"><ele>192.99999999999997</ele><time>2026-05-02T08:22:52.705Z</time></trkpt><trkpt lat="45.5724883" lon="8.6490067"><ele>193.0</ele><time>2026-05-02T08:22:54.706Z</time></trkpt><trkpt lat="45.5725017" lon="8.6488733"><ele>193.0</ele><time>2026-05-02T08:22:56.709Z</time></trkpt><trkpt lat="45.5725033" lon="8.6487667"><ele>193.0</ele><time>2026-05-02T08:22:58.703Z</time></trkpt><trkpt lat="45.5725083" lon="8.648655"><ele>192.99999999999997</ele><time>2026-05-02T08:23:00.704Z</time></trkpt><trkpt lat="45.57251" lon="8.64854"><ele>193.0</ele><time>2026-05-02T08:23:02.71Z</time></trkpt><trkpt lat="45.572515" lon="8.6484233"><ele>192.99999999999997</ele><time>2026-05-02T08:23:04.704Z</time></trkpt><trkpt lat="45.5725183" lon="8.6483067"><ele>193.0</ele><time>2026-05-02T08:23:06.704Z</time></trkpt><trkpt lat="45.5725167" lon="8.6481933"><ele>193.0</ele><time>2026-05-02T08:23:08.707Z</time></trkpt><trkpt lat="45.5725117" lon="8.6480867"><ele>193.0</ele><time>2026-05-02T08:23:10.706Z</time></trkpt><trkpt lat="45.57252" lon="8.64796"><ele>192.99999999999997</ele><time>2026-05-02T08:23:12.704Z</time></trkpt><trkpt lat="45.5725233" lon="8.6478433"><ele>193.0</ele><time>2026-05-02T08:23:14.709Z</time></trkpt><trkpt lat="45.5725233" lon="8.647735"><ele>193.16666666666666</ele><time>2026-05-02T08:23:16.698Z</time></trkpt><trkpt lat="45.5725133" lon="8.647625"><ele>193.33333333333331</ele><time>2026-05-02T08:23:18.716Z</time></trkpt><trkpt lat="45.5724983" lon="8.6475033"><ele>193.5</ele><time>2026-05-02T08:23:20.709Z</time></trkpt><trkpt lat="45.5724833" lon="8.6473917"><ele>193.66666666666669</ele><time>2026-05-02T08:23:22.706Z</time></trkpt><trkpt lat="45.5724717" lon="8.647285"><ele>193.83333333333334</ele><time>2026-05-02T08:23:24.707Z</time></trkpt><trkpt lat="45.5724567" lon="8.6471783"><ele>194.0</ele><time>2026-05-02T08:23:26.709Z</time></trkpt><trkpt lat="45.5724417" lon="8.64707"><ele>194.00000000000003</ele><time>2026-05-02T08:23:28.707Z</time></trkpt><trkpt lat="45.5724283" lon="8.646965"><ele>194.0</ele><time>2026-05-02T08:23:30.705Z</time></trkpt><trkpt lat="45.5724183" lon="8.646865"><ele>194.0</ele><time>2026-05-02T08:23:32.706Z</time></trkpt><trkpt lat="45.5724067" lon="8.6467667"><ele>194.0</ele><time>2026-05-02T08:23:34.704Z</time></trkpt><trkpt lat="45.57239" lon="8.6466583"><ele>194.00000000000003</ele><time>2026-05-02T08:23:36.701Z</time></trkpt><trkpt lat="45.572375" lon="8.6465567"><ele>194.0</ele><time>2026-05-02T08:23:38.707Z</time></trkpt><trkpt lat="45.5723567" lon="8.6464383"><ele>194.33333333333334</ele><time>2026-05-02T08:23:40.706Z</time></trkpt><trkpt lat="45.5723417" lon="8.64632"><ele>194.66666666666669</ele><time>2026-05-02T08:23:42.703Z</time></trkpt><trkpt lat="45.572325" lon="8.6462083"><ele>195.0</ele><time>2026-05-02T08:23:44.709Z</time></trkpt><trkpt lat="45.5723083" lon="8.6461033"><ele>195.33333333333331</ele><time>2026-05-02T08:23:46.706Z</time></trkpt><trkpt lat="45.57229" lon="8.645995"><ele>195.66666666666666</ele><time>2026-05-02T08:23:48.705Z</time></trkpt><trkpt lat="45.5722733" lon="8.6458867"><ele>196.0</ele><time>2026-05-02T08:23:50.709Z</time></trkpt><trkpt lat="45.5722583" lon="8.6457733"><ele>196.49999999999997</ele><time>2026-05-02T08:23:52.705Z</time></trkpt><trkpt lat="45.57224" lon="8.6456567"><ele>197.0</ele><time>2026-05-02T08:23:54.704Z</time></trkpt><trkpt lat="45.5722167" lon="8.64554"><ele>197.5</ele><time>2026-05-02T08:23:56.706Z</time></trkpt><trkpt lat="45.5722033" lon="8.64542"><ele>198.0</ele><time>2026-05-02T08:23:58.707Z</time></trkpt><trkpt lat="45.5721833" lon="8.6453033"><ele>198.49999999999997</ele><time>2026-05-02T08:24:00.704Z</time></trkpt><trkpt lat="45.5721633" lon="8.6451933"><ele>199.0</ele><time>2026-05-02T08:24:02.708Z</time></trkpt><trkpt lat="45.572145" lon="8.6450717"><ele>198.99999999999997</ele><time>2026-05-02T08:24:04.705Z</time></trkpt><trkpt lat="45.57213" lon="8.6449433"><ele>199.0</ele><time>2026-05-02T08:24:06.704Z</time></trkpt><trkpt lat="45.5721167" lon="8.6448267"><ele>199.0</ele><time>2026-05-02T08:24:08.709Z</time></trkpt><trkpt lat="45.5721" lon="8.644715"><ele>199.0</ele><time>2026-05-02T08:24:10.705Z</time></trkpt><trkpt lat="45.5720767" lon="8.64462"><ele>198.99999999999997</ele><time>2026-05-02T08:24:12.708Z</time></trkpt><trkpt lat="45.5720533" lon="8.6444933"><ele>199.0</ele><time>2026-05-02T08:24:15.714Z</time></trkpt><trkpt lat="45.5720417" lon="8.6443983"><ele>198.66666666666666</ele><time>2026-05-02T08:24:17.704Z</time></trkpt><trkpt lat="45.5720233" lon="8.6443083"><ele>198.33333333333331</ele><time>2026-05-02T08:24:19.706Z</time></trkpt><trkpt lat="45.5720017" lon="8.6442233"><ele>198.0</ele><time>2026-05-02T08:24:21.706Z</time></trkpt><trkpt lat="45.571975" lon="8.64414"><ele>197.66666666666669</ele><time>2026-05-02T08:24:24.707Z</time></trkpt><trkpt lat="45.571945" lon="8.6440083"><ele>197.33333333333334</ele><time>2026-05-02T08:24:27.706Z</time></trkpt><trkpt lat="45.57192" lon="8.64388"><ele>197.0</ele><time>2026-05-02T08:24:29.706Z</time></trkpt><trkpt lat="45.5718967" lon="8.6437617"><ele>197.00000000000003</ele><time>2026-05-02T08:24:31.704Z</time></trkpt><trkpt lat="45.5718767" lon="8.6436367"><ele>197.0</ele><time>2026-05-02T08:24:33.706Z</time></trkpt><trkpt lat="45.5718517" lon="8.6435133"><ele>197.0</ele><time>2026-05-02T08:24:35.708Z</time></trkpt><trkpt lat="45.5718233" lon="8.6434083"><ele>197.0</ele><time>2026-05-02T08:24:37.706Z</time></trkpt><trkpt lat="45.5718" lon="8.64331"><ele>197.00000000000003</ele><time>2026-05-02T08:24:39.705Z</time></trkpt><trkpt lat="45.5717783" lon="8.6432033"><ele>197.0</ele><time>2026-05-02T08:24:41.706Z</time></trkpt><trkpt lat="45.57176" lon="8.6431067"><ele>197.00000000000003</ele><time>2026-05-02T08:24:43.708Z</time></trkpt><trkpt lat="45.5717217" lon="8.6429817"><ele>197.0</ele><time>2026-05-02T08:24:46.707Z</time></trkpt><trkpt lat="45.5716933" lon="8.6428867"><ele>197.0</ele><time>2026-05-02T08:24:48.707Z</time></trkpt><trkpt lat="45.5716717" lon="8.6427917"><ele>197.0</ele><time>2026-05-02T08:24:50.708Z</time></trkpt><trkpt lat="45.5716467" lon="8.64269"><ele>197.00000000000003</ele><time>2026-05-02T08:24:52.704Z</time></trkpt><trkpt lat="45.57163" lon="8.64258"><ele>197.0</ele><time>2026-05-02T08:24:54.706Z</time></trkpt><trkpt lat="45.5716117" lon="8.64248"><ele>197.00000000000003</ele><time>2026-05-02T08:24:56.708Z</time></trkpt><trkpt lat="45.5715917" lon="8.642335"><ele>197.0</ele><time>2026-05-02T08:24:59.707Z</time></trkpt><trkpt lat="45.5715867" lon="8.6422117"><ele>197.0</ele><time>2026-05-02T08:25:01.707Z</time></trkpt><trkpt lat="45.5715867" lon="8.6420917"><ele>197.0</ele><time>2026-05-02T08:25:03.717Z</time></trkpt><trkpt lat="45.5715717" lon="8.6419767"><ele>197.00000000000003</ele><time>2026-05-02T08:25:05.706Z</time></trkpt><trkpt lat="45.5715517" lon="8.6418633"><ele>197.0</ele><time>2026-05-02T08:25:07.707Z</time></trkpt><trkpt lat="45.5715367" lon="8.6417633"><ele>197.00000000000003</ele><time>2026-05-02T08:25:09.705Z</time></trkpt><trkpt lat="45.5715133" lon="8.64167"><ele>197.0</ele><time>2026-05-02T08:25:11.706Z</time></trkpt><trkpt lat="45.5714733" lon="8.6415883"><ele>197.0</ele><time>2026-05-02T08:25:13.707Z</time></trkpt><trkpt lat="45.5714667" lon="8.6414917"><ele>197.0</ele><time>2026-05-02T08:25:16.707Z</time></trkpt><trkpt lat="45.5715217" lon="8.6414333"><ele>197.00000000000003</ele><time>2026-05-02T08:25:18.71Z</time></trkpt><trkpt lat="45.5716033" lon="8.64136"><ele>197.0</ele><time>2026-05-02T08:25:20.705Z</time></trkpt><trkpt lat="45.571685" lon="8.641285"><ele>197.00000000000003</ele><time>2026-05-02T08:25:22.708Z</time></trkpt><trkpt lat="45.57176" lon="8.641215"><ele>197.0</ele><time>2026-05-02T08:25:24.707Z</time></trkpt><trkpt lat="45.5718283" lon="8.6411267"><ele>197.0</ele><time>2026-05-02T08:25:26.707Z</time></trkpt><trkpt lat="45.5718867" lon="8.6410717"><ele>197.0</ele><time>2026-05-02T08:25:28.706Z</time></trkpt><trkpt lat="45.57195" lon="8.6410283"><ele>197.00000000000003</ele><time>2026-05-02T08:25:30.709Z</time></trkpt><trkpt lat="45.5720067" lon="8.640985"><ele>197.0</ele><time>2026-05-02T08:25:32.708Z</time></trkpt><trkpt lat="45.5720683" lon="8.6409433"><ele>197.0</ele><time>2026-05-02T08:25:35.706Z</time></trkpt><trkpt lat="45.572135" lon="8.6409283"><ele>197.0</ele><time>2026-05-02T08:25:38.712Z</time></trkpt><trkpt lat="45.5722017" lon="8.6408733"><ele>197.0</ele><time>2026-05-02T08:25:41.708Z</time></trkpt><trkpt lat="45.572265" lon="8.640845"><ele>197.0</ele><time>2026-05-02T08:25:46.705Z</time></trkpt><trkpt lat="45.5723383" lon="8.6408217"><ele>197.0</ele><time>2026-05-02T08:25:51.706Z</time></trkpt><trkpt lat="45.572405" lon="8.6407783"><ele>197.0</ele><time>2026-05-02T08:25:54.706Z</time></trkpt><trkpt lat="45.5724483" lon="8.640695"><ele>197.0</ele><time>2026-05-02T08:25:58.705Z</time></trkpt><trkpt lat="45.5724383" lon="8.640595"><ele>197.00000000000003</ele><time>2026-05-02T08:26:00.707Z</time></trkpt><trkpt lat="45.572415" lon="8.6404767"><ele>197.0</ele><time>2026-05-02T08:26:03.708Z</time></trkpt><trkpt lat="45.5723967" lon="8.6403517"><ele>197.0</ele><time>2026-05-02T08:26:06.709Z</time></trkpt><trkpt lat="45.5723783" lon="8.6402533"><ele>197.0</ele><time>2026-05-02T08:26:08.707Z</time></trkpt><trkpt lat="45.5723633" lon="8.64015"><ele>197.00000000000003</ele><time>2026-05-02T08:26:10.704Z</time></trkpt><trkpt lat="45.5723567" lon="8.64004"><ele>197.0</ele><time>2026-05-02T08:26:12.708Z</time></trkpt><trkpt lat="45.5723383" lon="8.6399467"><ele>195.0</ele><time>2026-05-02T08:26:14.705Z</time></trkpt><trkpt lat="45.5723183" lon="8.6398483"><ele>195.0</ele><time>2026-05-02T08:26:16.706Z</time></trkpt><trkpt lat="45.57235" lon="8.6397517"><ele>195.0</ele><time>2026-05-02T08:26:19.706Z</time></trkpt><trkpt lat="45.572405" lon="8.6396617"><ele>195.0</ele><time>2026-05-02T08:26:22.707Z</time></trkpt><trkpt lat="45.5724567" lon="8.6395883"><ele>195.0</ele><time>2026-05-02T08:26:25.705Z</time></trkpt><trkpt lat="45.5725033" lon="8.6395017"><ele>195.0</ele><time>2026-05-02T08:26:29.706Z</time></trkpt><trkpt lat="45.5725383" lon="8.639425"><ele>195.0</ele><time>2026-05-02T08:26:35.706Z</time></trkpt></trkseg></trk></gpx>